<?xml version="1.0" encoding="UTF-8" standalone="no" ?>
<gpx xmlns="http://www.topografix.com/GPX/1/1" xmlns:xsi="http://www.w3.org/2001/XMLSchema-instance" xsi:schemaLocation="http://www.topografix.com/GPX/1/1 http://www.topografix.com/GPX/1/1/gpx.xsd" version="1.1" creator="VisuGPX - https://www.visugpx.com">
  <metadata>
    <name> Rando Pique-nique AM</name>
    <desc><![CDATA[Randonnée de l\\\'AM
US-CERGY-CYCLO]]></desc>
  </metadata>
  <trk>
    <name><![CDATA[20130526_Saint_Clair_26]]></name>
    <trkseg>
      <trkpt lat="49.21421" lon="1.69889">
        <ele>112.13</ele>
        <time>2013-05-26T12:59:15Z</time>
      </trkpt>
      <trkpt lat="49.21421" lon="1.6989">
        <ele>112.61</ele>
        <time>2013-05-26T12:59:47Z</time>
      </trkpt>
      <trkpt lat="49.21422" lon="1.6989">
        <ele>112.61</ele>
        <time>2013-05-26T13:00:06Z</time>
      </trkpt>
      <trkpt lat="49.21422" lon="1.69889">
        <ele>113.09</ele>
        <time>2013-05-26T13:00:43Z</time>
      </trkpt>
      <trkpt lat="49.21422" lon="1.69888">
        <ele>112.13</ele>
        <time>2013-05-26T13:01:16Z</time>
      </trkpt>
      <trkpt lat="49.21422" lon="1.69889">
        <ele>112.61</ele>
        <time>2013-05-26T13:01:38Z</time>
      </trkpt>
      <trkpt lat="49.21422" lon="1.69889">
        <ele>112.61</ele>
        <time>2013-05-26T13:02:03Z</time>
      </trkpt>
      <trkpt lat="49.21422" lon="1.69889">
        <ele>112.13</ele>
        <time>2013-05-26T13:02:39Z</time>
      </trkpt>
      <trkpt lat="49.21422" lon="1.69888">
        <ele>112.13</ele>
        <time>2013-05-26T13:03:13Z</time>
      </trkpt>
      <trkpt lat="49.21422" lon="1.69889">
        <ele>111.17</ele>
        <time>2013-05-26T13:03:44Z</time>
      </trkpt>
      <trkpt lat="49.21424" lon="1.69887">
        <ele>112.13</ele>
        <time>2013-05-26T13:04:03Z</time>
      </trkpt>
      <trkpt lat="49.21435" lon="1.69873">
        <ele>112.13</ele>
        <time>2013-05-26T13:04:16Z</time>
      </trkpt>
      <trkpt lat="49.21439" lon="1.69868">
        <ele>111.17</ele>
        <time>2013-05-26T13:04:20Z</time>
      </trkpt>
      <trkpt lat="49.21457" lon="1.69845">
        <ele>112.13</ele>
        <time>2013-05-26T13:04:32Z</time>
      </trkpt>
      <trkpt lat="49.21464" lon="1.69839">
        <ele>112.61</ele>
        <time>2013-05-26T13:04:42Z</time>
      </trkpt>
      <trkpt lat="49.21475" lon="1.69831">
        <ele>112.61</ele>
        <time>2013-05-26T13:04:53Z</time>
      </trkpt>
      <trkpt lat="49.21479" lon="1.69828">
        <ele>112.61</ele>
        <time>2013-05-26T13:05:11Z</time>
      </trkpt>
      <trkpt lat="49.21479" lon="1.69826">
        <ele>112.13</ele>
        <time>2013-05-26T13:05:41Z</time>
      </trkpt>
      <trkpt lat="49.21482" lon="1.69825">
        <ele>112.13</ele>
        <time>2013-05-26T13:05:53Z</time>
      </trkpt>
      <trkpt lat="49.21493" lon="1.69819">
        <ele>112.61</ele>
        <time>2013-05-26T13:05:59Z</time>
      </trkpt>
      <trkpt lat="49.21538" lon="1.69791">
        <ele>112.13</ele>
        <time>2013-05-26T13:06:16Z</time>
      </trkpt>
      <trkpt lat="49.2155" lon="1.6978">
        <ele>110.21</ele>
        <time>2013-05-26T13:06:25Z</time>
      </trkpt>
      <trkpt lat="49.21553" lon="1.69774">
        <ele>110.21</ele>
        <time>2013-05-26T13:06:39Z</time>
      </trkpt>
      <trkpt lat="49.21553" lon="1.69774">
        <ele>110.21</ele>
        <time>2013-05-26T13:06:40Z</time>
      </trkpt>
      <trkpt lat="49.21561" lon="1.69759">
        <ele>107.32</ele>
        <time>2013-05-26T13:06:47Z</time>
      </trkpt>
      <trkpt lat="49.21569" lon="1.69758">
        <ele>106.36</ele>
        <time>2013-05-26T13:06:51Z</time>
      </trkpt>
      <trkpt lat="49.21583" lon="1.6977">
        <ele>103.96</ele>
        <time>2013-05-26T13:06:55Z</time>
      </trkpt>
      <trkpt lat="49.21587" lon="1.69773">
        <ele>103.96</ele>
        <time>2013-05-26T13:06:56Z</time>
      </trkpt>
      <trkpt lat="49.21604" lon="1.69785">
        <ele>100.6</ele>
        <time>2013-05-26T13:07:03Z</time>
      </trkpt>
      <trkpt lat="49.21613" lon="1.69793">
        <ele>99.15</ele>
        <time>2013-05-26T13:07:06Z</time>
      </trkpt>
      <trkpt lat="49.2162" lon="1.698">
        <ele>97.71</ele>
        <time>2013-05-26T13:07:10Z</time>
      </trkpt>
      <trkpt lat="49.21622" lon="1.69804">
        <ele>97.71</ele>
        <time>2013-05-26T13:07:12Z</time>
      </trkpt>
      <trkpt lat="49.21643" lon="1.69829">
        <ele>94.35</ele>
        <time>2013-05-26T13:07:24Z</time>
      </trkpt>
      <trkpt lat="49.21668" lon="1.69848">
        <ele>91.46</ele>
        <time>2013-05-26T13:07:33Z</time>
      </trkpt>
      <trkpt lat="49.21692" lon="1.69861">
        <ele>89.06</ele>
        <time>2013-05-26T13:07:42Z</time>
      </trkpt>
      <trkpt lat="49.21694" lon="1.69863">
        <ele>90.02</ele>
        <time>2013-05-26T13:07:43Z</time>
      </trkpt>
      <trkpt lat="49.21697" lon="1.69865">
        <ele>89.06</ele>
        <time>2013-05-26T13:07:44Z</time>
      </trkpt>
      <trkpt lat="49.21699" lon="1.69867">
        <ele>89.06</ele>
        <time>2013-05-26T13:07:45Z</time>
      </trkpt>
      <trkpt lat="49.21702" lon="1.69869">
        <ele>89.06</ele>
        <time>2013-05-26T13:07:46Z</time>
      </trkpt>
      <trkpt lat="49.21705" lon="1.69871">
        <ele>88.1</ele>
        <time>2013-05-26T13:07:47Z</time>
      </trkpt>
      <trkpt lat="49.21726" lon="1.69881">
        <ele>85.21</ele>
        <time>2013-05-26T13:07:54Z</time>
      </trkpt>
      <trkpt lat="49.2175" lon="1.69894">
        <ele>82.81</ele>
        <time>2013-05-26T13:07:59Z</time>
      </trkpt>
      <trkpt lat="49.21784" lon="1.69911">
        <ele>78.97</ele>
        <time>2013-05-26T13:08:09Z</time>
      </trkpt>
      <trkpt lat="49.21798" lon="1.69919">
        <ele>77.52</ele>
        <time>2013-05-26T13:08:12Z</time>
      </trkpt>
      <trkpt lat="49.21837" lon="1.69931">
        <ele>74.64</ele>
        <time>2013-05-26T13:08:19Z</time>
      </trkpt>
      <trkpt lat="49.21843" lon="1.69932">
        <ele>73.68</ele>
        <time>2013-05-26T13:08:20Z</time>
      </trkpt>
      <trkpt lat="49.21849" lon="1.69935">
        <ele>73.68</ele>
        <time>2013-05-26T13:08:21Z</time>
      </trkpt>
      <trkpt lat="49.21862" lon="1.69942">
        <ele>73.2</ele>
        <time>2013-05-26T13:08:23Z</time>
      </trkpt>
      <trkpt lat="49.21869" lon="1.69945">
        <ele>72.24</ele>
        <time>2013-05-26T13:08:24Z</time>
      </trkpt>
      <trkpt lat="49.21875" lon="1.69947">
        <ele>71.76</ele>
        <time>2013-05-26T13:08:25Z</time>
      </trkpt>
      <trkpt lat="49.21911" lon="1.69964">
        <ele>68.87</ele>
        <time>2013-05-26T13:08:32Z</time>
      </trkpt>
      <trkpt lat="49.21916" lon="1.69965">
        <ele>68.39</ele>
        <time>2013-05-26T13:08:33Z</time>
      </trkpt>
      <trkpt lat="49.21933" lon="1.69974">
        <ele>67.43</ele>
        <time>2013-05-26T13:08:36Z</time>
      </trkpt>
      <trkpt lat="49.21938" lon="1.69977">
        <ele>66.47</ele>
        <time>2013-05-26T13:08:37Z</time>
      </trkpt>
      <trkpt lat="49.21943" lon="1.69979">
        <ele>65.99</ele>
        <time>2013-05-26T13:08:38Z</time>
      </trkpt>
      <trkpt lat="49.21947" lon="1.69981">
        <ele>65.51</ele>
        <time>2013-05-26T13:08:39Z</time>
      </trkpt>
      <trkpt lat="49.21951" lon="1.69984">
        <ele>65.03</ele>
        <time>2013-05-26T13:08:40Z</time>
      </trkpt>
      <trkpt lat="49.21979" lon="1.70005">
        <ele>62.62</ele>
        <time>2013-05-26T13:08:46Z</time>
      </trkpt>
      <trkpt lat="49.21983" lon="1.70009">
        <ele>62.62</ele>
        <time>2013-05-26T13:08:47Z</time>
      </trkpt>
      <trkpt lat="49.21988" lon="1.70012">
        <ele>62.14</ele>
        <time>2013-05-26T13:08:48Z</time>
      </trkpt>
      <trkpt lat="49.22" lon="1.70021">
        <ele>60.7</ele>
        <time>2013-05-26T13:08:51Z</time>
      </trkpt>
      <trkpt lat="49.22034" lon="1.70043">
        <ele>57.34</ele>
        <time>2013-05-26T13:09:00Z</time>
      </trkpt>
      <trkpt lat="49.22065" lon="1.7006">
        <ele>55.41</ele>
        <time>2013-05-26T13:09:09Z</time>
      </trkpt>
      <trkpt lat="49.22089" lon="1.70069">
        <ele>52.05</ele>
        <time>2013-05-26T13:09:16Z</time>
      </trkpt>
      <trkpt lat="49.22119" lon="1.70082">
        <ele>50.13</ele>
        <time>2013-05-26T13:09:25Z</time>
      </trkpt>
      <trkpt lat="49.22134" lon="1.70089">
        <ele>48.68</ele>
        <time>2013-05-26T13:09:29Z</time>
      </trkpt>
      <trkpt lat="49.22152" lon="1.70094">
        <ele>46.76</ele>
        <time>2013-05-26T13:09:39Z</time>
      </trkpt>
      <trkpt lat="49.22156" lon="1.70097">
        <ele>46.28</ele>
        <time>2013-05-26T13:09:43Z</time>
      </trkpt>
      <trkpt lat="49.22161" lon="1.70099">
        <ele>46.28</ele>
        <time>2013-05-26T13:09:48Z</time>
      </trkpt>
      <trkpt lat="49.22167" lon="1.70102">
        <ele>45.32</ele>
        <time>2013-05-26T13:09:52Z</time>
      </trkpt>
      <trkpt lat="49.2217" lon="1.70102">
        <ele>45.32</ele>
        <time>2013-05-26T13:09:53Z</time>
      </trkpt>
      <trkpt lat="49.22174" lon="1.70103">
        <ele>43.4</ele>
        <time>2013-05-26T13:09:54Z</time>
      </trkpt>
      <trkpt lat="49.22178" lon="1.70104">
        <ele>43.88</ele>
        <time>2013-05-26T13:09:55Z</time>
      </trkpt>
      <trkpt lat="49.22182" lon="1.70105">
        <ele>42.92</ele>
        <time>2013-05-26T13:09:56Z</time>
      </trkpt>
      <trkpt lat="49.22191" lon="1.70105">
        <ele>41.47</ele>
        <time>2013-05-26T13:09:59Z</time>
      </trkpt>
      <trkpt lat="49.22194" lon="1.70106">
        <ele>41.47</ele>
        <time>2013-05-26T13:10:00Z</time>
      </trkpt>
      <trkpt lat="49.22202" lon="1.70109">
        <ele>40.99</ele>
        <time>2013-05-26T13:10:04Z</time>
      </trkpt>
      <trkpt lat="49.22205" lon="1.70109">
        <ele>40.99</ele>
        <time>2013-05-26T13:10:16Z</time>
      </trkpt>
      <trkpt lat="49.22207" lon="1.70106">
        <ele>40.03</ele>
        <time>2013-05-26T13:10:29Z</time>
      </trkpt>
      <trkpt lat="49.22208" lon="1.70106">
        <ele>40.03</ele>
        <time>2013-05-26T13:10:30Z</time>
      </trkpt>
      <trkpt lat="49.22209" lon="1.70108">
        <ele>40.51</ele>
        <time>2013-05-26T13:10:31Z</time>
      </trkpt>
      <trkpt lat="49.22211" lon="1.70108">
        <ele>40.03</ele>
        <time>2013-05-26T13:10:32Z</time>
      </trkpt>
      <trkpt lat="49.22211" lon="1.70105">
        <ele>40.51</ele>
        <time>2013-05-26T13:10:39Z</time>
      </trkpt>
      <trkpt lat="49.22211" lon="1.70104">
        <ele>40.03</ele>
        <time>2013-05-26T13:11:00Z</time>
      </trkpt>
      <trkpt lat="49.22212" lon="1.70104">
        <ele>39.55</ele>
        <time>2013-05-26T13:11:05Z</time>
      </trkpt>
      <trkpt lat="49.22202" lon="1.70092">
        <ele>40.03</ele>
        <time>2013-05-26T13:11:11Z</time>
      </trkpt>
      <trkpt lat="49.22163" lon="1.70037">
        <ele>39.07</ele>
        <time>2013-05-26T13:11:26Z</time>
      </trkpt>
      <trkpt lat="49.2212" lon="1.69979">
        <ele>40.51</ele>
        <time>2013-05-26T13:11:42Z</time>
      </trkpt>
      <trkpt lat="49.22083" lon="1.69927">
        <ele>40.99</ele>
        <time>2013-05-26T13:11:56Z</time>
      </trkpt>
      <trkpt lat="49.22041" lon="1.6986">
        <ele>42.44</ele>
        <time>2013-05-26T13:12:12Z</time>
      </trkpt>
      <trkpt lat="49.22003" lon="1.69794">
        <ele>43.4</ele>
        <time>2013-05-26T13:12:28Z</time>
      </trkpt>
      <trkpt lat="49.21951" lon="1.69728">
        <ele>43.4</ele>
        <time>2013-05-26T13:12:45Z</time>
      </trkpt>
      <trkpt lat="49.21891" lon="1.69662">
        <ele>42.92</ele>
        <time>2013-05-26T13:13:03Z</time>
      </trkpt>
      <trkpt lat="49.2183" lon="1.696">
        <ele>44.36</ele>
        <time>2013-05-26T13:13:21Z</time>
      </trkpt>
      <trkpt lat="49.21783" lon="1.69561">
        <ele>46.76</ele>
        <time>2013-05-26T13:13:37Z</time>
      </trkpt>
      <trkpt lat="49.21729" lon="1.69517">
        <ele>46.76</ele>
        <time>2013-05-26T13:13:55Z</time>
      </trkpt>
      <trkpt lat="49.21681" lon="1.69465">
        <ele>47.24</ele>
        <time>2013-05-26T13:14:09Z</time>
      </trkpt>
      <trkpt lat="49.21674" lon="1.69455">
        <ele>45.32</ele>
        <time>2013-05-26T13:14:11Z</time>
      </trkpt>
      <trkpt lat="49.21616" lon="1.6937">
        <ele>45.32</ele>
        <time>2013-05-26T13:14:26Z</time>
      </trkpt>
      <trkpt lat="49.21538" lon="1.69284">
        <ele>44.84</ele>
        <time>2013-05-26T13:14:45Z</time>
      </trkpt>
      <trkpt lat="49.21505" lon="1.69251">
        <ele>43.88</ele>
        <time>2013-05-26T13:14:52Z</time>
      </trkpt>
      <trkpt lat="49.21437" lon="1.69158">
        <ele>45.8</ele>
        <time>2013-05-26T13:15:09Z</time>
      </trkpt>
      <trkpt lat="49.21425" lon="1.69137">
        <ele>45.32</ele>
        <time>2013-05-26T13:15:13Z</time>
      </trkpt>
      <trkpt lat="49.21366" lon="1.69016">
        <ele>44.36</ele>
        <time>2013-05-26T13:15:32Z</time>
      </trkpt>
      <trkpt lat="49.21311" lon="1.68903">
        <ele>43.88</ele>
        <time>2013-05-26T13:15:49Z</time>
      </trkpt>
      <trkpt lat="49.21252" lon="1.6878">
        <ele>44.84</ele>
        <time>2013-05-26T13:16:08Z</time>
      </trkpt>
      <trkpt lat="49.2125" lon="1.68774">
        <ele>43.4</ele>
        <time>2013-05-26T13:16:09Z</time>
      </trkpt>
      <trkpt lat="49.21247" lon="1.6877">
        <ele>44.36</ele>
        <time>2013-05-26T13:16:10Z</time>
      </trkpt>
      <trkpt lat="49.21231" lon="1.68747">
        <ele>44.84</ele>
        <time>2013-05-26T13:16:21Z</time>
      </trkpt>
      <trkpt lat="49.21232" lon="1.68747">
        <ele>44.84</ele>
        <time>2013-05-26T13:16:33Z</time>
      </trkpt>
      <trkpt lat="49.21232" lon="1.68746">
        <ele>43.88</ele>
        <time>2013-05-26T13:17:02Z</time>
      </trkpt>
      <trkpt lat="49.21231" lon="1.68744">
        <ele>45.32</ele>
        <time>2013-05-26T13:17:24Z</time>
      </trkpt>
      <trkpt lat="49.21231" lon="1.68744">
        <ele>41.95</ele>
        <time>2013-05-26T13:17:29Z</time>
      </trkpt>
      <trkpt lat="49.21229" lon="1.68743">
        <ele>45.8</ele>
        <time>2013-05-26T13:17:45Z</time>
      </trkpt>
      <trkpt lat="49.21228" lon="1.68741">
        <ele>44.36</ele>
        <time>2013-05-26T13:17:46Z</time>
      </trkpt>
      <trkpt lat="49.21225" lon="1.6874">
        <ele>45.32</ele>
        <time>2013-05-26T13:17:47Z</time>
      </trkpt>
      <trkpt lat="49.21223" lon="1.68739">
        <ele>45.32</ele>
        <time>2013-05-26T13:17:48Z</time>
      </trkpt>
      <trkpt lat="49.21221" lon="1.68736">
        <ele>45.32</ele>
        <time>2013-05-26T13:17:49Z</time>
      </trkpt>
      <trkpt lat="49.21218" lon="1.68733">
        <ele>45.8</ele>
        <time>2013-05-26T13:17:50Z</time>
      </trkpt>
      <trkpt lat="49.21162" lon="1.68685">
        <ele>46.76</ele>
        <time>2013-05-26T13:18:05Z</time>
      </trkpt>
      <trkpt lat="49.21087" lon="1.68618">
        <ele>47.24</ele>
        <time>2013-05-26T13:18:23Z</time>
      </trkpt>
      <trkpt lat="49.21083" lon="1.68613">
        <ele>47.24</ele>
        <time>2013-05-26T13:18:24Z</time>
      </trkpt>
      <trkpt lat="49.21021" lon="1.68521">
        <ele>44.36</ele>
        <time>2013-05-26T13:18:39Z</time>
      </trkpt>
      <trkpt lat="49.21005" lon="1.68493">
        <ele>43.88</ele>
        <time>2013-05-26T13:18:43Z</time>
      </trkpt>
      <trkpt lat="49.2096" lon="1.68392">
        <ele>39.07</ele>
        <time>2013-05-26T13:18:54Z</time>
      </trkpt>
      <trkpt lat="49.20956" lon="1.68381">
        <ele>39.55</ele>
        <time>2013-05-26T13:18:55Z</time>
      </trkpt>
      <trkpt lat="49.20895" lon="1.6828">
        <ele>38.11</ele>
        <time>2013-05-26T13:19:07Z</time>
      </trkpt>
      <trkpt lat="49.20811" lon="1.68164">
        <ele>38.11</ele>
        <time>2013-05-26T13:19:24Z</time>
      </trkpt>
      <trkpt lat="49.20807" lon="1.68157">
        <ele>39.07</ele>
        <time>2013-05-26T13:19:25Z</time>
      </trkpt>
      <trkpt lat="49.20795" lon="1.68135">
        <ele>39.55</ele>
        <time>2013-05-26T13:19:28Z</time>
      </trkpt>
      <trkpt lat="49.2079" lon="1.68129">
        <ele>39.55</ele>
        <time>2013-05-26T13:19:29Z</time>
      </trkpt>
      <trkpt lat="49.20769" lon="1.68087">
        <ele>40.03</ele>
        <time>2013-05-26T13:19:35Z</time>
      </trkpt>
      <trkpt lat="49.2076" lon="1.68067">
        <ele>40.99</ele>
        <time>2013-05-26T13:19:38Z</time>
      </trkpt>
      <trkpt lat="49.20757" lon="1.68061">
        <ele>40.51</ele>
        <time>2013-05-26T13:19:39Z</time>
      </trkpt>
      <trkpt lat="49.20753" lon="1.68057">
        <ele>40.99</ele>
        <time>2013-05-26T13:19:40Z</time>
      </trkpt>
      <trkpt lat="49.20749" lon="1.68053">
        <ele>40.99</ele>
        <time>2013-05-26T13:19:41Z</time>
      </trkpt>
      <trkpt lat="49.20745" lon="1.6805">
        <ele>41.47</ele>
        <time>2013-05-26T13:19:42Z</time>
      </trkpt>
      <trkpt lat="49.20741" lon="1.68048">
        <ele>41.95</ele>
        <time>2013-05-26T13:19:43Z</time>
      </trkpt>
      <trkpt lat="49.20736" lon="1.68046">
        <ele>41.95</ele>
        <time>2013-05-26T13:19:44Z</time>
      </trkpt>
      <trkpt lat="49.20712" lon="1.68033">
        <ele>43.88</ele>
        <time>2013-05-26T13:19:55Z</time>
      </trkpt>
      <trkpt lat="49.20712" lon="1.68031">
        <ele>43.4</ele>
        <time>2013-05-26T13:20:05Z</time>
      </trkpt>
      <trkpt lat="49.20699" lon="1.67997">
        <ele>41.47</ele>
        <time>2013-05-26T13:20:13Z</time>
      </trkpt>
      <trkpt lat="49.20682" lon="1.67952">
        <ele>40.51</ele>
        <time>2013-05-26T13:20:19Z</time>
      </trkpt>
      <trkpt lat="49.20671" lon="1.679">
        <ele>37.15</ele>
        <time>2013-05-26T13:20:24Z</time>
      </trkpt>
      <trkpt lat="49.20667" lon="1.6789">
        <ele>38.11</ele>
        <time>2013-05-26T13:20:25Z</time>
      </trkpt>
      <trkpt lat="49.20663" lon="1.6788">
        <ele>37.15</ele>
        <time>2013-05-26T13:20:26Z</time>
      </trkpt>
      <trkpt lat="49.20657" lon="1.67873">
        <ele>36.67</ele>
        <time>2013-05-26T13:20:27Z</time>
      </trkpt>
      <trkpt lat="49.20651" lon="1.67867">
        <ele>37.15</ele>
        <time>2013-05-26T13:20:28Z</time>
      </trkpt>
      <trkpt lat="49.20644" lon="1.67862">
        <ele>36.19</ele>
        <time>2013-05-26T13:20:29Z</time>
      </trkpt>
      <trkpt lat="49.20638" lon="1.67858">
        <ele>37.15</ele>
        <time>2013-05-26T13:20:30Z</time>
      </trkpt>
      <trkpt lat="49.20631" lon="1.67855">
        <ele>37.15</ele>
        <time>2013-05-26T13:20:31Z</time>
      </trkpt>
      <trkpt lat="49.20563" lon="1.6783">
        <ele>38.11</ele>
        <time>2013-05-26T13:20:44Z</time>
      </trkpt>
      <trkpt lat="49.20541" lon="1.67821">
        <ele>39.07</ele>
        <time>2013-05-26T13:20:49Z</time>
      </trkpt>
      <trkpt lat="49.20536" lon="1.6782">
        <ele>38.11</ele>
        <time>2013-05-26T13:20:50Z</time>
      </trkpt>
      <trkpt lat="49.20511" lon="1.67809">
        <ele>38.11</ele>
        <time>2013-05-26T13:20:56Z</time>
      </trkpt>
      <trkpt lat="49.20507" lon="1.67805">
        <ele>37.63</ele>
        <time>2013-05-26T13:20:57Z</time>
      </trkpt>
      <trkpt lat="49.20503" lon="1.67801">
        <ele>38.11</ele>
        <time>2013-05-26T13:20:58Z</time>
      </trkpt>
      <trkpt lat="49.20499" lon="1.67796">
        <ele>37.63</ele>
        <time>2013-05-26T13:20:59Z</time>
      </trkpt>
      <trkpt lat="49.20495" lon="1.6779">
        <ele>37.63</ele>
        <time>2013-05-26T13:21:00Z</time>
      </trkpt>
      <trkpt lat="49.20491" lon="1.67784">
        <ele>38.59</ele>
        <time>2013-05-26T13:21:01Z</time>
      </trkpt>
      <trkpt lat="49.20488" lon="1.67778">
        <ele>36.67</ele>
        <time>2013-05-26T13:21:02Z</time>
      </trkpt>
      <trkpt lat="49.20464" lon="1.67737">
        <ele>35.71</ele>
        <time>2013-05-26T13:21:08Z</time>
      </trkpt>
      <trkpt lat="49.20446" lon="1.67717">
        <ele>35.71</ele>
        <time>2013-05-26T13:21:12Z</time>
      </trkpt>
      <trkpt lat="49.20397" lon="1.67674">
        <ele>35.71</ele>
        <time>2013-05-26T13:21:23Z</time>
      </trkpt>
      <trkpt lat="49.20394" lon="1.67668">
        <ele>35.71</ele>
        <time>2013-05-26T13:21:24Z</time>
      </trkpt>
      <trkpt lat="49.20387" lon="1.67658">
        <ele>35.71</ele>
        <time>2013-05-26T13:21:26Z</time>
      </trkpt>
      <trkpt lat="49.20385" lon="1.67652">
        <ele>35.23</ele>
        <time>2013-05-26T13:21:27Z</time>
      </trkpt>
      <trkpt lat="49.20374" lon="1.67615">
        <ele>37.15</ele>
        <time>2013-05-26T13:21:33Z</time>
      </trkpt>
      <trkpt lat="49.20372" lon="1.67608">
        <ele>36.67</ele>
        <time>2013-05-26T13:21:34Z</time>
      </trkpt>
      <trkpt lat="49.20371" lon="1.67601">
        <ele>36.67</ele>
        <time>2013-05-26T13:21:35Z</time>
      </trkpt>
      <trkpt lat="49.20371" lon="1.67593">
        <ele>37.63</ele>
        <time>2013-05-26T13:21:36Z</time>
      </trkpt>
      <trkpt lat="49.20371" lon="1.67586">
        <ele>35.71</ele>
        <time>2013-05-26T13:21:37Z</time>
      </trkpt>
      <trkpt lat="49.2037" lon="1.67564">
        <ele>37.15</ele>
        <time>2013-05-26T13:21:40Z</time>
      </trkpt>
      <trkpt lat="49.20371" lon="1.67557">
        <ele>37.15</ele>
        <time>2013-05-26T13:21:41Z</time>
      </trkpt>
      <trkpt lat="49.20371" lon="1.67551">
        <ele>37.15</ele>
        <time>2013-05-26T13:21:42Z</time>
      </trkpt>
      <trkpt lat="49.20373" lon="1.67537">
        <ele>37.63</ele>
        <time>2013-05-26T13:21:44Z</time>
      </trkpt>
      <trkpt lat="49.20374" lon="1.6753">
        <ele>36.67</ele>
        <time>2013-05-26T13:21:45Z</time>
      </trkpt>
      <trkpt lat="49.20409" lon="1.67448">
        <ele>37.15</ele>
        <time>2013-05-26T13:22:00Z</time>
      </trkpt>
      <trkpt lat="49.2047" lon="1.67359">
        <ele>36.19</ele>
        <time>2013-05-26T13:22:18Z</time>
      </trkpt>
      <trkpt lat="49.20534" lon="1.67265">
        <ele>36.67</ele>
        <time>2013-05-26T13:22:36Z</time>
      </trkpt>
      <trkpt lat="49.206" lon="1.67167">
        <ele>36.19</ele>
        <time>2013-05-26T13:22:55Z</time>
      </trkpt>
      <trkpt lat="49.20654" lon="1.67086">
        <ele>37.63</ele>
        <time>2013-05-26T13:23:10Z</time>
      </trkpt>
      <trkpt lat="49.20705" lon="1.67013">
        <ele>37.15</ele>
        <time>2013-05-26T13:23:23Z</time>
      </trkpt>
      <trkpt lat="49.20708" lon="1.67007">
        <ele>36.67</ele>
        <time>2013-05-26T13:23:24Z</time>
      </trkpt>
      <trkpt lat="49.20712" lon="1.67002">
        <ele>37.63</ele>
        <time>2013-05-26T13:23:25Z</time>
      </trkpt>
      <trkpt lat="49.20763" lon="1.66923">
        <ele>37.63</ele>
        <time>2013-05-26T13:23:40Z</time>
      </trkpt>
      <trkpt lat="49.20766" lon="1.66918">
        <ele>37.15</ele>
        <time>2013-05-26T13:23:41Z</time>
      </trkpt>
      <trkpt lat="49.20768" lon="1.66913">
        <ele>38.11</ele>
        <time>2013-05-26T13:23:42Z</time>
      </trkpt>
      <trkpt lat="49.20769" lon="1.66908">
        <ele>36.67</ele>
        <time>2013-05-26T13:23:43Z</time>
      </trkpt>
      <trkpt lat="49.2077" lon="1.66903">
        <ele>37.15</ele>
        <time>2013-05-26T13:23:44Z</time>
      </trkpt>
      <trkpt lat="49.20771" lon="1.66886">
        <ele>37.15</ele>
        <time>2013-05-26T13:23:48Z</time>
      </trkpt>
      <trkpt lat="49.2077" lon="1.66883">
        <ele>37.63</ele>
        <time>2013-05-26T13:23:49Z</time>
      </trkpt>
      <trkpt lat="49.20767" lon="1.66881">
        <ele>37.15</ele>
        <time>2013-05-26T13:23:50Z</time>
      </trkpt>
      <trkpt lat="49.20765" lon="1.66879">
        <ele>37.15</ele>
        <time>2013-05-26T13:23:51Z</time>
      </trkpt>
      <trkpt lat="49.20762" lon="1.66877">
        <ele>37.63</ele>
        <time>2013-05-26T13:23:52Z</time>
      </trkpt>
      <trkpt lat="49.20758" lon="1.66877">
        <ele>38.11</ele>
        <time>2013-05-26T13:23:53Z</time>
      </trkpt>
      <trkpt lat="49.20754" lon="1.66877">
        <ele>37.63</ele>
        <time>2013-05-26T13:23:54Z</time>
      </trkpt>
      <trkpt lat="49.20749" lon="1.66876">
        <ele>37.63</ele>
        <time>2013-05-26T13:23:55Z</time>
      </trkpt>
      <trkpt lat="49.20745" lon="1.66875">
        <ele>37.15</ele>
        <time>2013-05-26T13:23:56Z</time>
      </trkpt>
      <trkpt lat="49.2074" lon="1.66873">
        <ele>37.63</ele>
        <time>2013-05-26T13:23:57Z</time>
      </trkpt>
      <trkpt lat="49.20735" lon="1.66872">
        <ele>36.67</ele>
        <time>2013-05-26T13:23:58Z</time>
      </trkpt>
      <trkpt lat="49.2068" lon="1.66858">
        <ele>36.67</ele>
        <time>2013-05-26T13:24:09Z</time>
      </trkpt>
      <trkpt lat="49.20675" lon="1.66858">
        <ele>36.19</ele>
        <time>2013-05-26T13:24:10Z</time>
      </trkpt>
      <trkpt lat="49.2067" lon="1.66857">
        <ele>36.67</ele>
        <time>2013-05-26T13:24:11Z</time>
      </trkpt>
      <trkpt lat="49.20657" lon="1.66852">
        <ele>37.15</ele>
        <time>2013-05-26T13:24:14Z</time>
      </trkpt>
      <trkpt lat="49.20646" lon="1.66851">
        <ele>37.15</ele>
        <time>2013-05-26T13:24:16Z</time>
      </trkpt>
      <trkpt lat="49.20617" lon="1.6684">
        <ele>36.67</ele>
        <time>2013-05-26T13:24:22Z</time>
      </trkpt>
      <trkpt lat="49.20612" lon="1.66839">
        <ele>36.19</ele>
        <time>2013-05-26T13:24:23Z</time>
      </trkpt>
      <trkpt lat="49.20537" lon="1.66815">
        <ele>35.71</ele>
        <time>2013-05-26T13:24:38Z</time>
      </trkpt>
      <trkpt lat="49.20479" lon="1.66799">
        <ele>35.71</ele>
        <time>2013-05-26T13:24:49Z</time>
      </trkpt>
      <trkpt lat="49.20474" lon="1.66798">
        <ele>35.23</ele>
        <time>2013-05-26T13:24:50Z</time>
      </trkpt>
      <trkpt lat="49.20469" lon="1.66797">
        <ele>35.71</ele>
        <time>2013-05-26T13:24:51Z</time>
      </trkpt>
      <trkpt lat="49.20435" lon="1.66787">
        <ele>35.71</ele>
        <time>2013-05-26T13:24:58Z</time>
      </trkpt>
      <trkpt lat="49.20431" lon="1.66786">
        <ele>35.71</ele>
        <time>2013-05-26T13:24:59Z</time>
      </trkpt>
      <trkpt lat="49.20396" lon="1.66781">
        <ele>35.71</ele>
        <time>2013-05-26T13:25:06Z</time>
      </trkpt>
      <trkpt lat="49.20377" lon="1.66773">
        <ele>35.71</ele>
        <time>2013-05-26T13:25:10Z</time>
      </trkpt>
      <trkpt lat="49.20339" lon="1.66754">
        <ele>35.23</ele>
        <time>2013-05-26T13:25:19Z</time>
      </trkpt>
      <trkpt lat="49.20248" lon="1.66731">
        <ele>35.71</ele>
        <time>2013-05-26T13:25:37Z</time>
      </trkpt>
      <trkpt lat="49.20149" lon="1.66703">
        <ele>36.19</ele>
        <time>2013-05-26T13:25:57Z</time>
      </trkpt>
      <trkpt lat="49.20135" lon="1.667">
        <ele>36.19</ele>
        <time>2013-05-26T13:26:04Z</time>
      </trkpt>
      <trkpt lat="49.20132" lon="1.667">
        <ele>36.19</ele>
        <time>2013-05-26T13:26:07Z</time>
      </trkpt>
      <trkpt lat="49.20129" lon="1.667">
        <ele>36.19</ele>
        <time>2013-05-26T13:26:10Z</time>
      </trkpt>
      <trkpt lat="49.20129" lon="1.66699">
        <ele>36.67</ele>
        <time>2013-05-26T13:26:11Z</time>
      </trkpt>
      <trkpt lat="49.20128" lon="1.66698">
        <ele>36.67</ele>
        <time>2013-05-26T13:26:12Z</time>
      </trkpt>
      <trkpt lat="49.20127" lon="1.66697">
        <ele>36.19</ele>
        <time>2013-05-26T13:26:13Z</time>
      </trkpt>
      <trkpt lat="49.20127" lon="1.66694">
        <ele>36.19</ele>
        <time>2013-05-26T13:26:14Z</time>
      </trkpt>
      <trkpt lat="49.20127" lon="1.66692">
        <ele>36.67</ele>
        <time>2013-05-26T13:26:15Z</time>
      </trkpt>
      <trkpt lat="49.20127" lon="1.66689">
        <ele>36.19</ele>
        <time>2013-05-26T13:26:16Z</time>
      </trkpt>
      <trkpt lat="49.20133" lon="1.66647">
        <ele>38.59</ele>
        <time>2013-05-26T13:26:28Z</time>
      </trkpt>
      <trkpt lat="49.20134" lon="1.66636">
        <ele>38.59</ele>
        <time>2013-05-26T13:26:32Z</time>
      </trkpt>
      <trkpt lat="49.20134" lon="1.66634">
        <ele>39.07</ele>
        <time>2013-05-26T13:26:33Z</time>
      </trkpt>
      <trkpt lat="49.20135" lon="1.66631">
        <ele>38.59</ele>
        <time>2013-05-26T13:26:34Z</time>
      </trkpt>
      <trkpt lat="49.20135" lon="1.66629">
        <ele>40.03</ele>
        <time>2013-05-26T13:26:35Z</time>
      </trkpt>
      <trkpt lat="49.20135" lon="1.66627">
        <ele>39.07</ele>
        <time>2013-05-26T13:26:36Z</time>
      </trkpt>
      <trkpt lat="49.20132" lon="1.666">
        <ele>40.03</ele>
        <time>2013-05-26T13:26:46Z</time>
      </trkpt>
      <trkpt lat="49.2013" lon="1.66598">
        <ele>40.51</ele>
        <time>2013-05-26T13:26:47Z</time>
      </trkpt>
      <trkpt lat="49.20127" lon="1.66596">
        <ele>40.99</ele>
        <time>2013-05-26T13:26:48Z</time>
      </trkpt>
      <trkpt lat="49.2009" lon="1.66575">
        <ele>41.95</ele>
        <time>2013-05-26T13:27:01Z</time>
      </trkpt>
      <trkpt lat="49.20057" lon="1.66541">
        <ele>44.36</ele>
        <time>2013-05-26T13:27:18Z</time>
      </trkpt>
      <trkpt lat="49.20028" lon="1.66517">
        <ele>47.24</ele>
        <time>2013-05-26T13:27:34Z</time>
      </trkpt>
      <trkpt lat="49.19999" lon="1.66498">
        <ele>50.61</ele>
        <time>2013-05-26T13:27:50Z</time>
      </trkpt>
      <trkpt lat="49.19967" lon="1.66482">
        <ele>53.49</ele>
        <time>2013-05-26T13:28:06Z</time>
      </trkpt>
      <trkpt lat="49.19952" lon="1.66474">
        <ele>54.93</ele>
        <time>2013-05-26T13:28:15Z</time>
      </trkpt>
      <trkpt lat="49.19924" lon="1.66458">
        <ele>58.3</ele>
        <time>2013-05-26T13:28:31Z</time>
      </trkpt>
      <trkpt lat="49.19898" lon="1.66448">
        <ele>59.74</ele>
        <time>2013-05-26T13:28:45Z</time>
      </trkpt>
      <trkpt lat="49.19873" lon="1.66437">
        <ele>62.62</ele>
        <time>2013-05-26T13:28:59Z</time>
      </trkpt>
      <trkpt lat="49.19842" lon="1.66418">
        <ele>64.55</ele>
        <time>2013-05-26T13:29:14Z</time>
      </trkpt>
      <trkpt lat="49.19823" lon="1.66397">
        <ele>65.99</ele>
        <time>2013-05-26T13:29:26Z</time>
      </trkpt>
      <trkpt lat="49.19801" lon="1.66375">
        <ele>68.39</ele>
        <time>2013-05-26T13:29:40Z</time>
      </trkpt>
      <trkpt lat="49.19781" lon="1.66353">
        <ele>71.76</ele>
        <time>2013-05-26T13:29:53Z</time>
      </trkpt>
      <trkpt lat="49.19767" lon="1.66328">
        <ele>74.64</ele>
        <time>2013-05-26T13:30:06Z</time>
      </trkpt>
      <trkpt lat="49.19748" lon="1.6631">
        <ele>77.04</ele>
        <time>2013-05-26T13:30:20Z</time>
      </trkpt>
      <trkpt lat="49.19724" lon="1.66293">
        <ele>78.48</ele>
        <time>2013-05-26T13:30:34Z</time>
      </trkpt>
      <trkpt lat="49.19696" lon="1.66261">
        <ele>79.93</ele>
        <time>2013-05-26T13:30:48Z</time>
      </trkpt>
      <trkpt lat="49.19691" lon="1.66211">
        <ele>82.81</ele>
        <time>2013-05-26T13:31:03Z</time>
      </trkpt>
      <trkpt lat="49.19691" lon="1.66166">
        <ele>83.77</ele>
        <time>2013-05-26T13:31:17Z</time>
      </trkpt>
      <trkpt lat="49.19694" lon="1.66125">
        <ele>87.14</ele>
        <time>2013-05-26T13:31:29Z</time>
      </trkpt>
      <trkpt lat="49.19713" lon="1.66089">
        <ele>87.14</ele>
        <time>2013-05-26T13:31:43Z</time>
      </trkpt>
      <trkpt lat="49.19733" lon="1.66079">
        <ele>88.1</ele>
        <time>2013-05-26T13:31:51Z</time>
      </trkpt>
      <trkpt lat="49.19734" lon="1.66076">
        <ele>87.62</ele>
        <time>2013-05-26T13:31:52Z</time>
      </trkpt>
      <trkpt lat="49.19735" lon="1.66073">
        <ele>87.62</ele>
        <time>2013-05-26T13:31:53Z</time>
      </trkpt>
      <trkpt lat="49.19735" lon="1.6607">
        <ele>88.58</ele>
        <time>2013-05-26T13:31:54Z</time>
      </trkpt>
      <trkpt lat="49.19735" lon="1.66068">
        <ele>88.1</ele>
        <time>2013-05-26T13:31:55Z</time>
      </trkpt>
      <trkpt lat="49.19734" lon="1.66067">
        <ele>87.62</ele>
        <time>2013-05-26T13:32:05Z</time>
      </trkpt>
      <trkpt lat="49.19733" lon="1.66068">
        <ele>87.14</ele>
        <time>2013-05-26T13:32:41Z</time>
      </trkpt>
      <trkpt lat="49.19736" lon="1.66068">
        <ele>88.58</ele>
        <time>2013-05-26T13:33:07Z</time>
      </trkpt>
      <trkpt lat="49.19736" lon="1.66069">
        <ele>88.1</ele>
        <time>2013-05-26T13:33:09Z</time>
      </trkpt>
      <trkpt lat="49.19737" lon="1.66071">
        <ele>88.58</ele>
        <time>2013-05-26T13:33:10Z</time>
      </trkpt>
      <trkpt lat="49.19738" lon="1.66073">
        <ele>88.1</ele>
        <time>2013-05-26T13:33:11Z</time>
      </trkpt>
      <trkpt lat="49.1974" lon="1.66075">
        <ele>88.1</ele>
        <time>2013-05-26T13:33:12Z</time>
      </trkpt>
      <trkpt lat="49.19741" lon="1.66077">
        <ele>88.58</ele>
        <time>2013-05-26T13:33:13Z</time>
      </trkpt>
      <trkpt lat="49.19743" lon="1.66079">
        <ele>87.62</ele>
        <time>2013-05-26T13:33:14Z</time>
      </trkpt>
      <trkpt lat="49.19745" lon="1.66081">
        <ele>88.1</ele>
        <time>2013-05-26T13:33:15Z</time>
      </trkpt>
      <trkpt lat="49.19748" lon="1.66083">
        <ele>86.66</ele>
        <time>2013-05-26T13:33:16Z</time>
      </trkpt>
      <trkpt lat="49.19749" lon="1.66086">
        <ele>87.14</ele>
        <time>2013-05-26T13:33:17Z</time>
      </trkpt>
      <trkpt lat="49.19751" lon="1.66087">
        <ele>87.62</ele>
        <time>2013-05-26T13:33:18Z</time>
      </trkpt>
      <trkpt lat="49.19751" lon="1.66089">
        <ele>87.14</ele>
        <time>2013-05-26T13:33:29Z</time>
      </trkpt>
      <trkpt lat="49.19752" lon="1.66089">
        <ele>87.14</ele>
        <time>2013-05-26T13:33:47Z</time>
      </trkpt>
      <trkpt lat="49.19753" lon="1.66089">
        <ele>87.62</ele>
        <time>2013-05-26T13:34:14Z</time>
      </trkpt>
      <trkpt lat="49.19753" lon="1.66088">
        <ele>86.66</ele>
        <time>2013-05-26T13:34:43Z</time>
      </trkpt>
      <trkpt lat="49.19753" lon="1.66089">
        <ele>87.14</ele>
        <time>2013-05-26T13:35:11Z</time>
      </trkpt>
      <trkpt lat="49.19754" lon="1.66088">
        <ele>88.1</ele>
        <time>2013-05-26T13:35:12Z</time>
      </trkpt>
      <trkpt lat="49.19755" lon="1.66087">
        <ele>87.14</ele>
        <time>2013-05-26T13:35:13Z</time>
      </trkpt>
      <trkpt lat="49.19759" lon="1.66085">
        <ele>87.14</ele>
        <time>2013-05-26T13:35:16Z</time>
      </trkpt>
      <trkpt lat="49.19764" lon="1.66081">
        <ele>86.66</ele>
        <time>2013-05-26T13:35:29Z</time>
      </trkpt>
      <trkpt lat="49.19766" lon="1.66083">
        <ele>87.14</ele>
        <time>2013-05-26T13:35:41Z</time>
      </trkpt>
      <trkpt lat="49.19767" lon="1.66082">
        <ele>86.66</ele>
        <time>2013-05-26T13:35:42Z</time>
      </trkpt>
      <trkpt lat="49.19768" lon="1.66082">
        <ele>86.18</ele>
        <time>2013-05-26T13:35:43Z</time>
      </trkpt>
      <trkpt lat="49.1977" lon="1.66081">
        <ele>86.66</ele>
        <time>2013-05-26T13:35:44Z</time>
      </trkpt>
      <trkpt lat="49.19772" lon="1.6608">
        <ele>86.66</ele>
        <time>2013-05-26T13:35:45Z</time>
      </trkpt>
      <trkpt lat="49.19774" lon="1.6608">
        <ele>86.66</ele>
        <time>2013-05-26T13:35:46Z</time>
      </trkpt>
      <trkpt lat="49.19798" lon="1.66082">
        <ele>84.73</ele>
        <time>2013-05-26T13:35:52Z</time>
      </trkpt>
      <trkpt lat="49.19838" lon="1.66098">
        <ele>81.85</ele>
        <time>2013-05-26T13:36:00Z</time>
      </trkpt>
      <trkpt lat="49.19842" lon="1.66101">
        <ele>81.85</ele>
        <time>2013-05-26T13:36:01Z</time>
      </trkpt>
      <trkpt lat="49.19845" lon="1.66106">
        <ele>81.37</ele>
        <time>2013-05-26T13:36:02Z</time>
      </trkpt>
      <trkpt lat="49.19849" lon="1.66111">
        <ele>80.89</ele>
        <time>2013-05-26T13:36:03Z</time>
      </trkpt>
      <trkpt lat="49.19853" lon="1.66117">
        <ele>80.89</ele>
        <time>2013-05-26T13:36:04Z</time>
      </trkpt>
      <trkpt lat="49.19859" lon="1.66129">
        <ele>80.41</ele>
        <time>2013-05-26T13:36:06Z</time>
      </trkpt>
      <trkpt lat="49.19868" lon="1.66148">
        <ele>78.48</ele>
        <time>2013-05-26T13:36:10Z</time>
      </trkpt>
      <trkpt lat="49.19871" lon="1.66149">
        <ele>78.97</ele>
        <time>2013-05-26T13:36:11Z</time>
      </trkpt>
      <trkpt lat="49.19874" lon="1.66147">
        <ele>78.97</ele>
        <time>2013-05-26T13:36:12Z</time>
      </trkpt>
      <trkpt lat="49.19877" lon="1.66141">
        <ele>77.52</ele>
        <time>2013-05-26T13:36:13Z</time>
      </trkpt>
      <trkpt lat="49.19878" lon="1.66135">
        <ele>78</ele>
        <time>2013-05-26T13:36:14Z</time>
      </trkpt>
      <trkpt lat="49.19878" lon="1.66128">
        <ele>77.04</ele>
        <time>2013-05-26T13:36:15Z</time>
      </trkpt>
      <trkpt lat="49.1988" lon="1.66074">
        <ele>74.16</ele>
        <time>2013-05-26T13:36:21Z</time>
      </trkpt>
      <trkpt lat="49.19885" lon="1.66014">
        <ele>70.31</ele>
        <time>2013-05-26T13:36:26Z</time>
      </trkpt>
      <trkpt lat="49.19892" lon="1.65929">
        <ele>66.95</ele>
        <time>2013-05-26T13:36:32Z</time>
      </trkpt>
      <trkpt lat="49.19894" lon="1.65914">
        <ele>66.95</ele>
        <time>2013-05-26T13:36:33Z</time>
      </trkpt>
      <trkpt lat="49.19902" lon="1.65859">
        <ele>64.07</ele>
        <time>2013-05-26T13:36:37Z</time>
      </trkpt>
      <trkpt lat="49.19913" lon="1.65796">
        <ele>62.14</ele>
        <time>2013-05-26T13:36:42Z</time>
      </trkpt>
      <trkpt lat="49.19937" lon="1.65692">
        <ele>59.74</ele>
        <time>2013-05-26T13:36:51Z</time>
      </trkpt>
      <trkpt lat="49.19941" lon="1.65683">
        <ele>59.26</ele>
        <time>2013-05-26T13:36:52Z</time>
      </trkpt>
      <trkpt lat="49.19994" lon="1.65612">
        <ele>60.22</ele>
        <time>2013-05-26T13:37:04Z</time>
      </trkpt>
      <trkpt lat="49.20029" lon="1.6557">
        <ele>60.22</ele>
        <time>2013-05-26T13:37:17Z</time>
      </trkpt>
      <trkpt lat="49.20045" lon="1.6557">
        <ele>61.66</ele>
        <time>2013-05-26T13:37:28Z</time>
      </trkpt>
      <trkpt lat="49.20045" lon="1.65573">
        <ele>62.14</ele>
        <time>2013-05-26T13:37:29Z</time>
      </trkpt>
      <trkpt lat="49.20046" lon="1.65575">
        <ele>62.14</ele>
        <time>2013-05-26T13:37:30Z</time>
      </trkpt>
      <trkpt lat="49.20047" lon="1.65577">
        <ele>61.66</ele>
        <time>2013-05-26T13:37:31Z</time>
      </trkpt>
      <trkpt lat="49.20047" lon="1.6558">
        <ele>62.62</ele>
        <time>2013-05-26T13:37:32Z</time>
      </trkpt>
      <trkpt lat="49.20047" lon="1.65583">
        <ele>62.62</ele>
        <time>2013-05-26T13:37:33Z</time>
      </trkpt>
      <trkpt lat="49.20047" lon="1.65586">
        <ele>62.62</ele>
        <time>2013-05-26T13:37:34Z</time>
      </trkpt>
      <trkpt lat="49.20047" lon="1.6559">
        <ele>62.14</ele>
        <time>2013-05-26T13:37:35Z</time>
      </trkpt>
      <trkpt lat="49.20046" lon="1.65633">
        <ele>64.07</ele>
        <time>2013-05-26T13:37:49Z</time>
      </trkpt>
      <trkpt lat="49.20045" lon="1.65682">
        <ele>65.99</ele>
        <time>2013-05-26T13:38:05Z</time>
      </trkpt>
      <trkpt lat="49.20041" lon="1.65732">
        <ele>67.91</ele>
        <time>2013-05-26T13:38:21Z</time>
      </trkpt>
      <trkpt lat="49.20045" lon="1.65785">
        <ele>70.79</ele>
        <time>2013-05-26T13:38:37Z</time>
      </trkpt>
      <trkpt lat="49.2007" lon="1.65824">
        <ele>72.24</ele>
        <time>2013-05-26T13:38:54Z</time>
      </trkpt>
      <trkpt lat="49.201" lon="1.65845">
        <ele>74.16</ele>
        <time>2013-05-26T13:39:10Z</time>
      </trkpt>
      <trkpt lat="49.20103" lon="1.65844">
        <ele>73.68</ele>
        <time>2013-05-26T13:39:11Z</time>
      </trkpt>
      <trkpt lat="49.20105" lon="1.65842">
        <ele>73.68</ele>
        <time>2013-05-26T13:39:12Z</time>
      </trkpt>
      <trkpt lat="49.20106" lon="1.65839">
        <ele>74.64</ele>
        <time>2013-05-26T13:39:13Z</time>
      </trkpt>
      <trkpt lat="49.20107" lon="1.65836">
        <ele>74.16</ele>
        <time>2013-05-26T13:39:14Z</time>
      </trkpt>
      <trkpt lat="49.20107" lon="1.65833">
        <ele>73.68</ele>
        <time>2013-05-26T13:39:15Z</time>
      </trkpt>
      <trkpt lat="49.20108" lon="1.65829">
        <ele>75.12</ele>
        <time>2013-05-26T13:39:16Z</time>
      </trkpt>
      <trkpt lat="49.20108" lon="1.65825">
        <ele>74.64</ele>
        <time>2013-05-26T13:39:17Z</time>
      </trkpt>
      <trkpt lat="49.20108" lon="1.65775">
        <ele>76.08</ele>
        <time>2013-05-26T13:39:31Z</time>
      </trkpt>
      <trkpt lat="49.20126" lon="1.6572">
        <ele>78.48</ele>
        <time>2013-05-26T13:39:48Z</time>
      </trkpt>
      <trkpt lat="49.20138" lon="1.6569">
        <ele>80.41</ele>
        <time>2013-05-26T13:39:59Z</time>
      </trkpt>
      <trkpt lat="49.20139" lon="1.65687">
        <ele>80.41</ele>
        <time>2013-05-26T13:40:00Z</time>
      </trkpt>
      <trkpt lat="49.2014" lon="1.65684">
        <ele>80.89</ele>
        <time>2013-05-26T13:40:01Z</time>
      </trkpt>
      <trkpt lat="49.20142" lon="1.65681">
        <ele>80.89</ele>
        <time>2013-05-26T13:40:02Z</time>
      </trkpt>
      <trkpt lat="49.20143" lon="1.65678">
        <ele>80.41</ele>
        <time>2013-05-26T13:40:03Z</time>
      </trkpt>
      <trkpt lat="49.20166" lon="1.65633">
        <ele>82.81</ele>
        <time>2013-05-26T13:40:17Z</time>
      </trkpt>
      <trkpt lat="49.2019" lon="1.65589">
        <ele>84.73</ele>
        <time>2013-05-26T13:40:32Z</time>
      </trkpt>
      <trkpt lat="49.20216" lon="1.65547">
        <ele>86.66</ele>
        <time>2013-05-26T13:40:47Z</time>
      </trkpt>
      <trkpt lat="49.20239" lon="1.65509">
        <ele>88.58</ele>
        <time>2013-05-26T13:41:01Z</time>
      </trkpt>
      <trkpt lat="49.2027" lon="1.65463">
        <ele>91.46</ele>
        <time>2013-05-26T13:41:18Z</time>
      </trkpt>
      <trkpt lat="49.20297" lon="1.65425">
        <ele>91.94</ele>
        <time>2013-05-26T13:41:34Z</time>
      </trkpt>
      <trkpt lat="49.20328" lon="1.65382">
        <ele>95.31</ele>
        <time>2013-05-26T13:41:52Z</time>
      </trkpt>
      <trkpt lat="49.20354" lon="1.65346">
        <ele>96.75</ele>
        <time>2013-05-26T13:42:07Z</time>
      </trkpt>
      <trkpt lat="49.20383" lon="1.65305">
        <ele>98.19</ele>
        <time>2013-05-26T13:42:23Z</time>
      </trkpt>
      <trkpt lat="49.20412" lon="1.65266">
        <ele>99.63</ele>
        <time>2013-05-26T13:42:40Z</time>
      </trkpt>
      <trkpt lat="49.20445" lon="1.65218">
        <ele>101.08</ele>
        <time>2013-05-26T13:42:58Z</time>
      </trkpt>
      <trkpt lat="49.20446" lon="1.65216">
        <ele>100.6</ele>
        <time>2013-05-26T13:42:59Z</time>
      </trkpt>
      <trkpt lat="49.20448" lon="1.65214">
        <ele>100.6</ele>
        <time>2013-05-26T13:43:00Z</time>
      </trkpt>
      <trkpt lat="49.2047" lon="1.6517">
        <ele>102.52</ele>
        <time>2013-05-26T13:43:16Z</time>
      </trkpt>
      <trkpt lat="49.20484" lon="1.65131">
        <ele>103</ele>
        <time>2013-05-26T13:43:29Z</time>
      </trkpt>
      <trkpt lat="49.20498" lon="1.6509">
        <ele>103.48</ele>
        <time>2013-05-26T13:43:43Z</time>
      </trkpt>
      <trkpt lat="49.20512" lon="1.65048">
        <ele>105.88</ele>
        <time>2013-05-26T13:43:56Z</time>
      </trkpt>
      <trkpt lat="49.20527" lon="1.65007">
        <ele>106.84</ele>
        <time>2013-05-26T13:44:10Z</time>
      </trkpt>
      <trkpt lat="49.2054" lon="1.64972">
        <ele>108.77</ele>
        <time>2013-05-26T13:44:22Z</time>
      </trkpt>
      <trkpt lat="49.20555" lon="1.64924">
        <ele>109.25</ele>
        <time>2013-05-26T13:44:36Z</time>
      </trkpt>
      <trkpt lat="49.20575" lon="1.64872">
        <ele>109.25</ele>
        <time>2013-05-26T13:44:51Z</time>
      </trkpt>
      <trkpt lat="49.20597" lon="1.64816">
        <ele>107.81</ele>
        <time>2013-05-26T13:45:06Z</time>
      </trkpt>
      <trkpt lat="49.2063" lon="1.64772">
        <ele>108.77</ele>
        <time>2013-05-26T13:45:21Z</time>
      </trkpt>
      <trkpt lat="49.20658" lon="1.64736">
        <ele>109.25</ele>
        <time>2013-05-26T13:45:36Z</time>
      </trkpt>
      <trkpt lat="49.20688" lon="1.64699">
        <ele>108.77</ele>
        <time>2013-05-26T13:45:50Z</time>
      </trkpt>
      <trkpt lat="49.20701" lon="1.64683">
        <ele>108.77</ele>
        <time>2013-05-26T13:46:02Z</time>
      </trkpt>
      <trkpt lat="49.207" lon="1.64684">
        <ele>108.29</ele>
        <time>2013-05-26T13:46:26Z</time>
      </trkpt>
      <trkpt lat="49.20701" lon="1.64682">
        <ele>108.77</ele>
        <time>2013-05-26T13:46:56Z</time>
      </trkpt>
      <trkpt lat="49.20703" lon="1.64682">
        <ele>108.77</ele>
        <time>2013-05-26T13:47:17Z</time>
      </trkpt>
      <trkpt lat="49.20703" lon="1.64683">
        <ele>108.77</ele>
        <time>2013-05-26T13:47:50Z</time>
      </trkpt>
      <trkpt lat="49.20702" lon="1.64681">
        <ele>108.77</ele>
        <time>2013-05-26T13:48:15Z</time>
      </trkpt>
      <trkpt lat="49.20702" lon="1.64681">
        <ele>108.29</ele>
        <time>2013-05-26T13:48:42Z</time>
      </trkpt>
      <trkpt lat="49.20701" lon="1.64681">
        <ele>109.25</ele>
        <time>2013-05-26T13:49:06Z</time>
      </trkpt>
      <trkpt lat="49.20706" lon="1.64675">
        <ele>108.77</ele>
        <time>2013-05-26T13:49:33Z</time>
      </trkpt>
      <trkpt lat="49.20736" lon="1.64635">
        <ele>106.84</ele>
        <time>2013-05-26T13:49:48Z</time>
      </trkpt>
      <trkpt lat="49.2077" lon="1.64598">
        <ele>108.29</ele>
        <time>2013-05-26T13:50:01Z</time>
      </trkpt>
      <trkpt lat="49.2082" lon="1.64556">
        <ele>108.77</ele>
        <time>2013-05-26T13:50:19Z</time>
      </trkpt>
      <trkpt lat="49.20864" lon="1.64528">
        <ele>112.13</ele>
        <time>2013-05-26T13:50:36Z</time>
      </trkpt>
      <trkpt lat="49.20893" lon="1.64504">
        <ele>114.05</ele>
        <time>2013-05-26T13:50:50Z</time>
      </trkpt>
      <trkpt lat="49.20906" lon="1.64493">
        <ele>116.46</ele>
        <time>2013-05-26T13:50:59Z</time>
      </trkpt>
      <trkpt lat="49.20926" lon="1.64475">
        <ele>117.9</ele>
        <time>2013-05-26T13:51:14Z</time>
      </trkpt>
      <trkpt lat="49.20948" lon="1.64454">
        <ele>120.78</ele>
        <time>2013-05-26T13:51:30Z</time>
      </trkpt>
      <trkpt lat="49.20964" lon="1.64437">
        <ele>122.71</ele>
        <time>2013-05-26T13:51:41Z</time>
      </trkpt>
      <trkpt lat="49.2098" lon="1.64417">
        <ele>125.11</ele>
        <time>2013-05-26T13:51:55Z</time>
      </trkpt>
      <trkpt lat="49.21" lon="1.64398">
        <ele>127.51</ele>
        <time>2013-05-26T13:52:12Z</time>
      </trkpt>
      <trkpt lat="49.21019" lon="1.64389">
        <ele>129.92</ele>
        <time>2013-05-26T13:52:25Z</time>
      </trkpt>
      <trkpt lat="49.21035" lon="1.64383">
        <ele>131.84</ele>
        <time>2013-05-26T13:52:35Z</time>
      </trkpt>
      <trkpt lat="49.21059" lon="1.6437">
        <ele>135.68</ele>
        <time>2013-05-26T13:52:49Z</time>
      </trkpt>
      <trkpt lat="49.21084" lon="1.64355">
        <ele>137.13</ele>
        <time>2013-05-26T13:53:04Z</time>
      </trkpt>
      <trkpt lat="49.21086" lon="1.64353">
        <ele>136.64</ele>
        <time>2013-05-26T13:53:06Z</time>
      </trkpt>
      <trkpt lat="49.21088" lon="1.64352">
        <ele>136.64</ele>
        <time>2013-05-26T13:53:07Z</time>
      </trkpt>
      <trkpt lat="49.21098" lon="1.64337">
        <ele>137.13</ele>
        <time>2013-05-26T13:53:15Z</time>
      </trkpt>
      <trkpt lat="49.21098" lon="1.64335">
        <ele>137.13</ele>
        <time>2013-05-26T13:53:16Z</time>
      </trkpt>
      <trkpt lat="49.21092" lon="1.64318">
        <ele>139.05</ele>
        <time>2013-05-26T13:53:28Z</time>
      </trkpt>
      <trkpt lat="49.21091" lon="1.64315">
        <ele>138.57</ele>
        <time>2013-05-26T13:53:30Z</time>
      </trkpt>
      <trkpt lat="49.2109" lon="1.64314">
        <ele>138.09</ele>
        <time>2013-05-26T13:53:31Z</time>
      </trkpt>
      <trkpt lat="49.2109" lon="1.64312">
        <ele>138.57</ele>
        <time>2013-05-26T13:53:32Z</time>
      </trkpt>
      <trkpt lat="49.21089" lon="1.6431">
        <ele>137.61</ele>
        <time>2013-05-26T13:53:33Z</time>
      </trkpt>
      <trkpt lat="49.21088" lon="1.64307">
        <ele>138.09</ele>
        <time>2013-05-26T13:53:34Z</time>
      </trkpt>
      <trkpt lat="49.21087" lon="1.64305">
        <ele>138.57</ele>
        <time>2013-05-26T13:53:35Z</time>
      </trkpt>
      <trkpt lat="49.21086" lon="1.64302">
        <ele>137.61</ele>
        <time>2013-05-26T13:53:36Z</time>
      </trkpt>
      <trkpt lat="49.21085" lon="1.64299">
        <ele>138.09</ele>
        <time>2013-05-26T13:53:37Z</time>
      </trkpt>
      <trkpt lat="49.21063" lon="1.6425">
        <ele>139.05</ele>
        <time>2013-05-26T13:53:52Z</time>
      </trkpt>
      <trkpt lat="49.21038" lon="1.64193">
        <ele>137.61</ele>
        <time>2013-05-26T13:54:09Z</time>
      </trkpt>
      <trkpt lat="49.21011" lon="1.64131">
        <ele>137.13</ele>
        <time>2013-05-26T13:54:26Z</time>
      </trkpt>
      <trkpt lat="49.2099" lon="1.64087">
        <ele>136.64</ele>
        <time>2013-05-26T13:54:40Z</time>
      </trkpt>
      <trkpt lat="49.20986" lon="1.64082">
        <ele>136.16</ele>
        <time>2013-05-26T13:54:45Z</time>
      </trkpt>
      <trkpt lat="49.20986" lon="1.64082">
        <ele>136.64</ele>
        <time>2013-05-26T13:54:54Z</time>
      </trkpt>
      <trkpt lat="49.20986" lon="1.64081">
        <ele>135.68</ele>
        <time>2013-05-26T13:55:24Z</time>
      </trkpt>
      <trkpt lat="49.20986" lon="1.64081">
        <ele>135.2</ele>
        <time>2013-05-26T13:55:58Z</time>
      </trkpt>
      <trkpt lat="49.20986" lon="1.6408">
        <ele>136.16</ele>
        <time>2013-05-26T13:56:26Z</time>
      </trkpt>
      <trkpt lat="49.20986" lon="1.64079">
        <ele>136.16</ele>
        <time>2013-05-26T13:56:46Z</time>
      </trkpt>
      <trkpt lat="49.20985" lon="1.64077">
        <ele>135.68</ele>
        <time>2013-05-26T13:56:52Z</time>
      </trkpt>
      <trkpt lat="49.20983" lon="1.64075">
        <ele>136.16</ele>
        <time>2013-05-26T13:56:53Z</time>
      </trkpt>
      <trkpt lat="49.20964" lon="1.64035">
        <ele>133.76</ele>
        <time>2013-05-26T13:57:03Z</time>
      </trkpt>
      <trkpt lat="49.20934" lon="1.63984">
        <ele>131.84</ele>
        <time>2013-05-26T13:57:13Z</time>
      </trkpt>
      <trkpt lat="49.20931" lon="1.63978">
        <ele>131.36</ele>
        <time>2013-05-26T13:57:14Z</time>
      </trkpt>
      <trkpt lat="49.20912" lon="1.63922">
        <ele>130.88</ele>
        <time>2013-05-26T13:57:23Z</time>
      </trkpt>
      <trkpt lat="49.2091" lon="1.63915">
        <ele>129.92</ele>
        <time>2013-05-26T13:57:24Z</time>
      </trkpt>
      <trkpt lat="49.20908" lon="1.63908">
        <ele>130.4</ele>
        <time>2013-05-26T13:57:25Z</time>
      </trkpt>
      <trkpt lat="49.20895" lon="1.63858">
        <ele>129.92</ele>
        <time>2013-05-26T13:57:34Z</time>
      </trkpt>
      <trkpt lat="49.20888" lon="1.63829">
        <ele>129.92</ele>
        <time>2013-05-26T13:57:39Z</time>
      </trkpt>
      <trkpt lat="49.20869" lon="1.63783">
        <ele>130.88</ele>
        <time>2013-05-26T13:57:48Z</time>
      </trkpt>
      <trkpt lat="49.20866" lon="1.63778">
        <ele>130.4</ele>
        <time>2013-05-26T13:57:49Z</time>
      </trkpt>
      <trkpt lat="49.20863" lon="1.63774">
        <ele>130.88</ele>
        <time>2013-05-26T13:57:50Z</time>
      </trkpt>
      <trkpt lat="49.20861" lon="1.6377">
        <ele>130.4</ele>
        <time>2013-05-26T13:57:51Z</time>
      </trkpt>
      <trkpt lat="49.20849" lon="1.63753">
        <ele>130.88</ele>
        <time>2013-05-26T13:57:55Z</time>
      </trkpt>
      <trkpt lat="49.2083" lon="1.6372">
        <ele>127.99</ele>
        <time>2013-05-26T13:58:02Z</time>
      </trkpt>
      <trkpt lat="49.20801" lon="1.63667">
        <ele>126.55</ele>
        <time>2013-05-26T13:58:11Z</time>
      </trkpt>
      <trkpt lat="49.20797" lon="1.63657">
        <ele>126.55</ele>
        <time>2013-05-26T13:58:12Z</time>
      </trkpt>
      <trkpt lat="49.20792" lon="1.63647">
        <ele>126.07</ele>
        <time>2013-05-26T13:58:13Z</time>
      </trkpt>
      <trkpt lat="49.20789" lon="1.63637">
        <ele>126.55</ele>
        <time>2013-05-26T13:58:14Z</time>
      </trkpt>
      <trkpt lat="49.20786" lon="1.63626">
        <ele>125.11</ele>
        <time>2013-05-26T13:58:15Z</time>
      </trkpt>
      <trkpt lat="49.2076" lon="1.63539">
        <ele>123.67</ele>
        <time>2013-05-26T13:58:26Z</time>
      </trkpt>
      <trkpt lat="49.20716" lon="1.63403">
        <ele>123.19</ele>
        <time>2013-05-26T13:58:46Z</time>
      </trkpt>
      <trkpt lat="49.20697" lon="1.63347">
        <ele>124.63</ele>
        <time>2013-05-26T13:58:59Z</time>
      </trkpt>
      <trkpt lat="49.20676" lon="1.63283">
        <ele>124.63</ele>
        <time>2013-05-26T13:59:11Z</time>
      </trkpt>
      <trkpt lat="49.20654" lon="1.63202">
        <ele>125.11</ele>
        <time>2013-05-26T13:59:26Z</time>
      </trkpt>
      <trkpt lat="49.20641" lon="1.63129">
        <ele>125.11</ele>
        <time>2013-05-26T13:59:40Z</time>
      </trkpt>
      <trkpt lat="49.20625" lon="1.63058">
        <ele>125.11</ele>
        <time>2013-05-26T13:59:54Z</time>
      </trkpt>
      <trkpt lat="49.20607" lon="1.62973">
        <ele>124.15</ele>
        <time>2013-05-26T14:00:10Z</time>
      </trkpt>
      <trkpt lat="49.20584" lon="1.62887">
        <ele>124.63</ele>
        <time>2013-05-26T14:00:28Z</time>
      </trkpt>
      <trkpt lat="49.20562" lon="1.62802">
        <ele>125.11</ele>
        <time>2013-05-26T14:00:45Z</time>
      </trkpt>
      <trkpt lat="49.20542" lon="1.62718">
        <ele>127.03</ele>
        <time>2013-05-26T14:01:03Z</time>
      </trkpt>
      <trkpt lat="49.20522" lon="1.62635">
        <ele>127.99</ele>
        <time>2013-05-26T14:01:21Z</time>
      </trkpt>
      <trkpt lat="49.205" lon="1.62561">
        <ele>129.92</ele>
        <time>2013-05-26T14:01:38Z</time>
      </trkpt>
      <trkpt lat="49.2048" lon="1.62502">
        <ele>130.88</ele>
        <time>2013-05-26T14:01:53Z</time>
      </trkpt>
      <trkpt lat="49.20462" lon="1.62446">
        <ele>131.84</ele>
        <time>2013-05-26T14:02:08Z</time>
      </trkpt>
      <trkpt lat="49.20455" lon="1.62436">
        <ele>132.8</ele>
        <time>2013-05-26T14:02:21Z</time>
      </trkpt>
      <trkpt lat="49.20456" lon="1.62438">
        <ele>132.32</ele>
        <time>2013-05-26T14:02:48Z</time>
      </trkpt>
      <trkpt lat="49.20455" lon="1.62437">
        <ele>132.32</ele>
        <time>2013-05-26T14:03:15Z</time>
      </trkpt>
      <trkpt lat="49.20455" lon="1.62437">
        <ele>132.8</ele>
        <time>2013-05-26T14:03:45Z</time>
      </trkpt>
      <trkpt lat="49.20455" lon="1.62436">
        <ele>131.84</ele>
        <time>2013-05-26T14:04:03Z</time>
      </trkpt>
      <trkpt lat="49.20454" lon="1.62437">
        <ele>132.32</ele>
        <time>2013-05-26T14:04:28Z</time>
      </trkpt>
      <trkpt lat="49.20453" lon="1.62439">
        <ele>131.84</ele>
        <time>2013-05-26T14:04:38Z</time>
      </trkpt>
      <trkpt lat="49.20451" lon="1.6244">
        <ele>131.84</ele>
        <time>2013-05-26T14:04:39Z</time>
      </trkpt>
      <trkpt lat="49.20449" lon="1.62441">
        <ele>131.84</ele>
        <time>2013-05-26T14:04:40Z</time>
      </trkpt>
      <trkpt lat="49.20447" lon="1.62442">
        <ele>130.88</ele>
        <time>2013-05-26T14:04:41Z</time>
      </trkpt>
      <trkpt lat="49.20445" lon="1.62443">
        <ele>132.32</ele>
        <time>2013-05-26T14:04:42Z</time>
      </trkpt>
      <trkpt lat="49.20443" lon="1.62444">
        <ele>131.84</ele>
        <time>2013-05-26T14:04:43Z</time>
      </trkpt>
      <trkpt lat="49.2044" lon="1.62444">
        <ele>131.84</ele>
        <time>2013-05-26T14:04:44Z</time>
      </trkpt>
      <trkpt lat="49.20397" lon="1.62465">
        <ele>127.51</ele>
        <time>2013-05-26T14:04:56Z</time>
      </trkpt>
      <trkpt lat="49.20355" lon="1.62497">
        <ele>124.15</ele>
        <time>2013-05-26T14:05:04Z</time>
      </trkpt>
      <trkpt lat="49.2035" lon="1.62502">
        <ele>124.15</ele>
        <time>2013-05-26T14:05:05Z</time>
      </trkpt>
      <trkpt lat="49.20346" lon="1.62508">
        <ele>124.15</ele>
        <time>2013-05-26T14:05:06Z</time>
      </trkpt>
      <trkpt lat="49.20342" lon="1.62515">
        <ele>123.19</ele>
        <time>2013-05-26T14:05:07Z</time>
      </trkpt>
      <trkpt lat="49.20339" lon="1.62521">
        <ele>122.71</ele>
        <time>2013-05-26T14:05:08Z</time>
      </trkpt>
      <trkpt lat="49.20337" lon="1.62529">
        <ele>122.71</ele>
        <time>2013-05-26T14:05:09Z</time>
      </trkpt>
      <trkpt lat="49.20337" lon="1.62539">
        <ele>121.74</ele>
        <time>2013-05-26T14:05:10Z</time>
      </trkpt>
      <trkpt lat="49.20337" lon="1.62549">
        <ele>120.78</ele>
        <time>2013-05-26T14:05:11Z</time>
      </trkpt>
      <trkpt lat="49.20337" lon="1.6256">
        <ele>119.82</ele>
        <time>2013-05-26T14:05:12Z</time>
      </trkpt>
      <trkpt lat="49.20337" lon="1.62571">
        <ele>119.82</ele>
        <time>2013-05-26T14:05:13Z</time>
      </trkpt>
      <trkpt lat="49.20336" lon="1.6258">
        <ele>118.86</ele>
        <time>2013-05-26T14:05:14Z</time>
      </trkpt>
      <trkpt lat="49.20332" lon="1.62588">
        <ele>117.9</ele>
        <time>2013-05-26T14:05:15Z</time>
      </trkpt>
      <trkpt lat="49.20328" lon="1.62595">
        <ele>117.9</ele>
        <time>2013-05-26T14:05:16Z</time>
      </trkpt>
      <trkpt lat="49.20324" lon="1.62602">
        <ele>117.42</ele>
        <time>2013-05-26T14:05:17Z</time>
      </trkpt>
      <trkpt lat="49.2032" lon="1.62608">
        <ele>116.94</ele>
        <time>2013-05-26T14:05:18Z</time>
      </trkpt>
      <trkpt lat="49.20303" lon="1.62631">
        <ele>115.5</ele>
        <time>2013-05-26T14:05:22Z</time>
      </trkpt>
      <trkpt lat="49.20299" lon="1.62637">
        <ele>114.53</ele>
        <time>2013-05-26T14:05:23Z</time>
      </trkpt>
      <trkpt lat="49.20287" lon="1.62658">
        <ele>113.09</ele>
        <time>2013-05-26T14:05:26Z</time>
      </trkpt>
      <trkpt lat="49.20284" lon="1.62664">
        <ele>112.61</ele>
        <time>2013-05-26T14:05:27Z</time>
      </trkpt>
      <trkpt lat="49.20274" lon="1.62695">
        <ele>109.73</ele>
        <time>2013-05-26T14:05:36Z</time>
      </trkpt>
      <trkpt lat="49.20273" lon="1.627">
        <ele>110.69</ele>
        <time>2013-05-26T14:05:50Z</time>
      </trkpt>
      <trkpt lat="49.20273" lon="1.627">
        <ele>110.21</ele>
        <time>2013-05-26T14:06:04Z</time>
      </trkpt>
      <trkpt lat="49.20273" lon="1.62702">
        <ele>110.21</ele>
        <time>2013-05-26T14:06:05Z</time>
      </trkpt>
      <trkpt lat="49.20272" lon="1.62703">
        <ele>109.73</ele>
        <time>2013-05-26T14:06:06Z</time>
      </trkpt>
      <trkpt lat="49.2027" lon="1.62705">
        <ele>110.21</ele>
        <time>2013-05-26T14:06:07Z</time>
      </trkpt>
      <trkpt lat="49.20268" lon="1.62706">
        <ele>110.69</ele>
        <time>2013-05-26T14:06:08Z</time>
      </trkpt>
      <trkpt lat="49.20267" lon="1.62708">
        <ele>109.73</ele>
        <time>2013-05-26T14:06:09Z</time>
      </trkpt>
      <trkpt lat="49.20265" lon="1.6271">
        <ele>109.25</ele>
        <time>2013-05-26T14:06:10Z</time>
      </trkpt>
      <trkpt lat="49.20262" lon="1.62713">
        <ele>109.25</ele>
        <time>2013-05-26T14:06:11Z</time>
      </trkpt>
      <trkpt lat="49.2026" lon="1.62714">
        <ele>109.25</ele>
        <time>2013-05-26T14:06:12Z</time>
      </trkpt>
      <trkpt lat="49.20258" lon="1.62715">
        <ele>109.73</ele>
        <time>2013-05-26T14:06:13Z</time>
      </trkpt>
      <trkpt lat="49.20256" lon="1.62715">
        <ele>109.25</ele>
        <time>2013-05-26T14:06:14Z</time>
      </trkpt>
      <trkpt lat="49.20253" lon="1.62715">
        <ele>108.77</ele>
        <time>2013-05-26T14:06:15Z</time>
      </trkpt>
      <trkpt lat="49.20252" lon="1.62713">
        <ele>109.25</ele>
        <time>2013-05-26T14:06:16Z</time>
      </trkpt>
      <trkpt lat="49.20222" lon="1.62689">
        <ele>108.77</ele>
        <time>2013-05-26T14:06:27Z</time>
      </trkpt>
      <trkpt lat="49.20191" lon="1.62624">
        <ele>110.21</ele>
        <time>2013-05-26T14:06:42Z</time>
      </trkpt>
      <trkpt lat="49.20162" lon="1.62555">
        <ele>112.13</ele>
        <time>2013-05-26T14:06:58Z</time>
      </trkpt>
      <trkpt lat="49.20142" lon="1.62486">
        <ele>113.09</ele>
        <time>2013-05-26T14:07:13Z</time>
      </trkpt>
      <trkpt lat="49.20122" lon="1.62402">
        <ele>114.53</ele>
        <time>2013-05-26T14:07:31Z</time>
      </trkpt>
      <trkpt lat="49.20104" lon="1.62331">
        <ele>115.5</ele>
        <time>2013-05-26T14:07:47Z</time>
      </trkpt>
      <trkpt lat="49.20081" lon="1.62268">
        <ele>116.94</ele>
        <time>2013-05-26T14:08:02Z</time>
      </trkpt>
      <trkpt lat="49.20046" lon="1.62208">
        <ele>117.9</ele>
        <time>2013-05-26T14:08:18Z</time>
      </trkpt>
      <trkpt lat="49.20009" lon="1.62148">
        <ele>120.78</ele>
        <time>2013-05-26T14:08:36Z</time>
      </trkpt>
      <trkpt lat="49.19986" lon="1.62113">
        <ele>123.67</ele>
        <time>2013-05-26T14:08:50Z</time>
      </trkpt>
      <trkpt lat="49.19966" lon="1.6208">
        <ele>125.59</ele>
        <time>2013-05-26T14:09:03Z</time>
      </trkpt>
      <trkpt lat="49.19948" lon="1.62052">
        <ele>127.51</ele>
        <time>2013-05-26T14:09:14Z</time>
      </trkpt>
      <trkpt lat="49.19943" lon="1.62049">
        <ele>127.03</ele>
        <time>2013-05-26T14:09:16Z</time>
      </trkpt>
      <trkpt lat="49.1993" lon="1.62042">
        <ele>127.99</ele>
        <time>2013-05-26T14:09:22Z</time>
      </trkpt>
      <trkpt lat="49.19927" lon="1.62042">
        <ele>127.51</ele>
        <time>2013-05-26T14:09:23Z</time>
      </trkpt>
      <trkpt lat="49.19925" lon="1.62044">
        <ele>127.03</ele>
        <time>2013-05-26T14:09:24Z</time>
      </trkpt>
      <trkpt lat="49.19922" lon="1.62045">
        <ele>127.99</ele>
        <time>2013-05-26T14:09:25Z</time>
      </trkpt>
      <trkpt lat="49.19919" lon="1.62047">
        <ele>127.51</ele>
        <time>2013-05-26T14:09:26Z</time>
      </trkpt>
      <trkpt lat="49.19916" lon="1.6205">
        <ele>127.51</ele>
        <time>2013-05-26T14:09:27Z</time>
      </trkpt>
      <trkpt lat="49.19914" lon="1.62053">
        <ele>127.99</ele>
        <time>2013-05-26T14:09:28Z</time>
      </trkpt>
      <trkpt lat="49.19886" lon="1.62119">
        <ele>127.99</ele>
        <time>2013-05-26T14:09:42Z</time>
      </trkpt>
      <trkpt lat="49.19882" lon="1.62137">
        <ele>127.51</ele>
        <time>2013-05-26T14:09:45Z</time>
      </trkpt>
      <trkpt lat="49.1988" lon="1.62143">
        <ele>127.99</ele>
        <time>2013-05-26T14:09:46Z</time>
      </trkpt>
      <trkpt lat="49.19878" lon="1.62148">
        <ele>127.03</ele>
        <time>2013-05-26T14:09:47Z</time>
      </trkpt>
      <trkpt lat="49.19876" lon="1.62153">
        <ele>127.99</ele>
        <time>2013-05-26T14:09:48Z</time>
      </trkpt>
      <trkpt lat="49.19874" lon="1.62159">
        <ele>127.99</ele>
        <time>2013-05-26T14:09:49Z</time>
      </trkpt>
      <trkpt lat="49.19873" lon="1.62165">
        <ele>127.03</ele>
        <time>2013-05-26T14:09:50Z</time>
      </trkpt>
      <trkpt lat="49.19852" lon="1.62248">
        <ele>128.47</ele>
        <time>2013-05-26T14:10:03Z</time>
      </trkpt>
      <trkpt lat="49.19832" lon="1.62321">
        <ele>126.55</ele>
        <time>2013-05-26T14:10:14Z</time>
      </trkpt>
      <trkpt lat="49.1983" lon="1.62327">
        <ele>127.03</ele>
        <time>2013-05-26T14:10:15Z</time>
      </trkpt>
      <trkpt lat="49.19814" lon="1.62385">
        <ele>127.03</ele>
        <time>2013-05-26T14:10:23Z</time>
      </trkpt>
      <trkpt lat="49.19812" lon="1.62393">
        <ele>127.03</ele>
        <time>2013-05-26T14:10:24Z</time>
      </trkpt>
      <trkpt lat="49.19811" lon="1.62401">
        <ele>127.03</ele>
        <time>2013-05-26T14:10:25Z</time>
      </trkpt>
      <trkpt lat="49.19781" lon="1.62516">
        <ele>127.03</ele>
        <time>2013-05-26T14:10:41Z</time>
      </trkpt>
      <trkpt lat="49.1975" lon="1.62635">
        <ele>127.99</ele>
        <time>2013-05-26T14:11:00Z</time>
      </trkpt>
      <trkpt lat="49.19741" lon="1.62674">
        <ele>128.95</ele>
        <time>2013-05-26T14:11:06Z</time>
      </trkpt>
      <trkpt lat="49.19732" lon="1.62707">
        <ele>128.47</ele>
        <time>2013-05-26T14:11:11Z</time>
      </trkpt>
      <trkpt lat="49.19707" lon="1.62798">
        <ele>129.92</ele>
        <time>2013-05-26T14:11:28Z</time>
      </trkpt>
      <trkpt lat="49.19696" lon="1.62833">
        <ele>129.92</ele>
        <time>2013-05-26T14:11:41Z</time>
      </trkpt>
      <trkpt lat="49.19697" lon="1.62836">
        <ele>129.43</ele>
        <time>2013-05-26T14:11:43Z</time>
      </trkpt>
      <trkpt lat="49.19699" lon="1.62836">
        <ele>129.43</ele>
        <time>2013-05-26T14:11:54Z</time>
      </trkpt>
      <trkpt lat="49.19699" lon="1.62834">
        <ele>128.95</ele>
        <time>2013-05-26T14:12:06Z</time>
      </trkpt>
      <trkpt lat="49.197" lon="1.62835">
        <ele>128.47</ele>
        <time>2013-05-26T14:12:39Z</time>
      </trkpt>
      <trkpt lat="49.197" lon="1.62836">
        <ele>127.99</ele>
        <time>2013-05-26T14:13:13Z</time>
      </trkpt>
      <trkpt lat="49.197" lon="1.62836">
        <ele>129.43</ele>
        <time>2013-05-26T14:13:52Z</time>
      </trkpt>
      <trkpt lat="49.19701" lon="1.62837">
        <ele>128.95</ele>
        <time>2013-05-26T14:14:36Z</time>
      </trkpt>
      <trkpt lat="49.19701" lon="1.62836">
        <ele>130.4</ele>
        <time>2013-05-26T14:15:21Z</time>
      </trkpt>
      <trkpt lat="49.197" lon="1.62836">
        <ele>128.47</ele>
        <time>2013-05-26T14:16:01Z</time>
      </trkpt>
      <trkpt lat="49.19701" lon="1.62836">
        <ele>129.43</ele>
        <time>2013-05-26T14:16:48Z</time>
      </trkpt>
      <trkpt lat="49.19701" lon="1.62836">
        <ele>127.99</ele>
        <time>2013-05-26T14:17:33Z</time>
      </trkpt>
      <trkpt lat="49.197" lon="1.62835">
        <ele>128.95</ele>
        <time>2013-05-26T14:18:21Z</time>
      </trkpt>
      <trkpt lat="49.197" lon="1.62835">
        <ele>128.95</ele>
        <time>2013-05-26T14:18:52Z</time>
      </trkpt>
      <trkpt lat="49.197" lon="1.62836">
        <ele>129.43</ele>
        <time>2013-05-26T14:18:56Z</time>
      </trkpt>
      <trkpt lat="49.19696" lon="1.62839">
        <ele>130.88</ele>
        <time>2013-05-26T14:19:09Z</time>
      </trkpt>
      <trkpt lat="49.19695" lon="1.62839">
        <ele>129.92</ele>
        <time>2013-05-26T14:19:10Z</time>
      </trkpt>
      <trkpt lat="49.19694" lon="1.62841">
        <ele>130.4</ele>
        <time>2013-05-26T14:19:11Z</time>
      </trkpt>
      <trkpt lat="49.19693" lon="1.62843">
        <ele>130.4</ele>
        <time>2013-05-26T14:19:12Z</time>
      </trkpt>
      <trkpt lat="49.19692" lon="1.62845">
        <ele>129.43</ele>
        <time>2013-05-26T14:19:13Z</time>
      </trkpt>
      <trkpt lat="49.19673" lon="1.62882">
        <ele>130.88</ele>
        <time>2013-05-26T14:19:25Z</time>
      </trkpt>
      <trkpt lat="49.19638" lon="1.62945">
        <ele>128.95</ele>
        <time>2013-05-26T14:19:40Z</time>
      </trkpt>
      <trkpt lat="49.19603" lon="1.62997">
        <ele>128.95</ele>
        <time>2013-05-26T14:19:52Z</time>
      </trkpt>
      <trkpt lat="49.19599" lon="1.63002">
        <ele>127.99</ele>
        <time>2013-05-26T14:19:53Z</time>
      </trkpt>
      <trkpt lat="49.19594" lon="1.63011">
        <ele>128.47</ele>
        <time>2013-05-26T14:19:55Z</time>
      </trkpt>
      <trkpt lat="49.19591" lon="1.63016">
        <ele>127.99</ele>
        <time>2013-05-26T14:19:56Z</time>
      </trkpt>
      <trkpt lat="49.19556" lon="1.6307">
        <ele>128.47</ele>
        <time>2013-05-26T14:20:08Z</time>
      </trkpt>
      <trkpt lat="49.19553" lon="1.63074">
        <ele>127.51</ele>
        <time>2013-05-26T14:20:09Z</time>
      </trkpt>
      <trkpt lat="49.19549" lon="1.63078">
        <ele>128.47</ele>
        <time>2013-05-26T14:20:10Z</time>
      </trkpt>
      <trkpt lat="49.19543" lon="1.63086">
        <ele>127.03</ele>
        <time>2013-05-26T14:20:12Z</time>
      </trkpt>
      <trkpt lat="49.19536" lon="1.63094">
        <ele>127.51</ele>
        <time>2013-05-26T14:20:14Z</time>
      </trkpt>
      <trkpt lat="49.19533" lon="1.63098">
        <ele>127.51</ele>
        <time>2013-05-26T14:20:15Z</time>
      </trkpt>
      <trkpt lat="49.19506" lon="1.63133">
        <ele>126.07</ele>
        <time>2013-05-26T14:20:24Z</time>
      </trkpt>
      <trkpt lat="49.19499" lon="1.6314">
        <ele>126.07</ele>
        <time>2013-05-26T14:20:26Z</time>
      </trkpt>
      <trkpt lat="49.19492" lon="1.6315">
        <ele>125.59</ele>
        <time>2013-05-26T14:20:28Z</time>
      </trkpt>
      <trkpt lat="49.1949" lon="1.63155">
        <ele>126.55</ele>
        <time>2013-05-26T14:20:29Z</time>
      </trkpt>
      <trkpt lat="49.19487" lon="1.6316">
        <ele>125.59</ele>
        <time>2013-05-26T14:20:30Z</time>
      </trkpt>
      <trkpt lat="49.19479" lon="1.63178">
        <ele>125.11</ele>
        <time>2013-05-26T14:20:33Z</time>
      </trkpt>
      <trkpt lat="49.19478" lon="1.63184">
        <ele>124.63</ele>
        <time>2013-05-26T14:20:34Z</time>
      </trkpt>
      <trkpt lat="49.19476" lon="1.6319">
        <ele>124.63</ele>
        <time>2013-05-26T14:20:35Z</time>
      </trkpt>
      <trkpt lat="49.19475" lon="1.63194">
        <ele>124.63</ele>
        <time>2013-05-26T14:20:36Z</time>
      </trkpt>
      <trkpt lat="49.19473" lon="1.63198">
        <ele>125.11</ele>
        <time>2013-05-26T14:20:37Z</time>
      </trkpt>
      <trkpt lat="49.19472" lon="1.63202">
        <ele>125.11</ele>
        <time>2013-05-26T14:20:38Z</time>
      </trkpt>
      <trkpt lat="49.1947" lon="1.63206">
        <ele>124.63</ele>
        <time>2013-05-26T14:20:39Z</time>
      </trkpt>
      <trkpt lat="49.19468" lon="1.6321">
        <ele>124.63</ele>
        <time>2013-05-26T14:20:40Z</time>
      </trkpt>
      <trkpt lat="49.19465" lon="1.63213">
        <ele>124.15</ele>
        <time>2013-05-26T14:20:41Z</time>
      </trkpt>
      <trkpt lat="49.19463" lon="1.63218">
        <ele>124.15</ele>
        <time>2013-05-26T14:20:42Z</time>
      </trkpt>
      <trkpt lat="49.19462" lon="1.63222">
        <ele>124.15</ele>
        <time>2013-05-26T14:20:43Z</time>
      </trkpt>
      <trkpt lat="49.19461" lon="1.63226">
        <ele>122.71</ele>
        <time>2013-05-26T14:20:44Z</time>
      </trkpt>
      <trkpt lat="49.19459" lon="1.63231">
        <ele>123.19</ele>
        <time>2013-05-26T14:20:45Z</time>
      </trkpt>
      <trkpt lat="49.19454" lon="1.63244">
        <ele>122.71</ele>
        <time>2013-05-26T14:20:48Z</time>
      </trkpt>
      <trkpt lat="49.19451" lon="1.63248">
        <ele>122.22</ele>
        <time>2013-05-26T14:20:49Z</time>
      </trkpt>
      <trkpt lat="49.19441" lon="1.6326">
        <ele>121.26</ele>
        <time>2013-05-26T14:20:52Z</time>
      </trkpt>
      <trkpt lat="49.19432" lon="1.63267">
        <ele>121.26</ele>
        <time>2013-05-26T14:20:54Z</time>
      </trkpt>
      <trkpt lat="49.19428" lon="1.63269">
        <ele>121.26</ele>
        <time>2013-05-26T14:20:55Z</time>
      </trkpt>
      <trkpt lat="49.19424" lon="1.63271">
        <ele>120.78</ele>
        <time>2013-05-26T14:20:56Z</time>
      </trkpt>
      <trkpt lat="49.1942" lon="1.63273">
        <ele>120.78</ele>
        <time>2013-05-26T14:20:57Z</time>
      </trkpt>
      <trkpt lat="49.19415" lon="1.63276">
        <ele>120.78</ele>
        <time>2013-05-26T14:20:58Z</time>
      </trkpt>
      <trkpt lat="49.19411" lon="1.63278">
        <ele>120.78</ele>
        <time>2013-05-26T14:20:59Z</time>
      </trkpt>
      <trkpt lat="49.19407" lon="1.6328">
        <ele>120.78</ele>
        <time>2013-05-26T14:21:00Z</time>
      </trkpt>
      <trkpt lat="49.19402" lon="1.63283">
        <ele>119.34</ele>
        <time>2013-05-26T14:21:01Z</time>
      </trkpt>
      <trkpt lat="49.19398" lon="1.63286">
        <ele>120.3</ele>
        <time>2013-05-26T14:21:02Z</time>
      </trkpt>
      <trkpt lat="49.19387" lon="1.63294">
        <ele>120.3</ele>
        <time>2013-05-26T14:21:05Z</time>
      </trkpt>
      <trkpt lat="49.19382" lon="1.63296">
        <ele>118.86</ele>
        <time>2013-05-26T14:21:06Z</time>
      </trkpt>
      <trkpt lat="49.19363" lon="1.63304">
        <ele>118.38</ele>
        <time>2013-05-26T14:21:10Z</time>
      </trkpt>
      <trkpt lat="49.19323" lon="1.63329">
        <ele>116.46</ele>
        <time>2013-05-26T14:21:18Z</time>
      </trkpt>
      <trkpt lat="49.19303" lon="1.63338">
        <ele>116.46</ele>
        <time>2013-05-26T14:21:22Z</time>
      </trkpt>
      <trkpt lat="49.19272" lon="1.63354">
        <ele>114.05</ele>
        <time>2013-05-26T14:21:27Z</time>
      </trkpt>
      <trkpt lat="49.19265" lon="1.63357">
        <ele>113.57</ele>
        <time>2013-05-26T14:21:28Z</time>
      </trkpt>
      <trkpt lat="49.19237" lon="1.63372">
        <ele>111.17</ele>
        <time>2013-05-26T14:21:32Z</time>
      </trkpt>
      <trkpt lat="49.19196" lon="1.63395">
        <ele>108.29</ele>
        <time>2013-05-26T14:21:37Z</time>
      </trkpt>
      <trkpt lat="49.19184" lon="1.63399">
        <ele>108.29</ele>
        <time>2013-05-26T14:21:38Z</time>
      </trkpt>
      <trkpt lat="49.19079" lon="1.63407">
        <ele>106.36</ele>
        <time>2013-05-26T14:21:49Z</time>
      </trkpt>
      <trkpt lat="49.19039" lon="1.6341">
        <ele>108.29</ele>
        <time>2013-05-26T14:21:58Z</time>
      </trkpt>
      <trkpt lat="49.19005" lon="1.63414">
        <ele>111.65</ele>
        <time>2013-05-26T14:22:10Z</time>
      </trkpt>
      <trkpt lat="49.18977" lon="1.63415">
        <ele>114.05</ele>
        <time>2013-05-26T14:22:23Z</time>
      </trkpt>
      <trkpt lat="49.18976" lon="1.63415">
        <ele>115.01</ele>
        <time>2013-05-26T14:22:24Z</time>
      </trkpt>
      <trkpt lat="49.18956" lon="1.6342">
        <ele>116.94</ele>
        <time>2013-05-26T14:22:35Z</time>
      </trkpt>
      <trkpt lat="49.18943" lon="1.63422">
        <ele>117.9</ele>
        <time>2013-05-26T14:22:43Z</time>
      </trkpt>
      <trkpt lat="49.18941" lon="1.63422">
        <ele>117.9</ele>
        <time>2013-05-26T14:22:44Z</time>
      </trkpt>
      <trkpt lat="49.18922" lon="1.63424">
        <ele>120.3</ele>
        <time>2013-05-26T14:22:55Z</time>
      </trkpt>
      <trkpt lat="49.1892" lon="1.63423">
        <ele>119.34</ele>
        <time>2013-05-26T14:22:56Z</time>
      </trkpt>
      <trkpt lat="49.18918" lon="1.63423">
        <ele>119.82</ele>
        <time>2013-05-26T14:22:57Z</time>
      </trkpt>
      <trkpt lat="49.18917" lon="1.63423">
        <ele>120.3</ele>
        <time>2013-05-26T14:22:58Z</time>
      </trkpt>
      <trkpt lat="49.18915" lon="1.63423">
        <ele>120.3</ele>
        <time>2013-05-26T14:22:59Z</time>
      </trkpt>
      <trkpt lat="49.18913" lon="1.63423">
        <ele>120.78</ele>
        <time>2013-05-26T14:23:00Z</time>
      </trkpt>
      <trkpt lat="49.18912" lon="1.63423">
        <ele>120.78</ele>
        <time>2013-05-26T14:23:01Z</time>
      </trkpt>
      <trkpt lat="49.1891" lon="1.63423">
        <ele>120.78</ele>
        <time>2013-05-26T14:23:02Z</time>
      </trkpt>
      <trkpt lat="49.18896" lon="1.63429">
        <ele>121.74</ele>
        <time>2013-05-26T14:23:13Z</time>
      </trkpt>
      <trkpt lat="49.18874" lon="1.63431">
        <ele>123.67</ele>
        <time>2013-05-26T14:23:26Z</time>
      </trkpt>
      <trkpt lat="49.18859" lon="1.63429">
        <ele>124.63</ele>
        <time>2013-05-26T14:23:34Z</time>
      </trkpt>
      <trkpt lat="49.18858" lon="1.63428">
        <ele>124.15</ele>
        <time>2013-05-26T14:23:35Z</time>
      </trkpt>
      <trkpt lat="49.18855" lon="1.63428">
        <ele>124.15</ele>
        <time>2013-05-26T14:23:37Z</time>
      </trkpt>
      <trkpt lat="49.18853" lon="1.63429">
        <ele>124.63</ele>
        <time>2013-05-26T14:23:38Z</time>
      </trkpt>
      <trkpt lat="49.1885" lon="1.63429">
        <ele>125.11</ele>
        <time>2013-05-26T14:23:39Z</time>
      </trkpt>
      <trkpt lat="49.18822" lon="1.63435">
        <ele>124.63</ele>
        <time>2013-05-26T14:23:51Z</time>
      </trkpt>
      <trkpt lat="49.18804" lon="1.63437">
        <ele>125.59</ele>
        <time>2013-05-26T14:23:57Z</time>
      </trkpt>
      <trkpt lat="49.18803" lon="1.63438">
        <ele>125.11</ele>
        <time>2013-05-26T14:23:58Z</time>
      </trkpt>
      <trkpt lat="49.18801" lon="1.63438">
        <ele>125.11</ele>
        <time>2013-05-26T14:23:59Z</time>
      </trkpt>
      <trkpt lat="49.18773" lon="1.63442">
        <ele>126.07</ele>
        <time>2013-05-26T14:24:09Z</time>
      </trkpt>
      <trkpt lat="49.18736" lon="1.6345">
        <ele>126.07</ele>
        <time>2013-05-26T14:24:19Z</time>
      </trkpt>
      <trkpt lat="49.18693" lon="1.63456">
        <ele>126.07</ele>
        <time>2013-05-26T14:24:30Z</time>
      </trkpt>
      <trkpt lat="49.18626" lon="1.63477">
        <ele>125.59</ele>
        <time>2013-05-26T14:24:44Z</time>
      </trkpt>
      <trkpt lat="49.18561" lon="1.63508">
        <ele>122.71</ele>
        <time>2013-05-26T14:24:56Z</time>
      </trkpt>
      <trkpt lat="49.18504" lon="1.63539">
        <ele>119.34</ele>
        <time>2013-05-26T14:25:05Z</time>
      </trkpt>
      <trkpt lat="49.18489" lon="1.63551">
        <ele>118.38</ele>
        <time>2013-05-26T14:25:07Z</time>
      </trkpt>
      <trkpt lat="49.18461" lon="1.63584">
        <ele>115.01</ele>
        <time>2013-05-26T14:25:11Z</time>
      </trkpt>
      <trkpt lat="49.18442" lon="1.63605">
        <ele>113.09</ele>
        <time>2013-05-26T14:25:14Z</time>
      </trkpt>
      <trkpt lat="49.18436" lon="1.6361">
        <ele>111.65</ele>
        <time>2013-05-26T14:25:15Z</time>
      </trkpt>
      <trkpt lat="49.1843" lon="1.63612">
        <ele>111.65</ele>
        <time>2013-05-26T14:25:16Z</time>
      </trkpt>
      <trkpt lat="49.18423" lon="1.63612">
        <ele>111.17</ele>
        <time>2013-05-26T14:25:17Z</time>
      </trkpt>
      <trkpt lat="49.18416" lon="1.63609">
        <ele>110.21</ele>
        <time>2013-05-26T14:25:18Z</time>
      </trkpt>
      <trkpt lat="49.18409" lon="1.63606">
        <ele>109.73</ele>
        <time>2013-05-26T14:25:19Z</time>
      </trkpt>
      <trkpt lat="49.18393" lon="1.636">
        <ele>107.81</ele>
        <time>2013-05-26T14:25:22Z</time>
      </trkpt>
      <trkpt lat="49.1839" lon="1.63598">
        <ele>108.77</ele>
        <time>2013-05-26T14:25:23Z</time>
      </trkpt>
      <trkpt lat="49.18387" lon="1.63595">
        <ele>107.32</ele>
        <time>2013-05-26T14:25:24Z</time>
      </trkpt>
      <trkpt lat="49.18384" lon="1.63591">
        <ele>107.81</ele>
        <time>2013-05-26T14:25:25Z</time>
      </trkpt>
      <trkpt lat="49.18382" lon="1.63587">
        <ele>107.32</ele>
        <time>2013-05-26T14:25:26Z</time>
      </trkpt>
      <trkpt lat="49.18381" lon="1.63583">
        <ele>106.84</ele>
        <time>2013-05-26T14:25:27Z</time>
      </trkpt>
      <trkpt lat="49.18379" lon="1.63582">
        <ele>107.32</ele>
        <time>2013-05-26T14:25:28Z</time>
      </trkpt>
      <trkpt lat="49.18377" lon="1.63582">
        <ele>106.36</ele>
        <time>2013-05-26T14:25:29Z</time>
      </trkpt>
      <trkpt lat="49.18376" lon="1.63584">
        <ele>106.36</ele>
        <time>2013-05-26T14:25:30Z</time>
      </trkpt>
      <trkpt lat="49.18375" lon="1.63585">
        <ele>106.84</ele>
        <time>2013-05-26T14:25:31Z</time>
      </trkpt>
      <trkpt lat="49.18373" lon="1.63588">
        <ele>106.84</ele>
        <time>2013-05-26T14:25:42Z</time>
      </trkpt>
      <trkpt lat="49.18373" lon="1.6359">
        <ele>106.36</ele>
        <time>2013-05-26T14:26:13Z</time>
      </trkpt>
      <trkpt lat="49.18371" lon="1.63591">
        <ele>106.36</ele>
        <time>2013-05-26T14:26:34Z</time>
      </trkpt>
      <trkpt lat="49.18371" lon="1.63597">
        <ele>106.84</ele>
        <time>2013-05-26T14:26:50Z</time>
      </trkpt>
      <trkpt lat="49.18372" lon="1.63599">
        <ele>106.36</ele>
        <time>2013-05-26T14:26:51Z</time>
      </trkpt>
      <trkpt lat="49.18373" lon="1.63599">
        <ele>106.36</ele>
        <time>2013-05-26T14:26:52Z</time>
      </trkpt>
      <trkpt lat="49.18373" lon="1.63598">
        <ele>106.84</ele>
        <time>2013-05-26T14:26:53Z</time>
      </trkpt>
      <trkpt lat="49.18374" lon="1.63596">
        <ele>106.84</ele>
        <time>2013-05-26T14:26:54Z</time>
      </trkpt>
      <trkpt lat="49.18375" lon="1.63594">
        <ele>106.36</ele>
        <time>2013-05-26T14:26:55Z</time>
      </trkpt>
      <trkpt lat="49.18375" lon="1.63591">
        <ele>106.84</ele>
        <time>2013-05-26T14:26:56Z</time>
      </trkpt>
      <trkpt lat="49.18375" lon="1.63589">
        <ele>105.88</ele>
        <time>2013-05-26T14:26:57Z</time>
      </trkpt>
      <trkpt lat="49.18375" lon="1.63587">
        <ele>107.32</ele>
        <time>2013-05-26T14:26:58Z</time>
      </trkpt>
      <trkpt lat="49.18374" lon="1.63585">
        <ele>106.84</ele>
        <time>2013-05-26T14:26:59Z</time>
      </trkpt>
      <trkpt lat="49.18371" lon="1.63585">
        <ele>105.88</ele>
        <time>2013-05-26T14:27:11Z</time>
      </trkpt>
      <trkpt lat="49.1837" lon="1.63586">
        <ele>106.36</ele>
        <time>2013-05-26T14:27:32Z</time>
      </trkpt>
      <trkpt lat="49.1837" lon="1.6359">
        <ele>105.88</ele>
        <time>2013-05-26T14:27:34Z</time>
      </trkpt>
      <trkpt lat="49.18371" lon="1.63594">
        <ele>106.84</ele>
        <time>2013-05-26T14:27:35Z</time>
      </trkpt>
      <trkpt lat="49.1837" lon="1.63598">
        <ele>106.84</ele>
        <time>2013-05-26T14:27:36Z</time>
      </trkpt>
      <trkpt lat="49.1837" lon="1.63601">
        <ele>107.32</ele>
        <time>2013-05-26T14:27:37Z</time>
      </trkpt>
      <trkpt lat="49.18369" lon="1.63605">
        <ele>106.36</ele>
        <time>2013-05-26T14:27:38Z</time>
      </trkpt>
      <trkpt lat="49.18368" lon="1.63609">
        <ele>106.36</ele>
        <time>2013-05-26T14:27:39Z</time>
      </trkpt>
      <trkpt lat="49.18367" lon="1.63612">
        <ele>107.32</ele>
        <time>2013-05-26T14:27:40Z</time>
      </trkpt>
      <trkpt lat="49.18355" lon="1.63649">
        <ele>107.32</ele>
        <time>2013-05-26T14:27:50Z</time>
      </trkpt>
      <trkpt lat="49.18354" lon="1.63652">
        <ele>107.81</ele>
        <time>2013-05-26T14:27:51Z</time>
      </trkpt>
      <trkpt lat="49.18354" lon="1.63655">
        <ele>107.32</ele>
        <time>2013-05-26T14:27:52Z</time>
      </trkpt>
      <trkpt lat="49.18347" lon="1.637">
        <ele>109.25</ele>
        <time>2013-05-26T14:28:03Z</time>
      </trkpt>
      <trkpt lat="49.18348" lon="1.63758">
        <ele>111.65</ele>
        <time>2013-05-26T14:28:19Z</time>
      </trkpt>
      <trkpt lat="49.18337" lon="1.63816">
        <ele>113.09</ele>
        <time>2013-05-26T14:28:35Z</time>
      </trkpt>
      <trkpt lat="49.18323" lon="1.63866">
        <ele>114.53</ele>
        <time>2013-05-26T14:28:49Z</time>
      </trkpt>
      <trkpt lat="49.18308" lon="1.63919">
        <ele>115.5</ele>
        <time>2013-05-26T14:29:03Z</time>
      </trkpt>
      <trkpt lat="49.18286" lon="1.6396">
        <ele>115.01</ele>
        <time>2013-05-26T14:29:15Z</time>
      </trkpt>
      <trkpt lat="49.18253" lon="1.63955">
        <ele>114.05</ele>
        <time>2013-05-26T14:29:27Z</time>
      </trkpt>
      <trkpt lat="49.18227" lon="1.63954">
        <ele>114.05</ele>
        <time>2013-05-26T14:29:34Z</time>
      </trkpt>
      <trkpt lat="49.18213" lon="1.63951">
        <ele>114.05</ele>
        <time>2013-05-26T14:29:37Z</time>
      </trkpt>
      <trkpt lat="49.18205" lon="1.63947">
        <ele>112.61</ele>
        <time>2013-05-26T14:29:39Z</time>
      </trkpt>
      <trkpt lat="49.18196" lon="1.6394">
        <ele>112.13</ele>
        <time>2013-05-26T14:29:41Z</time>
      </trkpt>
      <trkpt lat="49.18191" lon="1.63939">
        <ele>112.61</ele>
        <time>2013-05-26T14:29:42Z</time>
      </trkpt>
      <trkpt lat="49.18187" lon="1.63937">
        <ele>113.09</ele>
        <time>2013-05-26T14:29:43Z</time>
      </trkpt>
      <trkpt lat="49.18182" lon="1.63936">
        <ele>112.61</ele>
        <time>2013-05-26T14:29:44Z</time>
      </trkpt>
      <trkpt lat="49.18177" lon="1.63937">
        <ele>113.09</ele>
        <time>2013-05-26T14:29:45Z</time>
      </trkpt>
      <trkpt lat="49.18173" lon="1.63939">
        <ele>113.09</ele>
        <time>2013-05-26T14:29:46Z</time>
      </trkpt>
      <trkpt lat="49.1817" lon="1.63942">
        <ele>114.05</ele>
        <time>2013-05-26T14:29:47Z</time>
      </trkpt>
      <trkpt lat="49.18136" lon="1.63967">
        <ele>115.01</ele>
        <time>2013-05-26T14:29:59Z</time>
      </trkpt>
      <trkpt lat="49.18113" lon="1.64005">
        <ele>115.98</ele>
        <time>2013-05-26T14:30:11Z</time>
      </trkpt>
      <trkpt lat="49.18094" lon="1.6405">
        <ele>116.94</ele>
        <time>2013-05-26T14:30:22Z</time>
      </trkpt>
      <trkpt lat="49.18067" lon="1.64106">
        <ele>117.42</ele>
        <time>2013-05-26T14:30:35Z</time>
      </trkpt>
      <trkpt lat="49.18034" lon="1.64182">
        <ele>118.38</ele>
        <time>2013-05-26T14:30:51Z</time>
      </trkpt>
      <trkpt lat="49.18007" lon="1.64243">
        <ele>120.78</ele>
        <time>2013-05-26T14:31:07Z</time>
      </trkpt>
      <trkpt lat="49.17991" lon="1.64271">
        <ele>120.78</ele>
        <time>2013-05-26T14:31:15Z</time>
      </trkpt>
      <trkpt lat="49.17989" lon="1.64274">
        <ele>120.78</ele>
        <time>2013-05-26T14:31:16Z</time>
      </trkpt>
      <trkpt lat="49.17986" lon="1.64277">
        <ele>120.78</ele>
        <time>2013-05-26T14:31:17Z</time>
      </trkpt>
      <trkpt lat="49.17984" lon="1.64281">
        <ele>121.26</ele>
        <time>2013-05-26T14:31:18Z</time>
      </trkpt>
      <trkpt lat="49.17983" lon="1.64285">
        <ele>121.74</ele>
        <time>2013-05-26T14:31:19Z</time>
      </trkpt>
      <trkpt lat="49.17982" lon="1.64289">
        <ele>121.26</ele>
        <time>2013-05-26T14:31:20Z</time>
      </trkpt>
      <trkpt lat="49.17981" lon="1.64292">
        <ele>121.26</ele>
        <time>2013-05-26T14:31:21Z</time>
      </trkpt>
      <trkpt lat="49.17976" lon="1.64303">
        <ele>121.74</ele>
        <time>2013-05-26T14:31:25Z</time>
      </trkpt>
      <trkpt lat="49.17974" lon="1.64305">
        <ele>121.74</ele>
        <time>2013-05-26T14:31:26Z</time>
      </trkpt>
      <trkpt lat="49.17973" lon="1.64306">
        <ele>122.22</ele>
        <time>2013-05-26T14:31:27Z</time>
      </trkpt>
      <trkpt lat="49.17971" lon="1.64314">
        <ele>122.22</ele>
        <time>2013-05-26T14:31:30Z</time>
      </trkpt>
      <trkpt lat="49.17969" lon="1.64314">
        <ele>122.22</ele>
        <time>2013-05-26T14:31:31Z</time>
      </trkpt>
      <trkpt lat="49.17968" lon="1.64316">
        <ele>122.71</ele>
        <time>2013-05-26T14:31:32Z</time>
      </trkpt>
      <trkpt lat="49.17966" lon="1.64318">
        <ele>122.22</ele>
        <time>2013-05-26T14:31:33Z</time>
      </trkpt>
      <trkpt lat="49.17964" lon="1.64318">
        <ele>122.22</ele>
        <time>2013-05-26T14:31:34Z</time>
      </trkpt>
      <trkpt lat="49.17962" lon="1.64319">
        <ele>122.71</ele>
        <time>2013-05-26T14:31:35Z</time>
      </trkpt>
      <trkpt lat="49.17959" lon="1.6432">
        <ele>122.22</ele>
        <time>2013-05-26T14:31:36Z</time>
      </trkpt>
      <trkpt lat="49.17957" lon="1.64321">
        <ele>122.22</ele>
        <time>2013-05-26T14:31:37Z</time>
      </trkpt>
      <trkpt lat="49.17955" lon="1.64323">
        <ele>122.22</ele>
        <time>2013-05-26T14:31:38Z</time>
      </trkpt>
      <trkpt lat="49.17946" lon="1.6433">
        <ele>122.22</ele>
        <time>2013-05-26T14:31:41Z</time>
      </trkpt>
      <trkpt lat="49.17945" lon="1.64331">
        <ele>123.19</ele>
        <time>2013-05-26T14:31:42Z</time>
      </trkpt>
      <trkpt lat="49.17943" lon="1.64333">
        <ele>122.22</ele>
        <time>2013-05-26T14:31:43Z</time>
      </trkpt>
      <trkpt lat="49.17942" lon="1.64335">
        <ele>123.19</ele>
        <time>2013-05-26T14:31:44Z</time>
      </trkpt>
      <trkpt lat="49.1794" lon="1.64337">
        <ele>123.67</ele>
        <time>2013-05-26T14:31:45Z</time>
      </trkpt>
      <trkpt lat="49.17937" lon="1.64338">
        <ele>122.22</ele>
        <time>2013-05-26T14:31:46Z</time>
      </trkpt>
      <trkpt lat="49.17934" lon="1.64339">
        <ele>122.71</ele>
        <time>2013-05-26T14:31:47Z</time>
      </trkpt>
      <trkpt lat="49.1793" lon="1.6434">
        <ele>122.71</ele>
        <time>2013-05-26T14:31:48Z</time>
      </trkpt>
      <trkpt lat="49.17927" lon="1.64341">
        <ele>123.19</ele>
        <time>2013-05-26T14:31:49Z</time>
      </trkpt>
      <trkpt lat="49.17922" lon="1.64341">
        <ele>122.71</ele>
        <time>2013-05-26T14:31:50Z</time>
      </trkpt>
      <trkpt lat="49.17902" lon="1.64344">
        <ele>122.71</ele>
        <time>2013-05-26T14:31:56Z</time>
      </trkpt>
      <trkpt lat="49.17901" lon="1.64345">
        <ele>122.22</ele>
        <time>2013-05-26T14:31:57Z</time>
      </trkpt>
      <trkpt lat="49.17897" lon="1.64346">
        <ele>122.71</ele>
        <time>2013-05-26T14:32:00Z</time>
      </trkpt>
      <trkpt lat="49.17893" lon="1.64351">
        <ele>122.71</ele>
        <time>2013-05-26T14:32:05Z</time>
      </trkpt>
      <trkpt lat="49.17892" lon="1.64353">
        <ele>122.22</ele>
        <time>2013-05-26T14:32:06Z</time>
      </trkpt>
      <trkpt lat="49.1789" lon="1.64354">
        <ele>122.71</ele>
        <time>2013-05-26T14:32:07Z</time>
      </trkpt>
      <trkpt lat="49.17888" lon="1.64356">
        <ele>122.22</ele>
        <time>2013-05-26T14:32:08Z</time>
      </trkpt>
      <trkpt lat="49.17886" lon="1.64357">
        <ele>122.22</ele>
        <time>2013-05-26T14:32:09Z</time>
      </trkpt>
      <trkpt lat="49.17885" lon="1.6436">
        <ele>122.71</ele>
        <time>2013-05-26T14:32:10Z</time>
      </trkpt>
      <trkpt lat="49.17883" lon="1.64363">
        <ele>122.71</ele>
        <time>2013-05-26T14:32:11Z</time>
      </trkpt>
      <trkpt lat="49.17881" lon="1.64366">
        <ele>122.71</ele>
        <time>2013-05-26T14:32:12Z</time>
      </trkpt>
      <trkpt lat="49.17879" lon="1.6437">
        <ele>122.22</ele>
        <time>2013-05-26T14:32:13Z</time>
      </trkpt>
      <trkpt lat="49.17864" lon="1.64391">
        <ele>122.71</ele>
        <time>2013-05-26T14:32:21Z</time>
      </trkpt>
      <trkpt lat="49.17856" lon="1.64401">
        <ele>122.71</ele>
        <time>2013-05-26T14:32:26Z</time>
      </trkpt>
      <trkpt lat="49.17853" lon="1.64404">
        <ele>122.71</ele>
        <time>2013-05-26T14:32:27Z</time>
      </trkpt>
      <trkpt lat="49.1785" lon="1.64405">
        <ele>122.71</ele>
        <time>2013-05-26T14:32:28Z</time>
      </trkpt>
      <trkpt lat="49.1783" lon="1.64436">
        <ele>123.67</ele>
        <time>2013-05-26T14:32:38Z</time>
      </trkpt>
      <trkpt lat="49.17819" lon="1.6447">
        <ele>123.67</ele>
        <time>2013-05-26T14:32:47Z</time>
      </trkpt>
      <trkpt lat="49.17817" lon="1.64485">
        <ele>123.19</ele>
        <time>2013-05-26T14:32:52Z</time>
      </trkpt>
      <trkpt lat="49.17816" lon="1.64488">
        <ele>123.67</ele>
        <time>2013-05-26T14:32:53Z</time>
      </trkpt>
      <trkpt lat="49.17816" lon="1.64491">
        <ele>124.15</ele>
        <time>2013-05-26T14:32:54Z</time>
      </trkpt>
      <trkpt lat="49.17815" lon="1.64496">
        <ele>123.67</ele>
        <time>2013-05-26T14:32:55Z</time>
      </trkpt>
      <trkpt lat="49.17814" lon="1.645">
        <ele>123.67</ele>
        <time>2013-05-26T14:32:56Z</time>
      </trkpt>
      <trkpt lat="49.17811" lon="1.64505">
        <ele>123.67</ele>
        <time>2013-05-26T14:32:57Z</time>
      </trkpt>
      <trkpt lat="49.1779" lon="1.64544">
        <ele>123.67</ele>
        <time>2013-05-26T14:33:07Z</time>
      </trkpt>
      <trkpt lat="49.17772" lon="1.64585">
        <ele>123.67</ele>
        <time>2013-05-26T14:33:16Z</time>
      </trkpt>
      <trkpt lat="49.17755" lon="1.64632">
        <ele>123.67</ele>
        <time>2013-05-26T14:33:26Z</time>
      </trkpt>
      <trkpt lat="49.17756" lon="1.64639">
        <ele>123.67</ele>
        <time>2013-05-26T14:33:27Z</time>
      </trkpt>
      <trkpt lat="49.17755" lon="1.64646">
        <ele>123.67</ele>
        <time>2013-05-26T14:33:28Z</time>
      </trkpt>
      <trkpt lat="49.17754" lon="1.64653">
        <ele>123.67</ele>
        <time>2013-05-26T14:33:29Z</time>
      </trkpt>
      <trkpt lat="49.17752" lon="1.64658">
        <ele>124.15</ele>
        <time>2013-05-26T14:33:30Z</time>
      </trkpt>
      <trkpt lat="49.1775" lon="1.64664">
        <ele>124.15</ele>
        <time>2013-05-26T14:33:31Z</time>
      </trkpt>
      <trkpt lat="49.17747" lon="1.64669">
        <ele>123.67</ele>
        <time>2013-05-26T14:33:32Z</time>
      </trkpt>
      <trkpt lat="49.17736" lon="1.64689">
        <ele>123.67</ele>
        <time>2013-05-26T14:33:38Z</time>
      </trkpt>
      <trkpt lat="49.17732" lon="1.64695">
        <ele>123.67</ele>
        <time>2013-05-26T14:33:39Z</time>
      </trkpt>
      <trkpt lat="49.17728" lon="1.64702">
        <ele>124.15</ele>
        <time>2013-05-26T14:33:40Z</time>
      </trkpt>
      <trkpt lat="49.1772" lon="1.64716">
        <ele>123.67</ele>
        <time>2013-05-26T14:33:42Z</time>
      </trkpt>
      <trkpt lat="49.17717" lon="1.64722">
        <ele>123.19</ele>
        <time>2013-05-26T14:33:43Z</time>
      </trkpt>
      <trkpt lat="49.17708" lon="1.64737">
        <ele>123.67</ele>
        <time>2013-05-26T14:33:46Z</time>
      </trkpt>
      <trkpt lat="49.17704" lon="1.64742">
        <ele>123.19</ele>
        <time>2013-05-26T14:33:47Z</time>
      </trkpt>
      <trkpt lat="49.17701" lon="1.64746">
        <ele>123.67</ele>
        <time>2013-05-26T14:33:48Z</time>
      </trkpt>
      <trkpt lat="49.17698" lon="1.6475">
        <ele>123.67</ele>
        <time>2013-05-26T14:33:49Z</time>
      </trkpt>
      <trkpt lat="49.17695" lon="1.64754">
        <ele>123.19</ele>
        <time>2013-05-26T14:33:50Z</time>
      </trkpt>
      <trkpt lat="49.17692" lon="1.64758">
        <ele>124.15</ele>
        <time>2013-05-26T14:33:51Z</time>
      </trkpt>
      <trkpt lat="49.1769" lon="1.64764">
        <ele>123.19</ele>
        <time>2013-05-26T14:33:52Z</time>
      </trkpt>
      <trkpt lat="49.17687" lon="1.64769">
        <ele>123.67</ele>
        <time>2013-05-26T14:33:53Z</time>
      </trkpt>
      <trkpt lat="49.17686" lon="1.64774">
        <ele>122.71</ele>
        <time>2013-05-26T14:33:54Z</time>
      </trkpt>
      <trkpt lat="49.17684" lon="1.6478">
        <ele>123.19</ele>
        <time>2013-05-26T14:33:55Z</time>
      </trkpt>
      <trkpt lat="49.17682" lon="1.64786">
        <ele>123.67</ele>
        <time>2013-05-26T14:33:56Z</time>
      </trkpt>
      <trkpt lat="49.17679" lon="1.64791">
        <ele>123.67</ele>
        <time>2013-05-26T14:33:57Z</time>
      </trkpt>
      <trkpt lat="49.1766" lon="1.6484">
        <ele>123.19</ele>
        <time>2013-05-26T14:34:07Z</time>
      </trkpt>
      <trkpt lat="49.17642" lon="1.64877">
        <ele>123.19</ele>
        <time>2013-05-26T14:34:14Z</time>
      </trkpt>
      <trkpt lat="49.1762" lon="1.64921">
        <ele>123.19</ele>
        <time>2013-05-26T14:34:23Z</time>
      </trkpt>
      <trkpt lat="49.17601" lon="1.64961">
        <ele>122.71</ele>
        <time>2013-05-26T14:34:31Z</time>
      </trkpt>
      <trkpt lat="49.17578" lon="1.65002">
        <ele>121.74</ele>
        <time>2013-05-26T14:34:40Z</time>
      </trkpt>
      <trkpt lat="49.17574" lon="1.65008">
        <ele>121.74</ele>
        <time>2013-05-26T14:34:41Z</time>
      </trkpt>
      <trkpt lat="49.17547" lon="1.6506">
        <ele>120.78</ele>
        <time>2013-05-26T14:34:49Z</time>
      </trkpt>
      <trkpt lat="49.17544" lon="1.65069">
        <ele>120.3</ele>
        <time>2013-05-26T14:34:50Z</time>
      </trkpt>
      <trkpt lat="49.17542" lon="1.65077">
        <ele>120.78</ele>
        <time>2013-05-26T14:34:51Z</time>
      </trkpt>
      <trkpt lat="49.17526" lon="1.65133">
        <ele>120.3</ele>
        <time>2013-05-26T14:35:00Z</time>
      </trkpt>
      <trkpt lat="49.17528" lon="1.65155">
        <ele>120.3</ele>
        <time>2013-05-26T14:35:09Z</time>
      </trkpt>
      <trkpt lat="49.17523" lon="1.6517">
        <ele>119.34</ele>
        <time>2013-05-26T14:35:24Z</time>
      </trkpt>
      <trkpt lat="49.17518" lon="1.65169">
        <ele>117.42</ele>
        <time>2013-05-26T14:35:28Z</time>
      </trkpt>
      <trkpt lat="49.17516" lon="1.65167">
        <ele>117.42</ele>
        <time>2013-05-26T14:35:29Z</time>
      </trkpt>
      <trkpt lat="49.17514" lon="1.65164">
        <ele>117.42</ele>
        <time>2013-05-26T14:35:30Z</time>
      </trkpt>
      <trkpt lat="49.17511" lon="1.65161">
        <ele>117.42</ele>
        <time>2013-05-26T14:35:31Z</time>
      </trkpt>
      <trkpt lat="49.17508" lon="1.65159">
        <ele>116.94</ele>
        <time>2013-05-26T14:35:32Z</time>
      </trkpt>
      <trkpt lat="49.17506" lon="1.65157">
        <ele>115.98</ele>
        <time>2013-05-26T14:35:33Z</time>
      </trkpt>
      <trkpt lat="49.17503" lon="1.65154">
        <ele>115.98</ele>
        <time>2013-05-26T14:35:34Z</time>
      </trkpt>
      <trkpt lat="49.17503" lon="1.65153">
        <ele>115.01</ele>
        <time>2013-05-26T14:35:35Z</time>
      </trkpt>
      <trkpt lat="49.17503" lon="1.65151">
        <ele>115.5</ele>
        <time>2013-05-26T14:35:36Z</time>
      </trkpt>
      <trkpt lat="49.17507" lon="1.6515">
        <ele>114.53</ele>
        <time>2013-05-26T14:35:38Z</time>
      </trkpt>
      <trkpt lat="49.17509" lon="1.65148">
        <ele>113.57</ele>
        <time>2013-05-26T14:35:40Z</time>
      </trkpt>
      <trkpt lat="49.17509" lon="1.65145">
        <ele>113.09</ele>
        <time>2013-05-26T14:35:41Z</time>
      </trkpt>
      <trkpt lat="49.17508" lon="1.65142">
        <ele>112.61</ele>
        <time>2013-05-26T14:35:42Z</time>
      </trkpt>
      <trkpt lat="49.17508" lon="1.65139">
        <ele>112.13</ele>
        <time>2013-05-26T14:35:43Z</time>
      </trkpt>
      <trkpt lat="49.17508" lon="1.65135">
        <ele>112.13</ele>
        <time>2013-05-26T14:35:44Z</time>
      </trkpt>
      <trkpt lat="49.1751" lon="1.65127">
        <ele>112.61</ele>
        <time>2013-05-26T14:35:47Z</time>
      </trkpt>
      <trkpt lat="49.17514" lon="1.6512">
        <ele>113.09</ele>
        <time>2013-05-26T14:35:49Z</time>
      </trkpt>
      <trkpt lat="49.17514" lon="1.65117">
        <ele>113.09</ele>
        <time>2013-05-26T14:35:50Z</time>
      </trkpt>
      <trkpt lat="49.17514" lon="1.65114">
        <ele>113.57</ele>
        <time>2013-05-26T14:35:51Z</time>
      </trkpt>
      <trkpt lat="49.17516" lon="1.65108">
        <ele>113.57</ele>
        <time>2013-05-26T14:35:52Z</time>
      </trkpt>
      <trkpt lat="49.17517" lon="1.65103">
        <ele>113.09</ele>
        <time>2013-05-26T14:35:53Z</time>
      </trkpt>
      <trkpt lat="49.17518" lon="1.65098">
        <ele>113.09</ele>
        <time>2013-05-26T14:35:54Z</time>
      </trkpt>
      <trkpt lat="49.17519" lon="1.65094">
        <ele>113.57</ele>
        <time>2013-05-26T14:35:55Z</time>
      </trkpt>
      <trkpt lat="49.17522" lon="1.6509">
        <ele>113.57</ele>
        <time>2013-05-26T14:35:56Z</time>
      </trkpt>
      <trkpt lat="49.17523" lon="1.65087">
        <ele>113.57</ele>
        <time>2013-05-26T14:35:57Z</time>
      </trkpt>
      <trkpt lat="49.17524" lon="1.65083">
        <ele>113.09</ele>
        <time>2013-05-26T14:35:58Z</time>
      </trkpt>
      <trkpt lat="49.17526" lon="1.6508">
        <ele>113.57</ele>
        <time>2013-05-26T14:35:59Z</time>
      </trkpt>
      <trkpt lat="49.17535" lon="1.65056">
        <ele>114.05</ele>
        <time>2013-05-26T14:36:08Z</time>
      </trkpt>
      <trkpt lat="49.17537" lon="1.65049">
        <ele>114.53</ele>
        <time>2013-05-26T14:36:11Z</time>
      </trkpt>
      <trkpt lat="49.1754" lon="1.65036">
        <ele>115.01</ele>
        <time>2013-05-26T14:36:22Z</time>
      </trkpt>
      <trkpt lat="49.17541" lon="1.65031">
        <ele>114.05</ele>
        <time>2013-05-26T14:36:41Z</time>
      </trkpt>
      <trkpt lat="49.17538" lon="1.65028">
        <ele>114.53</ele>
        <time>2013-05-26T14:37:12Z</time>
      </trkpt>
      <trkpt lat="49.17537" lon="1.65026">
        <ele>115.01</ele>
        <time>2013-05-26T14:37:40Z</time>
      </trkpt>
      <trkpt lat="49.17534" lon="1.65023">
        <ele>115.01</ele>
        <time>2013-05-26T14:38:06Z</time>
      </trkpt>
      <trkpt lat="49.17532" lon="1.65022">
        <ele>115.01</ele>
        <time>2013-05-26T14:38:35Z</time>
      </trkpt>
      <trkpt lat="49.17531" lon="1.65021">
        <ele>115.01</ele>
        <time>2013-05-26T14:39:00Z</time>
      </trkpt>
      <trkpt lat="49.1753" lon="1.65022">
        <ele>115.01</ele>
        <time>2013-05-26T14:39:27Z</time>
      </trkpt>
      <trkpt lat="49.1753" lon="1.65022">
        <ele>115.5</ele>
        <time>2013-05-26T14:39:50Z</time>
      </trkpt>
      <trkpt lat="49.1753" lon="1.65022">
        <ele>115.5</ele>
        <time>2013-05-26T14:40:13Z</time>
      </trkpt>
      <trkpt lat="49.17529" lon="1.65021">
        <ele>115.5</ele>
        <time>2013-05-26T14:40:40Z</time>
      </trkpt>
      <trkpt lat="49.17528" lon="1.65026">
        <ele>115.98</ele>
        <time>2013-05-26T14:40:54Z</time>
      </trkpt>
      <trkpt lat="49.17527" lon="1.65034">
        <ele>115.98</ele>
        <time>2013-05-26T14:41:03Z</time>
      </trkpt>
      <trkpt lat="49.17524" lon="1.65041">
        <ele>115.5</ele>
        <time>2013-05-26T14:41:07Z</time>
      </trkpt>
      <trkpt lat="49.17523" lon="1.65043">
        <ele>115.5</ele>
        <time>2013-05-26T14:41:08Z</time>
      </trkpt>
      <trkpt lat="49.17521" lon="1.65051">
        <ele>116.46</ele>
        <time>2013-05-26T14:41:14Z</time>
      </trkpt>
      <trkpt lat="49.1752" lon="1.65055">
        <ele>115.5</ele>
        <time>2013-05-26T14:41:15Z</time>
      </trkpt>
      <trkpt lat="49.17518" lon="1.65058">
        <ele>115.98</ele>
        <time>2013-05-26T14:41:16Z</time>
      </trkpt>
      <trkpt lat="49.17515" lon="1.6506">
        <ele>115.98</ele>
        <time>2013-05-26T14:41:17Z</time>
      </trkpt>
      <trkpt lat="49.17513" lon="1.65062">
        <ele>116.46</ele>
        <time>2013-05-26T14:41:18Z</time>
      </trkpt>
      <trkpt lat="49.1751" lon="1.65063">
        <ele>115.98</ele>
        <time>2013-05-26T14:41:19Z</time>
      </trkpt>
      <trkpt lat="49.17485" lon="1.65096">
        <ele>113.57</ele>
        <time>2013-05-26T14:41:28Z</time>
      </trkpt>
      <trkpt lat="49.17484" lon="1.65108">
        <ele>115.5</ele>
        <time>2013-05-26T14:41:33Z</time>
      </trkpt>
      <trkpt lat="49.17485" lon="1.65112">
        <ele>115.98</ele>
        <time>2013-05-26T14:41:34Z</time>
      </trkpt>
      <trkpt lat="49.17487" lon="1.65117">
        <ele>115.5</ele>
        <time>2013-05-26T14:41:35Z</time>
      </trkpt>
      <trkpt lat="49.17504" lon="1.65145">
        <ele>116.94</ele>
        <time>2013-05-26T14:41:42Z</time>
      </trkpt>
      <trkpt lat="49.17506" lon="1.65148">
        <ele>117.42</ele>
        <time>2013-05-26T14:41:43Z</time>
      </trkpt>
      <trkpt lat="49.17508" lon="1.65151">
        <ele>118.38</ele>
        <time>2013-05-26T14:41:44Z</time>
      </trkpt>
      <trkpt lat="49.17509" lon="1.65152">
        <ele>117.9</ele>
        <time>2013-05-26T14:41:45Z</time>
      </trkpt>
      <trkpt lat="49.17517" lon="1.65167">
        <ele>118.86</ele>
        <time>2013-05-26T14:41:54Z</time>
      </trkpt>
      <trkpt lat="49.17524" lon="1.65183">
        <ele>119.82</ele>
        <time>2013-05-26T14:42:05Z</time>
      </trkpt>
      <trkpt lat="49.17527" lon="1.65187">
        <ele>120.3</ele>
        <time>2013-05-26T14:42:06Z</time>
      </trkpt>
      <trkpt lat="49.17531" lon="1.65192">
        <ele>120.3</ele>
        <time>2013-05-26T14:42:08Z</time>
      </trkpt>
      <trkpt lat="49.17535" lon="1.65202">
        <ele>120.3</ele>
        <time>2013-05-26T14:42:11Z</time>
      </trkpt>
      <trkpt lat="49.17534" lon="1.65204">
        <ele>120.3</ele>
        <time>2013-05-26T14:42:12Z</time>
      </trkpt>
      <trkpt lat="49.17532" lon="1.65207">
        <ele>120.3</ele>
        <time>2013-05-26T14:42:13Z</time>
      </trkpt>
      <trkpt lat="49.1751" lon="1.65233">
        <ele>120.78</ele>
        <time>2013-05-26T14:42:24Z</time>
      </trkpt>
      <trkpt lat="49.17509" lon="1.65257">
        <ele>120.3</ele>
        <time>2013-05-26T14:42:31Z</time>
      </trkpt>
      <trkpt lat="49.1751" lon="1.65261">
        <ele>121.26</ele>
        <time>2013-05-26T14:42:32Z</time>
      </trkpt>
      <trkpt lat="49.17511" lon="1.65265">
        <ele>121.26</ele>
        <time>2013-05-26T14:42:33Z</time>
      </trkpt>
      <trkpt lat="49.17512" lon="1.65274">
        <ele>121.26</ele>
        <time>2013-05-26T14:42:36Z</time>
      </trkpt>
      <trkpt lat="49.17516" lon="1.65282">
        <ele>121.26</ele>
        <time>2013-05-26T14:42:38Z</time>
      </trkpt>
      <trkpt lat="49.1752" lon="1.65291">
        <ele>120.78</ele>
        <time>2013-05-26T14:42:39Z</time>
      </trkpt>
      <trkpt lat="49.17524" lon="1.65297">
        <ele>121.26</ele>
        <time>2013-05-26T14:42:40Z</time>
      </trkpt>
      <trkpt lat="49.17526" lon="1.65302">
        <ele>121.74</ele>
        <time>2013-05-26T14:42:41Z</time>
      </trkpt>
      <trkpt lat="49.17527" lon="1.65306">
        <ele>121.26</ele>
        <time>2013-05-26T14:42:42Z</time>
      </trkpt>
      <trkpt lat="49.17529" lon="1.65309">
        <ele>121.74</ele>
        <time>2013-05-26T14:42:43Z</time>
      </trkpt>
      <trkpt lat="49.17532" lon="1.65315">
        <ele>121.26</ele>
        <time>2013-05-26T14:42:55Z</time>
      </trkpt>
      <trkpt lat="49.17532" lon="1.65314">
        <ele>119.82</ele>
        <time>2013-05-26T14:43:31Z</time>
      </trkpt>
      <trkpt lat="49.17533" lon="1.65316">
        <ele>121.26</ele>
        <time>2013-05-26T14:44:06Z</time>
      </trkpt>
      <trkpt lat="49.17533" lon="1.65317">
        <ele>120.78</ele>
        <time>2013-05-26T14:44:44Z</time>
      </trkpt>
      <trkpt lat="49.17533" lon="1.65316">
        <ele>121.26</ele>
        <time>2013-05-26T14:45:19Z</time>
      </trkpt>
      <trkpt lat="49.17532" lon="1.65316">
        <ele>121.74</ele>
        <time>2013-05-26T14:45:33Z</time>
      </trkpt>
      <trkpt lat="49.17532" lon="1.65317">
        <ele>122.71</ele>
        <time>2013-05-26T14:46:04Z</time>
      </trkpt>
      <trkpt lat="49.1753" lon="1.65318">
        <ele>123.19</ele>
        <time>2013-05-26T14:46:24Z</time>
      </trkpt>
      <trkpt lat="49.1753" lon="1.65318">
        <ele>122.22</ele>
        <time>2013-05-26T14:46:43Z</time>
      </trkpt>
      <trkpt lat="49.17527" lon="1.65319">
        <ele>122.22</ele>
        <time>2013-05-26T14:46:49Z</time>
      </trkpt>
      <trkpt lat="49.17525" lon="1.65319">
        <ele>121.26</ele>
        <time>2013-05-26T14:46:50Z</time>
      </trkpt>
      <trkpt lat="49.17523" lon="1.65321">
        <ele>122.22</ele>
        <time>2013-05-26T14:46:51Z</time>
      </trkpt>
      <trkpt lat="49.17521" lon="1.65323">
        <ele>122.22</ele>
        <time>2013-05-26T14:46:52Z</time>
      </trkpt>
      <trkpt lat="49.1752" lon="1.65325">
        <ele>121.26</ele>
        <time>2013-05-26T14:46:53Z</time>
      </trkpt>
      <trkpt lat="49.17518" lon="1.65329">
        <ele>122.71</ele>
        <time>2013-05-26T14:46:54Z</time>
      </trkpt>
      <trkpt lat="49.17517" lon="1.65332">
        <ele>122.22</ele>
        <time>2013-05-26T14:46:55Z</time>
      </trkpt>
      <trkpt lat="49.17515" lon="1.65336">
        <ele>121.74</ele>
        <time>2013-05-26T14:46:56Z</time>
      </trkpt>
      <trkpt lat="49.17513" lon="1.6534">
        <ele>121.74</ele>
        <time>2013-05-26T14:46:57Z</time>
      </trkpt>
      <trkpt lat="49.17482" lon="1.65392">
        <ele>120.78</ele>
        <time>2013-05-26T14:47:10Z</time>
      </trkpt>
      <trkpt lat="49.17444" lon="1.65458">
        <ele>120.3</ele>
        <time>2013-05-26T14:47:25Z</time>
      </trkpt>
      <trkpt lat="49.17402" lon="1.65532">
        <ele>120.78</ele>
        <time>2013-05-26T14:47:41Z</time>
      </trkpt>
      <trkpt lat="49.17357" lon="1.65609">
        <ele>121.26</ele>
        <time>2013-05-26T14:47:58Z</time>
      </trkpt>
      <trkpt lat="49.17308" lon="1.65671">
        <ele>121.74</ele>
        <time>2013-05-26T14:48:14Z</time>
      </trkpt>
      <trkpt lat="49.17276" lon="1.65706">
        <ele>119.82</ele>
        <time>2013-05-26T14:48:26Z</time>
      </trkpt>
      <trkpt lat="49.17261" lon="1.65727">
        <ele>119.82</ele>
        <time>2013-05-26T14:48:31Z</time>
      </trkpt>
      <trkpt lat="49.17238" lon="1.65763">
        <ele>119.82</ele>
        <time>2013-05-26T14:48:39Z</time>
      </trkpt>
      <trkpt lat="49.17234" lon="1.65767">
        <ele>119.82</ele>
        <time>2013-05-26T14:48:40Z</time>
      </trkpt>
      <trkpt lat="49.17194" lon="1.65819">
        <ele>119.82</ele>
        <time>2013-05-26T14:48:53Z</time>
      </trkpt>
      <trkpt lat="49.17173" lon="1.65841">
        <ele>118.38</ele>
        <time>2013-05-26T14:48:59Z</time>
      </trkpt>
      <trkpt lat="49.1717" lon="1.65843">
        <ele>118.86</ele>
        <time>2013-05-26T14:49:00Z</time>
      </trkpt>
      <trkpt lat="49.17166" lon="1.65846">
        <ele>118.38</ele>
        <time>2013-05-26T14:49:01Z</time>
      </trkpt>
      <trkpt lat="49.17097" lon="1.65894">
        <ele>116.94</ele>
        <time>2013-05-26T14:49:17Z</time>
      </trkpt>
      <trkpt lat="49.17048" lon="1.65928">
        <ele>113.57</ele>
        <time>2013-05-26T14:49:27Z</time>
      </trkpt>
      <trkpt lat="49.16985" lon="1.65985">
        <ele>111.17</ele>
        <time>2013-05-26T14:49:40Z</time>
      </trkpt>
      <trkpt lat="49.16972" lon="1.66001">
        <ele>109.25</ele>
        <time>2013-05-26T14:49:43Z</time>
      </trkpt>
      <trkpt lat="49.16963" lon="1.66012">
        <ele>107.81</ele>
        <time>2013-05-26T14:49:45Z</time>
      </trkpt>
      <trkpt lat="49.16949" lon="1.66032">
        <ele>104.44</ele>
        <time>2013-05-26T14:49:49Z</time>
      </trkpt>
      <trkpt lat="49.16944" lon="1.66038">
        <ele>102.04</ele>
        <time>2013-05-26T14:49:50Z</time>
      </trkpt>
      <trkpt lat="49.1694" lon="1.66046">
        <ele>101.56</ele>
        <time>2013-05-26T14:49:51Z</time>
      </trkpt>
      <trkpt lat="49.16931" lon="1.66061">
        <ele>99.63</ele>
        <time>2013-05-26T14:49:53Z</time>
      </trkpt>
      <trkpt lat="49.16926" lon="1.66067">
        <ele>98.19</ele>
        <time>2013-05-26T14:49:54Z</time>
      </trkpt>
      <trkpt lat="49.16922" lon="1.66072">
        <ele>97.71</ele>
        <time>2013-05-26T14:49:55Z</time>
      </trkpt>
      <trkpt lat="49.16919" lon="1.66075">
        <ele>97.71</ele>
        <time>2013-05-26T14:49:56Z</time>
      </trkpt>
      <trkpt lat="49.16917" lon="1.66078">
        <ele>96.75</ele>
        <time>2013-05-26T14:49:57Z</time>
      </trkpt>
      <trkpt lat="49.16906" lon="1.66094">
        <ele>94.35</ele>
        <time>2013-05-26T14:50:02Z</time>
      </trkpt>
      <trkpt lat="49.16894" lon="1.66103">
        <ele>92.42</ele>
        <time>2013-05-26T14:50:05Z</time>
      </trkpt>
      <trkpt lat="49.16883" lon="1.6611">
        <ele>90.5</ele>
        <time>2013-05-26T14:50:08Z</time>
      </trkpt>
      <trkpt lat="49.16874" lon="1.66113">
        <ele>88.1</ele>
        <time>2013-05-26T14:50:10Z</time>
      </trkpt>
      <trkpt lat="49.16869" lon="1.66113">
        <ele>88.1</ele>
        <time>2013-05-26T14:50:11Z</time>
      </trkpt>
      <trkpt lat="49.16856" lon="1.66113">
        <ele>86.18</ele>
        <time>2013-05-26T14:50:17Z</time>
      </trkpt>
      <trkpt lat="49.16855" lon="1.66115">
        <ele>86.18</ele>
        <time>2013-05-26T14:50:18Z</time>
      </trkpt>
      <trkpt lat="49.16854" lon="1.66117">
        <ele>86.18</ele>
        <time>2013-05-26T14:50:19Z</time>
      </trkpt>
      <trkpt lat="49.16855" lon="1.66119">
        <ele>86.18</ele>
        <time>2013-05-26T14:50:20Z</time>
      </trkpt>
      <trkpt lat="49.16856" lon="1.6612">
        <ele>86.18</ele>
        <time>2013-05-26T14:50:21Z</time>
      </trkpt>
      <trkpt lat="49.16857" lon="1.66122">
        <ele>86.18</ele>
        <time>2013-05-26T14:50:22Z</time>
      </trkpt>
      <trkpt lat="49.16858" lon="1.66123">
        <ele>86.66</ele>
        <time>2013-05-26T14:50:23Z</time>
      </trkpt>
      <trkpt lat="49.16859" lon="1.66125">
        <ele>86.66</ele>
        <time>2013-05-26T14:50:24Z</time>
      </trkpt>
      <trkpt lat="49.1686" lon="1.66127">
        <ele>86.66</ele>
        <time>2013-05-26T14:50:25Z</time>
      </trkpt>
      <trkpt lat="49.16862" lon="1.6613">
        <ele>86.66</ele>
        <time>2013-05-26T14:50:26Z</time>
      </trkpt>
      <trkpt lat="49.16864" lon="1.66133">
        <ele>86.66</ele>
        <time>2013-05-26T14:50:27Z</time>
      </trkpt>
      <trkpt lat="49.16866" lon="1.66138">
        <ele>87.14</ele>
        <time>2013-05-26T14:50:28Z</time>
      </trkpt>
      <trkpt lat="49.16868" lon="1.66141">
        <ele>87.14</ele>
        <time>2013-05-26T14:50:29Z</time>
      </trkpt>
      <trkpt lat="49.1687" lon="1.66145">
        <ele>87.62</ele>
        <time>2013-05-26T14:50:30Z</time>
      </trkpt>
      <trkpt lat="49.16872" lon="1.66151">
        <ele>87.14</ele>
        <time>2013-05-26T14:50:31Z</time>
      </trkpt>
      <trkpt lat="49.16901" lon="1.66222">
        <ele>86.66</ele>
        <time>2013-05-26T14:50:46Z</time>
      </trkpt>
      <trkpt lat="49.16937" lon="1.66293">
        <ele>87.62</ele>
        <time>2013-05-26T14:51:04Z</time>
      </trkpt>
      <trkpt lat="49.16974" lon="1.66334">
        <ele>88.58</ele>
        <time>2013-05-26T14:51:21Z</time>
      </trkpt>
      <trkpt lat="49.16991" lon="1.66349">
        <ele>89.06</ele>
        <time>2013-05-26T14:51:33Z</time>
      </trkpt>
      <trkpt lat="49.17005" lon="1.66379">
        <ele>87.62</ele>
        <time>2013-05-26T14:51:46Z</time>
      </trkpt>
      <trkpt lat="49.17022" lon="1.664">
        <ele>86.18</ele>
        <time>2013-05-26T14:51:55Z</time>
      </trkpt>
      <trkpt lat="49.17023" lon="1.66401">
        <ele>85.69</ele>
        <time>2013-05-26T14:51:56Z</time>
      </trkpt>
      <trkpt lat="49.17063" lon="1.66412">
        <ele>85.21</ele>
        <time>2013-05-26T14:52:08Z</time>
      </trkpt>
      <trkpt lat="49.17081" lon="1.66408">
        <ele>86.18</ele>
        <time>2013-05-26T14:52:12Z</time>
      </trkpt>
      <trkpt lat="49.17085" lon="1.66407">
        <ele>86.66</ele>
        <time>2013-05-26T14:52:13Z</time>
      </trkpt>
      <trkpt lat="49.17117" lon="1.66406">
        <ele>87.14</ele>
        <time>2013-05-26T14:52:23Z</time>
      </trkpt>
      <trkpt lat="49.1712" lon="1.66407">
        <ele>87.62</ele>
        <time>2013-05-26T14:52:24Z</time>
      </trkpt>
      <trkpt lat="49.17123" lon="1.66407">
        <ele>87.14</ele>
        <time>2013-05-26T14:52:25Z</time>
      </trkpt>
      <trkpt lat="49.17126" lon="1.66406">
        <ele>87.14</ele>
        <time>2013-05-26T14:52:26Z</time>
      </trkpt>
      <trkpt lat="49.17129" lon="1.66407">
        <ele>87.62</ele>
        <time>2013-05-26T14:52:27Z</time>
      </trkpt>
      <trkpt lat="49.17132" lon="1.66407">
        <ele>87.14</ele>
        <time>2013-05-26T14:52:28Z</time>
      </trkpt>
      <trkpt lat="49.17136" lon="1.66407">
        <ele>87.14</ele>
        <time>2013-05-26T14:52:29Z</time>
      </trkpt>
      <trkpt lat="49.17139" lon="1.66407">
        <ele>86.66</ele>
        <time>2013-05-26T14:52:30Z</time>
      </trkpt>
      <trkpt lat="49.17143" lon="1.66408">
        <ele>86.66</ele>
        <time>2013-05-26T14:52:31Z</time>
      </trkpt>
      <trkpt lat="49.1717" lon="1.66411">
        <ele>86.18</ele>
        <time>2013-05-26T14:52:39Z</time>
      </trkpt>
      <trkpt lat="49.17172" lon="1.66412">
        <ele>86.18</ele>
        <time>2013-05-26T14:52:40Z</time>
      </trkpt>
      <trkpt lat="49.17175" lon="1.66412">
        <ele>85.69</ele>
        <time>2013-05-26T14:52:41Z</time>
      </trkpt>
      <trkpt lat="49.17178" lon="1.66412">
        <ele>87.14</ele>
        <time>2013-05-26T14:52:42Z</time>
      </trkpt>
      <trkpt lat="49.17181" lon="1.66412">
        <ele>86.66</ele>
        <time>2013-05-26T14:52:43Z</time>
      </trkpt>
      <trkpt lat="49.17184" lon="1.66412">
        <ele>86.18</ele>
        <time>2013-05-26T14:52:44Z</time>
      </trkpt>
      <trkpt lat="49.17187" lon="1.66413">
        <ele>86.66</ele>
        <time>2013-05-26T14:52:45Z</time>
      </trkpt>
      <trkpt lat="49.17191" lon="1.66414">
        <ele>86.66</ele>
        <time>2013-05-26T14:52:46Z</time>
      </trkpt>
      <trkpt lat="49.17194" lon="1.66415">
        <ele>86.18</ele>
        <time>2013-05-26T14:52:47Z</time>
      </trkpt>
      <trkpt lat="49.17198" lon="1.66416">
        <ele>86.66</ele>
        <time>2013-05-26T14:52:48Z</time>
      </trkpt>
      <trkpt lat="49.17229" lon="1.66425">
        <ele>85.69</ele>
        <time>2013-05-26T14:52:57Z</time>
      </trkpt>
      <trkpt lat="49.17243" lon="1.66432">
        <ele>85.21</ele>
        <time>2013-05-26T14:53:01Z</time>
      </trkpt>
      <trkpt lat="49.17246" lon="1.66434">
        <ele>85.21</ele>
        <time>2013-05-26T14:53:02Z</time>
      </trkpt>
      <trkpt lat="49.1725" lon="1.66436">
        <ele>84.25</ele>
        <time>2013-05-26T14:53:03Z</time>
      </trkpt>
      <trkpt lat="49.17292" lon="1.66447">
        <ele>84.73</ele>
        <time>2013-05-26T14:53:15Z</time>
      </trkpt>
      <trkpt lat="49.17329" lon="1.66453">
        <ele>81.37</ele>
        <time>2013-05-26T14:53:23Z</time>
      </trkpt>
      <trkpt lat="49.17334" lon="1.66453">
        <ele>81.85</ele>
        <time>2013-05-26T14:53:24Z</time>
      </trkpt>
      <trkpt lat="49.17348" lon="1.66453">
        <ele>80.41</ele>
        <time>2013-05-26T14:53:27Z</time>
      </trkpt>
      <trkpt lat="49.17353" lon="1.66453">
        <ele>80.41</ele>
        <time>2013-05-26T14:53:28Z</time>
      </trkpt>
      <trkpt lat="49.17358" lon="1.66452">
        <ele>78.97</ele>
        <time>2013-05-26T14:53:29Z</time>
      </trkpt>
      <trkpt lat="49.17362" lon="1.66452">
        <ele>78.48</ele>
        <time>2013-05-26T14:53:30Z</time>
      </trkpt>
      <trkpt lat="49.17366" lon="1.66452">
        <ele>78.48</ele>
        <time>2013-05-26T14:53:31Z</time>
      </trkpt>
      <trkpt lat="49.17369" lon="1.6645">
        <ele>78.48</ele>
        <time>2013-05-26T14:53:32Z</time>
      </trkpt>
      <trkpt lat="49.17372" lon="1.66448">
        <ele>78.48</ele>
        <time>2013-05-26T14:53:33Z</time>
      </trkpt>
      <trkpt lat="49.17375" lon="1.66444">
        <ele>78.48</ele>
        <time>2013-05-26T14:53:34Z</time>
      </trkpt>
      <trkpt lat="49.17378" lon="1.6644">
        <ele>78</ele>
        <time>2013-05-26T14:53:35Z</time>
      </trkpt>
      <trkpt lat="49.17382" lon="1.66435">
        <ele>78</ele>
        <time>2013-05-26T14:53:36Z</time>
      </trkpt>
      <trkpt lat="49.17417" lon="1.66395">
        <ele>79.93</ele>
        <time>2013-05-26T14:53:46Z</time>
      </trkpt>
      <trkpt lat="49.17422" lon="1.66387">
        <ele>79.93</ele>
        <time>2013-05-26T14:53:49Z</time>
      </trkpt>
      <trkpt lat="49.17449" lon="1.66371">
        <ele>78.97</ele>
        <time>2013-05-26T14:54:00Z</time>
      </trkpt>
      <trkpt lat="49.17471" lon="1.66359">
        <ele>78.97</ele>
        <time>2013-05-26T14:54:15Z</time>
      </trkpt>
      <trkpt lat="49.17482" lon="1.66355">
        <ele>78.48</ele>
        <time>2013-05-26T14:54:33Z</time>
      </trkpt>
      <trkpt lat="49.17486" lon="1.66352">
        <ele>78.48</ele>
        <time>2013-05-26T14:54:37Z</time>
      </trkpt>
      <trkpt lat="49.17488" lon="1.6635">
        <ele>78.48</ele>
        <time>2013-05-26T14:54:38Z</time>
      </trkpt>
      <trkpt lat="49.17494" lon="1.66346">
        <ele>77.52</ele>
        <time>2013-05-26T14:54:41Z</time>
      </trkpt>
      <trkpt lat="49.17496" lon="1.66344">
        <ele>78</ele>
        <time>2013-05-26T14:54:42Z</time>
      </trkpt>
      <trkpt lat="49.17499" lon="1.66343">
        <ele>77.04</ele>
        <time>2013-05-26T14:54:43Z</time>
      </trkpt>
      <trkpt lat="49.17501" lon="1.66342">
        <ele>77.52</ele>
        <time>2013-05-26T14:54:44Z</time>
      </trkpt>
      <trkpt lat="49.17504" lon="1.66341">
        <ele>78</ele>
        <time>2013-05-26T14:54:45Z</time>
      </trkpt>
      <trkpt lat="49.17505" lon="1.6634">
        <ele>78</ele>
        <time>2013-05-26T14:54:46Z</time>
      </trkpt>
      <trkpt lat="49.17507" lon="1.66339">
        <ele>78.48</ele>
        <time>2013-05-26T14:54:47Z</time>
      </trkpt>
      <trkpt lat="49.17509" lon="1.66338">
        <ele>78</ele>
        <time>2013-05-26T14:54:48Z</time>
      </trkpt>
      <trkpt lat="49.17511" lon="1.66337">
        <ele>78.48</ele>
        <time>2013-05-26T14:54:49Z</time>
      </trkpt>
      <trkpt lat="49.17519" lon="1.6633">
        <ele>77.52</ele>
        <time>2013-05-26T14:54:55Z</time>
      </trkpt>
      <trkpt lat="49.17525" lon="1.66322">
        <ele>78</ele>
        <time>2013-05-26T14:55:09Z</time>
      </trkpt>
      <trkpt lat="49.17531" lon="1.66316">
        <ele>78</ele>
        <time>2013-05-26T14:55:28Z</time>
      </trkpt>
      <trkpt lat="49.17536" lon="1.66312">
        <ele>78.48</ele>
        <time>2013-05-26T14:55:31Z</time>
      </trkpt>
      <trkpt lat="49.17541" lon="1.6631">
        <ele>78.48</ele>
        <time>2013-05-26T14:55:33Z</time>
      </trkpt>
      <trkpt lat="49.17543" lon="1.6631">
        <ele>78.97</ele>
        <time>2013-05-26T14:55:34Z</time>
      </trkpt>
      <trkpt lat="49.17545" lon="1.66309">
        <ele>78</ele>
        <time>2013-05-26T14:55:35Z</time>
      </trkpt>
      <trkpt lat="49.17547" lon="1.66308">
        <ele>78.97</ele>
        <time>2013-05-26T14:55:36Z</time>
      </trkpt>
      <trkpt lat="49.17549" lon="1.66307">
        <ele>78</ele>
        <time>2013-05-26T14:55:37Z</time>
      </trkpt>
      <trkpt lat="49.17556" lon="1.66302">
        <ele>78.48</ele>
        <time>2013-05-26T14:55:41Z</time>
      </trkpt>
      <trkpt lat="49.17558" lon="1.66301">
        <ele>78.97</ele>
        <time>2013-05-26T14:55:42Z</time>
      </trkpt>
      <trkpt lat="49.17559" lon="1.663">
        <ele>79.45</ele>
        <time>2013-05-26T14:55:43Z</time>
      </trkpt>
      <trkpt lat="49.17573" lon="1.66289">
        <ele>78.97</ele>
        <time>2013-05-26T14:55:54Z</time>
      </trkpt>
      <trkpt lat="49.17589" lon="1.66273">
        <ele>79.45</ele>
        <time>2013-05-26T14:56:05Z</time>
      </trkpt>
      <trkpt lat="49.17603" lon="1.66264">
        <ele>78.48</ele>
        <time>2013-05-26T14:56:14Z</time>
      </trkpt>
      <trkpt lat="49.17621" lon="1.66248">
        <ele>78.97</ele>
        <time>2013-05-26T14:56:21Z</time>
      </trkpt>
      <trkpt lat="49.17626" lon="1.66245">
        <ele>78.48</ele>
        <time>2013-05-26T14:56:23Z</time>
      </trkpt>
      <trkpt lat="49.17629" lon="1.66244">
        <ele>79.93</ele>
        <time>2013-05-26T14:56:24Z</time>
      </trkpt>
      <trkpt lat="49.17632" lon="1.66242">
        <ele>79.45</ele>
        <time>2013-05-26T14:56:25Z</time>
      </trkpt>
      <trkpt lat="49.1765" lon="1.66225">
        <ele>80.41</ele>
        <time>2013-05-26T14:56:31Z</time>
      </trkpt>
      <trkpt lat="49.17663" lon="1.66216">
        <ele>80.41</ele>
        <time>2013-05-26T14:56:36Z</time>
      </trkpt>
      <trkpt lat="49.17666" lon="1.66213">
        <ele>78.97</ele>
        <time>2013-05-26T14:56:37Z</time>
      </trkpt>
      <trkpt lat="49.17669" lon="1.66209">
        <ele>78.48</ele>
        <time>2013-05-26T14:56:38Z</time>
      </trkpt>
      <trkpt lat="49.17672" lon="1.66205">
        <ele>78.48</ele>
        <time>2013-05-26T14:56:39Z</time>
      </trkpt>
      <trkpt lat="49.17674" lon="1.66201">
        <ele>78.48</ele>
        <time>2013-05-26T14:56:40Z</time>
      </trkpt>
      <trkpt lat="49.17677" lon="1.66197">
        <ele>77.52</ele>
        <time>2013-05-26T14:56:41Z</time>
      </trkpt>
      <trkpt lat="49.1768" lon="1.66194">
        <ele>78</ele>
        <time>2013-05-26T14:56:42Z</time>
      </trkpt>
      <trkpt lat="49.17683" lon="1.66192">
        <ele>77.52</ele>
        <time>2013-05-26T14:56:43Z</time>
      </trkpt>
      <trkpt lat="49.1772" lon="1.66171">
        <ele>77.52</ele>
        <time>2013-05-26T14:56:53Z</time>
      </trkpt>
      <trkpt lat="49.17749" lon="1.66147">
        <ele>78.97</ele>
        <time>2013-05-26T14:57:03Z</time>
      </trkpt>
      <trkpt lat="49.1775" lon="1.66145">
        <ele>79.45</ele>
        <time>2013-05-26T14:57:04Z</time>
      </trkpt>
      <trkpt lat="49.17753" lon="1.66142">
        <ele>78.97</ele>
        <time>2013-05-26T14:57:05Z</time>
      </trkpt>
      <trkpt lat="49.17764" lon="1.66133">
        <ele>78.97</ele>
        <time>2013-05-26T14:57:11Z</time>
      </trkpt>
      <trkpt lat="49.17767" lon="1.66128">
        <ele>79.45</ele>
        <time>2013-05-26T14:57:14Z</time>
      </trkpt>
      <trkpt lat="49.17778" lon="1.66122">
        <ele>76.08</ele>
        <time>2013-05-26T14:57:19Z</time>
      </trkpt>
      <trkpt lat="49.17808" lon="1.66112">
        <ele>75.12</ele>
        <time>2013-05-26T14:57:27Z</time>
      </trkpt>
      <trkpt lat="49.17825" lon="1.66102">
        <ele>75.12</ele>
        <time>2013-05-26T14:57:36Z</time>
      </trkpt>
      <trkpt lat="49.17828" lon="1.66101">
        <ele>75.12</ele>
        <time>2013-05-26T14:57:37Z</time>
      </trkpt>
      <trkpt lat="49.17831" lon="1.66099">
        <ele>74.64</ele>
        <time>2013-05-26T14:57:38Z</time>
      </trkpt>
      <trkpt lat="49.17834" lon="1.66098">
        <ele>75.12</ele>
        <time>2013-05-26T14:57:39Z</time>
      </trkpt>
      <trkpt lat="49.17837" lon="1.66096">
        <ele>74.64</ele>
        <time>2013-05-26T14:57:40Z</time>
      </trkpt>
      <trkpt lat="49.17841" lon="1.66094">
        <ele>74.16</ele>
        <time>2013-05-26T14:57:41Z</time>
      </trkpt>
      <trkpt lat="49.17844" lon="1.66092">
        <ele>74.64</ele>
        <time>2013-05-26T14:57:42Z</time>
      </trkpt>
      <trkpt lat="49.17847" lon="1.6609">
        <ele>73.68</ele>
        <time>2013-05-26T14:57:43Z</time>
      </trkpt>
      <trkpt lat="49.1785" lon="1.66088">
        <ele>74.16</ele>
        <time>2013-05-26T14:57:44Z</time>
      </trkpt>
      <trkpt lat="49.17854" lon="1.66087">
        <ele>74.64</ele>
        <time>2013-05-26T14:57:45Z</time>
      </trkpt>
      <trkpt lat="49.17872" lon="1.6608">
        <ele>73.2</ele>
        <time>2013-05-26T14:57:53Z</time>
      </trkpt>
      <trkpt lat="49.17877" lon="1.66079">
        <ele>72.24</ele>
        <time>2013-05-26T14:57:55Z</time>
      </trkpt>
      <trkpt lat="49.17879" lon="1.66077">
        <ele>73.2</ele>
        <time>2013-05-26T14:57:56Z</time>
      </trkpt>
      <trkpt lat="49.17922" lon="1.6604">
        <ele>72.72</ele>
        <time>2013-05-26T14:58:11Z</time>
      </trkpt>
      <trkpt lat="49.1795" lon="1.66021">
        <ele>72.24</ele>
        <time>2013-05-26T14:58:22Z</time>
      </trkpt>
      <trkpt lat="49.17955" lon="1.66018">
        <ele>71.27</ele>
        <time>2013-05-26T14:58:23Z</time>
      </trkpt>
      <trkpt lat="49.1796" lon="1.66015">
        <ele>71.76</ele>
        <time>2013-05-26T14:58:24Z</time>
      </trkpt>
      <trkpt lat="49.17995" lon="1.65997">
        <ele>70.31</ele>
        <time>2013-05-26T14:58:31Z</time>
      </trkpt>
      <trkpt lat="49.18002" lon="1.65994">
        <ele>69.35</ele>
        <time>2013-05-26T14:58:32Z</time>
      </trkpt>
      <trkpt lat="49.18009" lon="1.65992">
        <ele>68.87</ele>
        <time>2013-05-26T14:58:33Z</time>
      </trkpt>
      <trkpt lat="49.18016" lon="1.65988">
        <ele>68.39</ele>
        <time>2013-05-26T14:58:34Z</time>
      </trkpt>
      <trkpt lat="49.18022" lon="1.65983">
        <ele>67.43</ele>
        <time>2013-05-26T14:58:35Z</time>
      </trkpt>
      <trkpt lat="49.18027" lon="1.65977">
        <ele>66.95</ele>
        <time>2013-05-26T14:58:36Z</time>
      </trkpt>
      <trkpt lat="49.18073" lon="1.65947">
        <ele>66.47</ele>
        <time>2013-05-26T14:58:37Z</time>
      </trkpt>
      <trkpt lat="49.18081" lon="1.65944">
        <ele>66.95</ele>
        <time>2013-05-26T14:58:38Z</time>
      </trkpt>
      <trkpt lat="49.18092" lon="1.65933">
        <ele>67.43</ele>
        <time>2013-05-26T14:58:45Z</time>
      </trkpt>
      <trkpt lat="49.1809" lon="1.65932">
        <ele>66.95</ele>
        <time>2013-05-26T14:59:05Z</time>
      </trkpt>
      <trkpt lat="49.18088" lon="1.65931">
        <ele>65.99</ele>
        <time>2013-05-26T14:59:32Z</time>
      </trkpt>
      <trkpt lat="49.18084" lon="1.65931">
        <ele>66.95</ele>
        <time>2013-05-26T14:59:58Z</time>
      </trkpt>
      <trkpt lat="49.18084" lon="1.65931">
        <ele>67.91</ele>
        <time>2013-05-26T15:00:21Z</time>
      </trkpt>
      <trkpt lat="49.18088" lon="1.65932">
        <ele>65.99</ele>
        <time>2013-05-26T15:00:36Z</time>
      </trkpt>
      <trkpt lat="49.18091" lon="1.65933">
        <ele>64.55</ele>
        <time>2013-05-26T15:00:38Z</time>
      </trkpt>
      <trkpt lat="49.18103" lon="1.65937">
        <ele>61.18</ele>
        <time>2013-05-26T15:00:43Z</time>
      </trkpt>
      <trkpt lat="49.18106" lon="1.65937">
        <ele>61.18</ele>
        <time>2013-05-26T15:00:44Z</time>
      </trkpt>
      <trkpt lat="49.18112" lon="1.65937">
        <ele>59.74</ele>
        <time>2013-05-26T15:00:46Z</time>
      </trkpt>
      <trkpt lat="49.18132" lon="1.65935">
        <ele>56.37</ele>
        <time>2013-05-26T15:00:52Z</time>
      </trkpt>
      <trkpt lat="49.18141" lon="1.65931">
        <ele>54.93</ele>
        <time>2013-05-26T15:00:54Z</time>
      </trkpt>
      <trkpt lat="49.18154" lon="1.65928">
        <ele>53.49</ele>
        <time>2013-05-26T15:00:56Z</time>
      </trkpt>
      <trkpt lat="49.1816" lon="1.65928">
        <ele>52.53</ele>
        <time>2013-05-26T15:00:57Z</time>
      </trkpt>
      <trkpt lat="49.18167" lon="1.65929">
        <ele>52.05</ele>
        <time>2013-05-26T15:00:58Z</time>
      </trkpt>
      <trkpt lat="49.18175" lon="1.6593">
        <ele>51.57</ele>
        <time>2013-05-26T15:00:59Z</time>
      </trkpt>
      <trkpt lat="49.18183" lon="1.65931">
        <ele>50.13</ele>
        <time>2013-05-26T15:01:00Z</time>
      </trkpt>
      <trkpt lat="49.18191" lon="1.65933">
        <ele>49.16</ele>
        <time>2013-05-26T15:01:01Z</time>
      </trkpt>
      <trkpt lat="49.18203" lon="1.65936">
        <ele>48.2</ele>
        <time>2013-05-26T15:01:03Z</time>
      </trkpt>
      <trkpt lat="49.18208" lon="1.65935">
        <ele>47.72</ele>
        <time>2013-05-26T15:01:04Z</time>
      </trkpt>
      <trkpt lat="49.18213" lon="1.65935">
        <ele>47.24</ele>
        <time>2013-05-26T15:01:05Z</time>
      </trkpt>
      <trkpt lat="49.18217" lon="1.65933">
        <ele>47.24</ele>
        <time>2013-05-26T15:01:06Z</time>
      </trkpt>
      <trkpt lat="49.1822" lon="1.65929">
        <ele>45.8</ele>
        <time>2013-05-26T15:01:07Z</time>
      </trkpt>
      <trkpt lat="49.18242" lon="1.65921">
        <ele>44.84</ele>
        <time>2013-05-26T15:01:13Z</time>
      </trkpt>
      <trkpt lat="49.18246" lon="1.65924">
        <ele>43.88</ele>
        <time>2013-05-26T15:01:14Z</time>
      </trkpt>
      <trkpt lat="49.18249" lon="1.65929">
        <ele>43.88</ele>
        <time>2013-05-26T15:01:15Z</time>
      </trkpt>
      <trkpt lat="49.18285" lon="1.65987">
        <ele>40.99</ele>
        <time>2013-05-26T15:01:24Z</time>
      </trkpt>
      <trkpt lat="49.18299" lon="1.66004">
        <ele>39.55</ele>
        <time>2013-05-26T15:01:27Z</time>
      </trkpt>
      <trkpt lat="49.18303" lon="1.66013">
        <ele>39.55</ele>
        <time>2013-05-26T15:01:28Z</time>
      </trkpt>
      <trkpt lat="49.18306" lon="1.66022">
        <ele>38.11</ele>
        <time>2013-05-26T15:01:29Z</time>
      </trkpt>
      <trkpt lat="49.18309" lon="1.66033">
        <ele>38.11</ele>
        <time>2013-05-26T15:01:30Z</time>
      </trkpt>
      <trkpt lat="49.18312" lon="1.66044">
        <ele>36.67</ele>
        <time>2013-05-26T15:01:31Z</time>
      </trkpt>
      <trkpt lat="49.18314" lon="1.66056">
        <ele>37.15</ele>
        <time>2013-05-26T15:01:32Z</time>
      </trkpt>
      <trkpt lat="49.18316" lon="1.66069">
        <ele>36.19</ele>
        <time>2013-05-26T15:01:33Z</time>
      </trkpt>
      <trkpt lat="49.18317" lon="1.66081">
        <ele>36.19</ele>
        <time>2013-05-26T15:01:34Z</time>
      </trkpt>
      <trkpt lat="49.18322" lon="1.6615">
        <ele>34.26</ele>
        <time>2013-05-26T15:01:43Z</time>
      </trkpt>
      <trkpt lat="49.18324" lon="1.66151">
        <ele>35.23</ele>
        <time>2013-05-26T15:01:44Z</time>
      </trkpt>
      <trkpt lat="49.18327" lon="1.66152">
        <ele>34.26</ele>
        <time>2013-05-26T15:01:45Z</time>
      </trkpt>
      <trkpt lat="49.18331" lon="1.66152">
        <ele>35.23</ele>
        <time>2013-05-26T15:01:46Z</time>
      </trkpt>
      <trkpt lat="49.18334" lon="1.66153">
        <ele>34.74</ele>
        <time>2013-05-26T15:01:47Z</time>
      </trkpt>
      <trkpt lat="49.18337" lon="1.66157">
        <ele>35.23</ele>
        <time>2013-05-26T15:01:48Z</time>
      </trkpt>
      <trkpt lat="49.18338" lon="1.66163">
        <ele>33.78</ele>
        <time>2013-05-26T15:01:49Z</time>
      </trkpt>
      <trkpt lat="49.18339" lon="1.6617">
        <ele>34.74</ele>
        <time>2013-05-26T15:01:50Z</time>
      </trkpt>
      <trkpt lat="49.18339" lon="1.66177">
        <ele>33.3</ele>
        <time>2013-05-26T15:01:51Z</time>
      </trkpt>
      <trkpt lat="49.18337" lon="1.66287">
        <ele>33.3</ele>
        <time>2013-05-26T15:02:06Z</time>
      </trkpt>
      <trkpt lat="49.18335" lon="1.66385">
        <ele>31.38</ele>
        <time>2013-05-26T15:02:21Z</time>
      </trkpt>
      <trkpt lat="49.18337" lon="1.66387">
        <ele>31.86</ele>
        <time>2013-05-26T15:02:22Z</time>
      </trkpt>
      <trkpt lat="49.1834" lon="1.66388">
        <ele>31.86</ele>
        <time>2013-05-26T15:02:23Z</time>
      </trkpt>
      <trkpt lat="49.18354" lon="1.66388">
        <ele>31.86</ele>
        <time>2013-05-26T15:02:27Z</time>
      </trkpt>
      <trkpt lat="49.18436" lon="1.66389">
        <ele>31.38</ele>
        <time>2013-05-26T15:02:44Z</time>
      </trkpt>
      <trkpt lat="49.18514" lon="1.66392">
        <ele>32.34</ele>
        <time>2013-05-26T15:03:00Z</time>
      </trkpt>
      <trkpt lat="49.18588" lon="1.66401">
        <ele>31.86</ele>
        <time>2013-05-26T15:03:15Z</time>
      </trkpt>
      <trkpt lat="49.18617" lon="1.66406">
        <ele>31.38</ele>
        <time>2013-05-26T15:03:21Z</time>
      </trkpt>
      <trkpt lat="49.18622" lon="1.66407">
        <ele>30.42</ele>
        <time>2013-05-26T15:03:22Z</time>
      </trkpt>
      <trkpt lat="49.18692" lon="1.66417">
        <ele>32.34</ele>
        <time>2013-05-26T15:03:37Z</time>
      </trkpt>
      <trkpt lat="49.18771" lon="1.66431">
        <ele>31.86</ele>
        <time>2013-05-26T15:03:53Z</time>
      </trkpt>
      <trkpt lat="49.1886" lon="1.6644">
        <ele>32.82</ele>
        <time>2013-05-26T15:04:11Z</time>
      </trkpt>
      <trkpt lat="49.18941" lon="1.66453">
        <ele>32.82</ele>
        <time>2013-05-26T15:04:29Z</time>
      </trkpt>
      <trkpt lat="49.19022" lon="1.66464">
        <ele>33.78</ele>
        <time>2013-05-26T15:04:46Z</time>
      </trkpt>
      <trkpt lat="49.19107" lon="1.66476">
        <ele>34.26</ele>
        <time>2013-05-26T15:05:04Z</time>
      </trkpt>
      <trkpt lat="49.19182" lon="1.66487">
        <ele>34.26</ele>
        <time>2013-05-26T15:05:19Z</time>
      </trkpt>
      <trkpt lat="49.19264" lon="1.66499">
        <ele>34.74</ele>
        <time>2013-05-26T15:05:36Z</time>
      </trkpt>
      <trkpt lat="49.1933" lon="1.66509">
        <ele>35.23</ele>
        <time>2013-05-26T15:05:49Z</time>
      </trkpt>
      <trkpt lat="49.19384" lon="1.66515">
        <ele>34.74</ele>
        <time>2013-05-26T15:06:00Z</time>
      </trkpt>
      <trkpt lat="49.19416" lon="1.6652">
        <ele>35.23</ele>
        <time>2013-05-26T15:06:07Z</time>
      </trkpt>
      <trkpt lat="49.19431" lon="1.66523">
        <ele>34.74</ele>
        <time>2013-05-26T15:06:10Z</time>
      </trkpt>
      <trkpt lat="49.19435" lon="1.66523">
        <ele>35.23</ele>
        <time>2013-05-26T15:06:11Z</time>
      </trkpt>
      <trkpt lat="49.19461" lon="1.66529">
        <ele>34.74</ele>
        <time>2013-05-26T15:06:16Z</time>
      </trkpt>
      <trkpt lat="49.19525" lon="1.66539">
        <ele>33.78</ele>
        <time>2013-05-26T15:06:28Z</time>
      </trkpt>
      <trkpt lat="49.19605" lon="1.66553">
        <ele>34.26</ele>
        <time>2013-05-26T15:06:42Z</time>
      </trkpt>
      <trkpt lat="49.19651" lon="1.66565">
        <ele>35.23</ele>
        <time>2013-05-26T15:06:50Z</time>
      </trkpt>
      <trkpt lat="49.19657" lon="1.66567">
        <ele>34.74</ele>
        <time>2013-05-26T15:06:51Z</time>
      </trkpt>
      <trkpt lat="49.19663" lon="1.66569">
        <ele>33.78</ele>
        <time>2013-05-26T15:06:52Z</time>
      </trkpt>
      <trkpt lat="49.19741" lon="1.6659">
        <ele>36.67</ele>
        <time>2013-05-26T15:07:06Z</time>
      </trkpt>
      <trkpt lat="49.19819" lon="1.66611">
        <ele>35.23</ele>
        <time>2013-05-26T15:07:20Z</time>
      </trkpt>
      <trkpt lat="49.19902" lon="1.66636">
        <ele>35.23</ele>
        <time>2013-05-26T15:07:35Z</time>
      </trkpt>
      <trkpt lat="49.19974" lon="1.66655">
        <ele>34.74</ele>
        <time>2013-05-26T15:07:48Z</time>
      </trkpt>
      <trkpt lat="49.20051" lon="1.66678">
        <ele>33.78</ele>
        <time>2013-05-26T15:08:02Z</time>
      </trkpt>
      <trkpt lat="49.20142" lon="1.66703">
        <ele>34.74</ele>
        <time>2013-05-26T15:08:18Z</time>
      </trkpt>
      <trkpt lat="49.20242" lon="1.66732">
        <ele>35.23</ele>
        <time>2013-05-26T15:08:36Z</time>
      </trkpt>
      <trkpt lat="49.20324" lon="1.66755">
        <ele>33.78</ele>
        <time>2013-05-26T15:08:50Z</time>
      </trkpt>
      <trkpt lat="49.20336" lon="1.66758">
        <ele>34.26</ele>
        <time>2013-05-26T15:08:52Z</time>
      </trkpt>
      <trkpt lat="49.20342" lon="1.6676">
        <ele>33.78</ele>
        <time>2013-05-26T15:08:53Z</time>
      </trkpt>
      <trkpt lat="49.20347" lon="1.66762">
        <ele>33.78</ele>
        <time>2013-05-26T15:08:54Z</time>
      </trkpt>
      <trkpt lat="49.20352" lon="1.66764">
        <ele>33.78</ele>
        <time>2013-05-26T15:08:55Z</time>
      </trkpt>
      <trkpt lat="49.20358" lon="1.66766">
        <ele>33.3</ele>
        <time>2013-05-26T15:08:56Z</time>
      </trkpt>
      <trkpt lat="49.20426" lon="1.66787">
        <ele>33.78</ele>
        <time>2013-05-26T15:09:07Z</time>
      </trkpt>
      <trkpt lat="49.20503" lon="1.66809">
        <ele>33.3</ele>
        <time>2013-05-26T15:09:18Z</time>
      </trkpt>
      <trkpt lat="49.20609" lon="1.66837">
        <ele>34.26</ele>
        <time>2013-05-26T15:09:32Z</time>
      </trkpt>
      <trkpt lat="49.20678" lon="1.66861">
        <ele>34.74</ele>
        <time>2013-05-26T15:09:44Z</time>
      </trkpt>
      <trkpt lat="49.20684" lon="1.66863">
        <ele>35.23</ele>
        <time>2013-05-26T15:09:45Z</time>
      </trkpt>
      <trkpt lat="49.20747" lon="1.66876">
        <ele>35.71</ele>
        <time>2013-05-26T15:09:58Z</time>
      </trkpt>
      <trkpt lat="49.20755" lon="1.66876">
        <ele>35.71</ele>
        <time>2013-05-26T15:10:02Z</time>
      </trkpt>
      <trkpt lat="49.20766" lon="1.6688">
        <ele>36.19</ele>
        <time>2013-05-26T15:10:15Z</time>
      </trkpt>
      <trkpt lat="49.20767" lon="1.6688">
        <ele>35.71</ele>
        <time>2013-05-26T15:10:34Z</time>
      </trkpt>
      <trkpt lat="49.20767" lon="1.6688">
        <ele>35.71</ele>
        <time>2013-05-26T15:11:01Z</time>
      </trkpt>
      <trkpt lat="49.20767" lon="1.6688">
        <ele>35.71</ele>
        <time>2013-05-26T15:11:28Z</time>
      </trkpt>
      <trkpt lat="49.20766" lon="1.66881">
        <ele>36.67</ele>
        <time>2013-05-26T15:12:01Z</time>
      </trkpt>
      <trkpt lat="49.20767" lon="1.66884">
        <ele>36.67</ele>
        <time>2013-05-26T15:12:02Z</time>
      </trkpt>
      <trkpt lat="49.20767" lon="1.66886">
        <ele>35.23</ele>
        <time>2013-05-26T15:12:03Z</time>
      </trkpt>
      <trkpt lat="49.20766" lon="1.6689">
        <ele>35.71</ele>
        <time>2013-05-26T15:12:04Z</time>
      </trkpt>
      <trkpt lat="49.20765" lon="1.66893">
        <ele>35.71</ele>
        <time>2013-05-26T15:12:05Z</time>
      </trkpt>
      <trkpt lat="49.20764" lon="1.66898">
        <ele>35.71</ele>
        <time>2013-05-26T15:12:06Z</time>
      </trkpt>
      <trkpt lat="49.20759" lon="1.66914">
        <ele>35.71</ele>
        <time>2013-05-26T15:12:09Z</time>
      </trkpt>
      <trkpt lat="49.20757" lon="1.6692">
        <ele>35.71</ele>
        <time>2013-05-26T15:12:10Z</time>
      </trkpt>
      <trkpt lat="49.20754" lon="1.66925">
        <ele>35.71</ele>
        <time>2013-05-26T15:12:11Z</time>
      </trkpt>
      <trkpt lat="49.20751" lon="1.6693">
        <ele>35.23</ele>
        <time>2013-05-26T15:12:12Z</time>
      </trkpt>
      <trkpt lat="49.20748" lon="1.66934">
        <ele>35.23</ele>
        <time>2013-05-26T15:12:13Z</time>
      </trkpt>
      <trkpt lat="49.20711" lon="1.6699">
        <ele>38.11</ele>
        <time>2013-05-26T15:12:25Z</time>
      </trkpt>
      <trkpt lat="49.20655" lon="1.67073">
        <ele>35.23</ele>
        <time>2013-05-26T15:12:40Z</time>
      </trkpt>
      <trkpt lat="49.20584" lon="1.67179">
        <ele>35.23</ele>
        <time>2013-05-26T15:12:57Z</time>
      </trkpt>
      <trkpt lat="49.20507" lon="1.67292">
        <ele>35.71</ele>
        <time>2013-05-26T15:13:14Z</time>
      </trkpt>
      <trkpt lat="49.20411" lon="1.67433">
        <ele>35.23</ele>
        <time>2013-05-26T15:13:36Z</time>
      </trkpt>
      <trkpt lat="49.20382" lon="1.6748">
        <ele>35.23</ele>
        <time>2013-05-26T15:13:43Z</time>
      </trkpt>
      <trkpt lat="49.20379" lon="1.67488">
        <ele>34.74</ele>
        <time>2013-05-26T15:13:44Z</time>
      </trkpt>
      <trkpt lat="49.20376" lon="1.67497">
        <ele>35.23</ele>
        <time>2013-05-26T15:13:45Z</time>
      </trkpt>
      <trkpt lat="49.20367" lon="1.67532">
        <ele>35.71</ele>
        <time>2013-05-26T15:13:49Z</time>
      </trkpt>
      <trkpt lat="49.20366" lon="1.67541">
        <ele>34.74</ele>
        <time>2013-05-26T15:13:50Z</time>
      </trkpt>
      <trkpt lat="49.20365" lon="1.67551">
        <ele>35.71</ele>
        <time>2013-05-26T15:13:51Z</time>
      </trkpt>
      <trkpt lat="49.20368" lon="1.67608">
        <ele>35.71</ele>
        <time>2013-05-26T15:13:57Z</time>
      </trkpt>
      <trkpt lat="49.2037" lon="1.67617">
        <ele>34.74</ele>
        <time>2013-05-26T15:13:58Z</time>
      </trkpt>
      <trkpt lat="49.20385" lon="1.67659">
        <ele>34.26</ele>
        <time>2013-05-26T15:14:03Z</time>
      </trkpt>
      <trkpt lat="49.20389" lon="1.67667">
        <ele>34.26</ele>
        <time>2013-05-26T15:14:04Z</time>
      </trkpt>
      <trkpt lat="49.20394" lon="1.67673">
        <ele>34.26</ele>
        <time>2013-05-26T15:14:05Z</time>
      </trkpt>
      <trkpt lat="49.20399" lon="1.67679">
        <ele>33.78</ele>
        <time>2013-05-26T15:14:06Z</time>
      </trkpt>
      <trkpt lat="49.20405" lon="1.67685">
        <ele>33.3</ele>
        <time>2013-05-26T15:14:07Z</time>
      </trkpt>
      <trkpt lat="49.20411" lon="1.6769">
        <ele>33.78</ele>
        <time>2013-05-26T15:14:08Z</time>
      </trkpt>
      <trkpt lat="49.20481" lon="1.6776">
        <ele>35.23</ele>
        <time>2013-05-26T15:14:21Z</time>
      </trkpt>
      <trkpt lat="49.20503" lon="1.67797">
        <ele>35.71</ele>
        <time>2013-05-26T15:14:27Z</time>
      </trkpt>
      <trkpt lat="49.20523" lon="1.67815">
        <ele>37.15</ele>
        <time>2013-05-26T15:14:32Z</time>
      </trkpt>
      <trkpt lat="49.20595" lon="1.67844">
        <ele>35.71</ele>
        <time>2013-05-26T15:14:46Z</time>
      </trkpt>
      <trkpt lat="49.206" lon="1.67846">
        <ele>34.26</ele>
        <time>2013-05-26T15:14:47Z</time>
      </trkpt>
      <trkpt lat="49.2065" lon="1.6787">
        <ele>35.71</ele>
        <time>2013-05-26T15:14:56Z</time>
      </trkpt>
      <trkpt lat="49.20661" lon="1.6788">
        <ele>36.19</ele>
        <time>2013-05-26T15:14:58Z</time>
      </trkpt>
      <trkpt lat="49.20669" lon="1.67893">
        <ele>36.19</ele>
        <time>2013-05-26T15:15:00Z</time>
      </trkpt>
      <trkpt lat="49.20671" lon="1.67901">
        <ele>35.71</ele>
        <time>2013-05-26T15:15:01Z</time>
      </trkpt>
      <trkpt lat="49.20673" lon="1.67916">
        <ele>36.67</ele>
        <time>2013-05-26T15:15:03Z</time>
      </trkpt>
      <trkpt lat="49.20675" lon="1.67923">
        <ele>37.15</ele>
        <time>2013-05-26T15:15:04Z</time>
      </trkpt>
      <trkpt lat="49.20678" lon="1.67943">
        <ele>38.11</ele>
        <time>2013-05-26T15:15:07Z</time>
      </trkpt>
      <trkpt lat="49.20696" lon="1.67997">
        <ele>40.51</ele>
        <time>2013-05-26T15:15:18Z</time>
      </trkpt>
      <trkpt lat="49.20721" lon="1.6804">
        <ele>42.44</ele>
        <time>2013-05-26T15:15:30Z</time>
      </trkpt>
      <trkpt lat="49.20749" lon="1.68062">
        <ele>39.07</ele>
        <time>2013-05-26T15:15:37Z</time>
      </trkpt>
      <trkpt lat="49.20754" lon="1.68067">
        <ele>39.55</ele>
        <time>2013-05-26T15:15:38Z</time>
      </trkpt>
      <trkpt lat="49.20758" lon="1.68072">
        <ele>39.55</ele>
        <time>2013-05-26T15:15:39Z</time>
      </trkpt>
      <trkpt lat="49.20762" lon="1.68079">
        <ele>38.59</ele>
        <time>2013-05-26T15:15:40Z</time>
      </trkpt>
      <trkpt lat="49.20766" lon="1.68086">
        <ele>38.59</ele>
        <time>2013-05-26T15:15:41Z</time>
      </trkpt>
      <trkpt lat="49.2077" lon="1.68094">
        <ele>39.07</ele>
        <time>2013-05-26T15:15:42Z</time>
      </trkpt>
      <trkpt lat="49.208" lon="1.68158">
        <ele>36.19</ele>
        <time>2013-05-26T15:15:50Z</time>
      </trkpt>
      <trkpt lat="49.20804" lon="1.68165">
        <ele>37.15</ele>
        <time>2013-05-26T15:15:51Z</time>
      </trkpt>
      <trkpt lat="49.20814" lon="1.68176">
        <ele>37.63</ele>
        <time>2013-05-26T15:15:53Z</time>
      </trkpt>
      <trkpt lat="49.20874" lon="1.68255">
        <ele>38.11</ele>
        <time>2013-05-26T15:16:06Z</time>
      </trkpt>
      <trkpt lat="49.20944" lon="1.68365">
        <ele>37.63</ele>
        <time>2013-05-26T15:16:24Z</time>
      </trkpt>
      <trkpt lat="49.20959" lon="1.68399">
        <ele>38.11</ele>
        <time>2013-05-26T15:16:29Z</time>
      </trkpt>
      <trkpt lat="49.20969" lon="1.68426">
        <ele>40.03</ele>
        <time>2013-05-26T15:16:33Z</time>
      </trkpt>
      <trkpt lat="49.20976" lon="1.68441">
        <ele>41.47</ele>
        <time>2013-05-26T15:16:36Z</time>
      </trkpt>
      <trkpt lat="49.21006" lon="1.68507">
        <ele>44.36</ele>
        <time>2013-05-26T15:16:50Z</time>
      </trkpt>
      <trkpt lat="49.21054" lon="1.68579">
        <ele>45.8</ele>
        <time>2013-05-26T15:17:08Z</time>
      </trkpt>
      <trkpt lat="49.21098" lon="1.68641">
        <ele>47.24</ele>
        <time>2013-05-26T15:17:25Z</time>
      </trkpt>
      <trkpt lat="49.21102" lon="1.68646">
        <ele>47.72</ele>
        <time>2013-05-26T15:17:36Z</time>
      </trkpt>
      <trkpt lat="49.21101" lon="1.68646">
        <ele>47.24</ele>
        <time>2013-05-26T15:17:38Z</time>
      </trkpt>
      <trkpt lat="49.211" lon="1.68647">
        <ele>47.24</ele>
        <time>2013-05-26T15:17:39Z</time>
      </trkpt>
      <trkpt lat="49.21098" lon="1.68648">
        <ele>47.24</ele>
        <time>2013-05-26T15:17:40Z</time>
      </trkpt>
      <trkpt lat="49.21067" lon="1.68671">
        <ele>45.8</ele>
        <time>2013-05-26T15:17:51Z</time>
      </trkpt>
      <trkpt lat="49.21029" lon="1.68673">
        <ele>42.92</ele>
        <time>2013-05-26T15:17:57Z</time>
      </trkpt>
      <trkpt lat="49.21022" lon="1.6867">
        <ele>41.47</ele>
        <time>2013-05-26T15:17:58Z</time>
      </trkpt>
      <trkpt lat="49.21015" lon="1.68668">
        <ele>40.99</ele>
        <time>2013-05-26T15:17:59Z</time>
      </trkpt>
      <trkpt lat="49.20975" lon="1.68655">
        <ele>40.03</ele>
        <time>2013-05-26T15:18:04Z</time>
      </trkpt>
      <trkpt lat="49.20966" lon="1.68655">
        <ele>38.59</ele>
        <time>2013-05-26T15:18:05Z</time>
      </trkpt>
      <trkpt lat="49.20957" lon="1.68656">
        <ele>39.07</ele>
        <time>2013-05-26T15:18:06Z</time>
      </trkpt>
      <trkpt lat="49.20861" lon="1.68703">
        <ele>39.07</ele>
        <time>2013-05-26T15:18:19Z</time>
      </trkpt>
      <trkpt lat="49.20801" lon="1.68785">
        <ele>40.03</ele>
        <time>2013-05-26T15:18:31Z</time>
      </trkpt>
      <trkpt lat="49.20784" lon="1.68815">
        <ele>40.03</ele>
        <time>2013-05-26T15:18:35Z</time>
      </trkpt>
      <trkpt lat="49.20781" lon="1.68823">
        <ele>39.55</ele>
        <time>2013-05-26T15:18:36Z</time>
      </trkpt>
      <trkpt lat="49.20778" lon="1.68831">
        <ele>40.03</ele>
        <time>2013-05-26T15:18:37Z</time>
      </trkpt>
      <trkpt lat="49.20776" lon="1.6884">
        <ele>40.03</ele>
        <time>2013-05-26T15:18:38Z</time>
      </trkpt>
      <trkpt lat="49.20774" lon="1.6885">
        <ele>39.55</ele>
        <time>2013-05-26T15:18:39Z</time>
      </trkpt>
      <trkpt lat="49.20774" lon="1.68859">
        <ele>40.99</ele>
        <time>2013-05-26T15:18:40Z</time>
      </trkpt>
      <trkpt lat="49.20773" lon="1.68868">
        <ele>39.55</ele>
        <time>2013-05-26T15:18:41Z</time>
      </trkpt>
      <trkpt lat="49.20773" lon="1.68878">
        <ele>40.03</ele>
        <time>2013-05-26T15:18:42Z</time>
      </trkpt>
      <trkpt lat="49.20782" lon="1.69038">
        <ele>40.51</ele>
        <time>2013-05-26T15:19:00Z</time>
      </trkpt>
      <trkpt lat="49.20778" lon="1.69139">
        <ele>43.88</ele>
        <time>2013-05-26T15:19:13Z</time>
      </trkpt>
      <trkpt lat="49.20775" lon="1.69197">
        <ele>47.24</ele>
        <time>2013-05-26T15:19:24Z</time>
      </trkpt>
      <trkpt lat="49.20774" lon="1.692">
        <ele>47.24</ele>
        <time>2013-05-26T15:19:25Z</time>
      </trkpt>
      <trkpt lat="49.20764" lon="1.69236">
        <ele>50.13</ele>
        <time>2013-05-26T15:19:38Z</time>
      </trkpt>
      <trkpt lat="49.20757" lon="1.69268">
        <ele>53.49</ele>
        <time>2013-05-26T15:19:51Z</time>
      </trkpt>
      <trkpt lat="49.20756" lon="1.69271">
        <ele>53.97</ele>
        <time>2013-05-26T15:19:52Z</time>
      </trkpt>
      <trkpt lat="49.20752" lon="1.69304">
        <ele>57.34</ele>
        <time>2013-05-26T15:20:05Z</time>
      </trkpt>
      <trkpt lat="49.20751" lon="1.69335">
        <ele>60.22</ele>
        <time>2013-05-26T15:20:18Z</time>
      </trkpt>
      <trkpt lat="49.2075" lon="1.69377">
        <ele>63.1</ele>
        <time>2013-05-26T15:20:34Z</time>
      </trkpt>
      <trkpt lat="49.2075" lon="1.6938">
        <ele>63.58</ele>
        <time>2013-05-26T15:20:35Z</time>
      </trkpt>
      <trkpt lat="49.2075" lon="1.69382">
        <ele>63.58</ele>
        <time>2013-05-26T15:20:36Z</time>
      </trkpt>
      <trkpt lat="49.2075" lon="1.69385">
        <ele>63.58</ele>
        <time>2013-05-26T15:20:37Z</time>
      </trkpt>
      <trkpt lat="49.2075" lon="1.69387">
        <ele>63.58</ele>
        <time>2013-05-26T15:20:38Z</time>
      </trkpt>
      <trkpt lat="49.2075" lon="1.69389">
        <ele>64.07</ele>
        <time>2013-05-26T15:20:39Z</time>
      </trkpt>
      <trkpt lat="49.2075" lon="1.69392">
        <ele>64.55</ele>
        <time>2013-05-26T15:20:40Z</time>
      </trkpt>
      <trkpt lat="49.20751" lon="1.69395">
        <ele>64.07</ele>
        <time>2013-05-26T15:20:41Z</time>
      </trkpt>
      <trkpt lat="49.20758" lon="1.69435">
        <ele>65.99</ele>
        <time>2013-05-26T15:20:56Z</time>
      </trkpt>
      <trkpt lat="49.20768" lon="1.69474">
        <ele>68.39</ele>
        <time>2013-05-26T15:21:10Z</time>
      </trkpt>
      <trkpt lat="49.20787" lon="1.6952">
        <ele>71.76</ele>
        <time>2013-05-26T15:21:28Z</time>
      </trkpt>
      <trkpt lat="49.20805" lon="1.69559">
        <ele>74.64</ele>
        <time>2013-05-26T15:21:41Z</time>
      </trkpt>
      <trkpt lat="49.20819" lon="1.69598">
        <ele>77.04</ele>
        <time>2013-05-26T15:21:51Z</time>
      </trkpt>
      <trkpt lat="49.20836" lon="1.69653">
        <ele>79.93</ele>
        <time>2013-05-26T15:22:04Z</time>
      </trkpt>
      <trkpt lat="49.20852" lon="1.69711">
        <ele>82.81</ele>
        <time>2013-05-26T15:22:16Z</time>
      </trkpt>
      <trkpt lat="49.20868" lon="1.69767">
        <ele>85.69</ele>
        <time>2013-05-26T15:22:28Z</time>
      </trkpt>
      <trkpt lat="49.20879" lon="1.69809">
        <ele>89.06</ele>
        <time>2013-05-26T15:22:40Z</time>
      </trkpt>
      <trkpt lat="49.20894" lon="1.69854">
        <ele>92.42</ele>
        <time>2013-05-26T15:22:56Z</time>
      </trkpt>
      <trkpt lat="49.20905" lon="1.69892">
        <ele>94.83</ele>
        <time>2013-05-26T15:23:10Z</time>
      </trkpt>
      <trkpt lat="49.20916" lon="1.6993">
        <ele>98.19</ele>
        <time>2013-05-26T15:23:23Z</time>
      </trkpt>
      <trkpt lat="49.2093" lon="1.69961">
        <ele>101.08</ele>
        <time>2013-05-26T15:23:35Z</time>
      </trkpt>
      <trkpt lat="49.20948" lon="1.69993">
        <ele>103.48</ele>
        <time>2013-05-26T15:23:49Z</time>
      </trkpt>
      <trkpt lat="49.20976" lon="1.70037">
        <ele>106.36</ele>
        <time>2013-05-26T15:24:06Z</time>
      </trkpt>
      <trkpt lat="49.21009" lon="1.70078">
        <ele>107.32</ele>
        <time>2013-05-26T15:24:19Z</time>
      </trkpt>
      <trkpt lat="49.21013" lon="1.70089">
        <ele>106.84</ele>
        <time>2013-05-26T15:24:21Z</time>
      </trkpt>
      <trkpt lat="49.21015" lon="1.70095">
        <ele>106.36</ele>
        <time>2013-05-26T15:24:22Z</time>
      </trkpt>
      <trkpt lat="49.21049" lon="1.70195">
        <ele>106.84</ele>
        <time>2013-05-26T15:24:37Z</time>
      </trkpt>
      <trkpt lat="49.21063" lon="1.70236">
        <ele>108.29</ele>
        <time>2013-05-26T15:24:44Z</time>
      </trkpt>
      <trkpt lat="49.21067" lon="1.7024">
        <ele>108.29</ele>
        <time>2013-05-26T15:24:45Z</time>
      </trkpt>
      <trkpt lat="49.21072" lon="1.70242">
        <ele>107.81</ele>
        <time>2013-05-26T15:24:46Z</time>
      </trkpt>
      <trkpt lat="49.21076" lon="1.70243">
        <ele>107.81</ele>
        <time>2013-05-26T15:24:47Z</time>
      </trkpt>
      <trkpt lat="49.21081" lon="1.70243">
        <ele>107.81</ele>
        <time>2013-05-26T15:24:48Z</time>
      </trkpt>
      <trkpt lat="49.21085" lon="1.70242">
        <ele>108.29</ele>
        <time>2013-05-26T15:24:49Z</time>
      </trkpt>
      <trkpt lat="49.2109" lon="1.70241">
        <ele>107.81</ele>
        <time>2013-05-26T15:24:50Z</time>
      </trkpt>
      <trkpt lat="49.21094" lon="1.70239">
        <ele>107.81</ele>
        <time>2013-05-26T15:24:51Z</time>
      </trkpt>
      <trkpt lat="49.21172" lon="1.70211">
        <ele>108.29</ele>
        <time>2013-05-26T15:25:07Z</time>
      </trkpt>
      <trkpt lat="49.21203" lon="1.70194">
        <ele>109.25</ele>
        <time>2013-05-26T15:25:13Z</time>
      </trkpt>
      <trkpt lat="49.21208" lon="1.70189">
        <ele>108.29</ele>
        <time>2013-05-26T15:25:14Z</time>
      </trkpt>
      <trkpt lat="49.21213" lon="1.70184">
        <ele>108.29</ele>
        <time>2013-05-26T15:25:15Z</time>
      </trkpt>
      <trkpt lat="49.21282" lon="1.70089">
        <ele>110.21</ele>
        <time>2013-05-26T15:25:31Z</time>
      </trkpt>
      <trkpt lat="49.21353" lon="1.69989">
        <ele>110.21</ele>
        <time>2013-05-26T15:25:49Z</time>
      </trkpt>
      <trkpt lat="49.21419" lon="1.69896">
        <ele>110.21</ele>
        <time>2013-05-26T15:26:09Z</time>
      </trkpt>
      <trkpt lat="49.2142" lon="1.69886">
        <ele>110.21</ele>
        <time>2013-05-26T15:26:21Z</time>
      </trkpt>
      <trkpt lat="49.21419" lon="1.69883">
        <ele>109.73</ele>
        <time>2013-05-26T15:26:34Z</time>
      </trkpt>
      <trkpt lat="49.21418" lon="1.69883">
        <ele>109.73</ele>
        <time>2013-05-26T15:26:50Z</time>
      </trkpt>
      <trkpt lat="49.21417" lon="1.69883">
        <ele>109.25</ele>
        <time>2013-05-26T15:27:31Z</time>
      </trkpt>
      <trkpt lat="49.21418" lon="1.69883">
        <ele>109.25</ele>
        <time>2013-05-26T15:28:21Z</time>
      </trkpt>
      <trkpt lat="49.21418" lon="1.69884">
        <ele>109.73</ele>
        <time>2013-05-26T15:29:00Z</time>
      </trkpt>
      <trkpt lat="49.21418" lon="1.69884">
        <ele>109.73</ele>
        <time>2013-05-26T15:29:38Z</time>
      </trkpt>
      <trkpt lat="49.21418" lon="1.69884">
        <ele>110.21</ele>
        <time>2013-05-26T15:30:23Z</time>
      </trkpt>
      <trkpt lat="49.21417" lon="1.69884">
        <ele>108.77</ele>
        <time>2013-05-26T15:31:07Z</time>
      </trkpt>
      <trkpt lat="49.21417" lon="1.69885">
        <ele>109.25</ele>
        <time>2013-05-26T15:31:50Z</time>
      </trkpt>
      <trkpt lat="49.21417" lon="1.69885">
        <ele>109.73</ele>
        <time>2013-05-26T15:32:32Z</time>
      </trkpt>
      <trkpt lat="49.21418" lon="1.69885">
        <ele>109.73</ele>
        <time>2013-05-26T15:33:13Z</time>
      </trkpt>
      <trkpt lat="49.21418" lon="1.69886">
        <ele>109.25</ele>
        <time>2013-05-26T15:33:48Z</time>
      </trkpt>
      <trkpt lat="49.21417" lon="1.69885">
        <ele>109.25</ele>
        <time>2013-05-26T15:34:23Z</time>
      </trkpt>
      <trkpt lat="49.21417" lon="1.69884">
        <ele>109.25</ele>
        <time>2013-05-26T15:35:01Z</time>
      </trkpt>
      <trkpt lat="49.21418" lon="1.69887">
        <ele>110.69</ele>
        <time>2013-05-26T15:35:17Z</time>
      </trkpt>
      <trkpt lat="49.21418" lon="1.69888">
        <ele>116.46</ele>
        <time>2013-05-26T15:35:25Z</time>
      </trkpt>
      <trkpt lat="49.21418" lon="1.69887">
        <ele>109.73</ele>
        <time>2013-05-26T15:35:26Z</time>
      </trkpt>
      <trkpt lat="49.21418" lon="1.69888">
        <ele>111.65</ele>
        <time>2013-05-26T15:35:27Z</time>
      </trkpt>
      <trkpt lat="49.21418" lon="1.69887">
        <ele>109.25</ele>
        <time>2013-05-26T15:35:47Z</time>
      </trkpt>
      <trkpt lat="49.21418" lon="1.69888">
        <ele>106.36</ele>
        <time>2013-05-26T15:35:53Z</time>
      </trkpt>
      <trkpt lat="49.21418" lon="1.69888">
        <ele>111.17</ele>
        <time>2013-05-26T15:35:54Z</time>
      </trkpt>
      <trkpt lat="49.21418" lon="1.69888">
        <ele>110.69</ele>
        <time>2013-05-26T15:35:57Z</time>
      </trkpt>
    </trkseg>
  </trk>
</gpx>